<?xml version="1.0" encoding="UTF-8" standalone="no" ?>
<gpx xmlns="http://www.topografix.com/GPX/1/1" xmlns:xsi="http://www.w3.org/2001/XMLSchema-instance" xsi:schemaLocation="http://www.topografix.com/GPX/1/1 http://www.topografix.com/GPX/1/1/gpx.xsd" version="1.1" creator="VisuGPX - https://www.visugpx.com">
  <metadata>
    <name>20.05.2021 -Verdon jour 4 Blieux Blieux</name>
    <desc><![CDATA[Descentre Croix de la Melle Majastres le top. De même depuis le portail de Blieux jusqu'à Pointu, superbe descente. ]]></desc>
  </metadata>
  <trk>
    <name><![CDATA[13211222-Verdon jour 4 Blieux Blieux]]></name>
    <extensions>
      <line xmlns="http://www.topografix.com/GPX/gpx_style/0/2">
        <color>0000FF</color>
        <width>4</width>
      </line>
    </extensions>
    <trkseg>
      <trkpt lat="43.87263" lon="6.3692">
        <ele>976</ele>
        <time>2022-06-09T16:58:38Z</time>
      </trkpt>
      <trkpt lat="43.87261" lon="6.36919">
        <ele>977</ele>
        <time>2022-06-09T16:58:38Z</time>
      </trkpt>
      <trkpt lat="43.87263" lon="6.36921">
        <ele>976</ele>
        <time>2022-06-09T16:58:39Z</time>
      </trkpt>
      <trkpt lat="43.8726" lon="6.36921">
        <ele>977</ele>
        <time>2022-06-09T16:58:40Z</time>
      </trkpt>
      <trkpt lat="43.87262" lon="6.36921">
        <ele>976</ele>
        <time>2022-06-09T16:58:40Z</time>
      </trkpt>
      <trkpt lat="43.8726" lon="6.3692">
        <ele>977</ele>
        <time>2022-06-09T16:58:41Z</time>
      </trkpt>
      <trkpt lat="43.87263" lon="6.36915">
        <ele>977</ele>
        <time>2022-06-09T16:58:42Z</time>
      </trkpt>
      <trkpt lat="43.87256" lon="6.36915">
        <ele>979</ele>
        <time>2022-06-09T16:58:43Z</time>
      </trkpt>
      <trkpt lat="43.87245" lon="6.36933">
        <ele>975</ele>
        <time>2022-06-09T16:58:47Z</time>
      </trkpt>
      <trkpt lat="43.87217" lon="6.36961">
        <ele>965</ele>
        <time>2022-06-09T16:58:55Z</time>
      </trkpt>
      <trkpt lat="43.87202" lon="6.36967">
        <ele>961</ele>
        <time>2022-06-09T16:58:59Z</time>
      </trkpt>
      <trkpt lat="43.87183" lon="6.3696">
        <ele>959</ele>
        <time>2022-06-09T16:59:04Z</time>
      </trkpt>
      <trkpt lat="43.87184" lon="6.36979">
        <ele>957</ele>
        <time>2022-06-09T16:59:07Z</time>
      </trkpt>
      <trkpt lat="43.87188" lon="6.36987">
        <ele>956</ele>
        <time>2022-06-09T16:59:09Z</time>
      </trkpt>
      <trkpt lat="43.8723" lon="6.36993">
        <ele>961</ele>
        <time>2022-06-09T16:59:18Z</time>
      </trkpt>
      <trkpt lat="43.87247" lon="6.36986">
        <ele>965</ele>
        <time>2022-06-09T16:59:23Z</time>
      </trkpt>
      <trkpt lat="43.87253" lon="6.36981">
        <ele>966</ele>
        <time>2022-06-09T16:59:24Z</time>
      </trkpt>
      <trkpt lat="43.87287" lon="6.36935">
        <ele>969</ele>
        <time>2022-06-09T16:59:35Z</time>
      </trkpt>
      <trkpt lat="43.87307" lon="6.36914">
        <ele>968</ele>
        <time>2022-06-09T16:59:41Z</time>
      </trkpt>
      <trkpt lat="43.87332" lon="6.36896">
        <ele>966</ele>
        <time>2022-06-09T16:59:48Z</time>
      </trkpt>
      <trkpt lat="43.87337" lon="6.36896">
        <ele>966</ele>
        <time>2022-06-09T16:59:49Z</time>
      </trkpt>
      <trkpt lat="43.87342" lon="6.369">
        <ele>966</ele>
        <time>2022-06-09T16:59:50Z</time>
      </trkpt>
      <trkpt lat="43.87349" lon="6.36913">
        <ele>964</ele>
        <time>2022-06-09T16:59:53Z</time>
      </trkpt>
      <trkpt lat="43.87352" lon="6.36927">
        <ele>963</ele>
        <time>2022-06-09T16:59:55Z</time>
      </trkpt>
      <trkpt lat="43.87349" lon="6.36939">
        <ele>963</ele>
        <time>2022-06-09T16:59:58Z</time>
      </trkpt>
      <trkpt lat="43.87339" lon="6.36951">
        <ele>961</ele>
        <time>2022-06-09T17:00:01Z</time>
      </trkpt>
      <trkpt lat="43.87342" lon="6.36952">
        <ele>962</ele>
        <time>2022-06-09T17:00:01Z</time>
      </trkpt>
      <trkpt lat="43.87353" lon="6.36936">
        <ele>963</ele>
        <time>2022-06-09T17:00:05Z</time>
      </trkpt>
      <trkpt lat="43.87351" lon="6.36934">
        <ele>963</ele>
        <time>2022-06-09T17:00:06Z</time>
      </trkpt>
      <trkpt lat="43.87347" lon="6.36938">
        <ele>963</ele>
        <time>2022-06-09T17:00:07Z</time>
      </trkpt>
      <trkpt lat="43.87346" lon="6.36936">
        <ele>962</ele>
        <time>2022-06-09T17:00:07Z</time>
      </trkpt>
      <trkpt lat="43.87347" lon="6.36945">
        <ele>963</ele>
        <time>2022-06-09T17:00:09Z</time>
      </trkpt>
      <trkpt lat="43.87354" lon="6.3694">
        <ele>964</ele>
        <time>2022-06-09T17:00:11Z</time>
      </trkpt>
      <trkpt lat="43.8735" lon="6.36916">
        <ele>963</ele>
        <time>2022-06-09T17:00:15Z</time>
      </trkpt>
      <trkpt lat="43.87334" lon="6.36897">
        <ele>966</ele>
        <time>2022-06-09T17:00:20Z</time>
      </trkpt>
      <trkpt lat="43.8729" lon="6.36933">
        <ele>969</ele>
        <time>2022-06-09T17:00:32Z</time>
      </trkpt>
      <trkpt lat="43.87265" lon="6.36969">
        <ele>967</ele>
        <time>2022-06-09T17:00:40Z</time>
      </trkpt>
      <trkpt lat="43.87266" lon="6.36971">
        <ele>967</ele>
        <time>2022-06-09T17:00:40Z</time>
      </trkpt>
      <trkpt lat="43.87263" lon="6.36971">
        <ele>967</ele>
        <time>2022-06-09T17:00:41Z</time>
      </trkpt>
      <trkpt lat="43.87268" lon="6.36974">
        <ele>966</ele>
        <time>2022-06-09T17:00:42Z</time>
      </trkpt>
      <trkpt lat="43.87257" lon="6.36971">
        <ele>968</ele>
        <time>2022-06-09T17:00:45Z</time>
      </trkpt>
      <trkpt lat="43.87253" lon="6.3698">
        <ele>966</ele>
        <time>2022-06-09T17:00:47Z</time>
      </trkpt>
      <trkpt lat="43.87243" lon="6.36989">
        <ele>963</ele>
        <time>2022-06-09T17:00:50Z</time>
      </trkpt>
      <trkpt lat="43.87242" lon="6.36986">
        <ele>964</ele>
        <time>2022-06-09T17:00:50Z</time>
      </trkpt>
      <trkpt lat="43.87226" lon="6.36995">
        <ele>960</ele>
        <time>2022-06-09T17:00:54Z</time>
      </trkpt>
      <trkpt lat="43.87204" lon="6.36995">
        <ele>957</ele>
        <time>2022-06-09T17:00:59Z</time>
      </trkpt>
      <trkpt lat="43.87184" lon="6.36988">
        <ele>956</ele>
        <time>2022-06-09T17:01:04Z</time>
      </trkpt>
      <trkpt lat="43.8718" lon="6.3697">
        <ele>957</ele>
        <time>2022-06-09T17:01:07Z</time>
      </trkpt>
      <trkpt lat="43.87184" lon="6.36936">
        <ele>962</ele>
        <time>2022-06-09T17:01:13Z</time>
      </trkpt>
      <trkpt lat="43.87201" lon="6.3687">
        <ele>967</ele>
        <time>2022-06-09T17:01:25Z</time>
      </trkpt>
      <trkpt lat="43.87235" lon="6.36758">
        <ele>974</ele>
        <time>2022-06-09T17:01:45Z</time>
      </trkpt>
      <trkpt lat="43.87345" lon="6.3647">
        <ele>963</ele>
        <time>2022-06-09T17:02:40Z</time>
      </trkpt>
      <trkpt lat="43.8736" lon="6.36451">
        <ele>965</ele>
        <time>2022-06-09T17:02:45Z</time>
      </trkpt>
      <trkpt lat="43.87401" lon="6.36419">
        <ele>971</ele>
        <time>2022-06-09T17:02:56Z</time>
      </trkpt>
      <trkpt lat="43.87427" lon="6.36386">
        <ele>970</ele>
        <time>2022-06-09T17:03:04Z</time>
      </trkpt>
      <trkpt lat="43.87472" lon="6.36338">
        <ele>970</ele>
        <time>2022-06-09T17:03:17Z</time>
      </trkpt>
      <trkpt lat="43.87497" lon="6.36315">
        <ele>971</ele>
        <time>2022-06-09T17:03:24Z</time>
      </trkpt>
      <trkpt lat="43.87549" lon="6.36249">
        <ele>965</ele>
        <time>2022-06-09T17:03:41Z</time>
      </trkpt>
      <trkpt lat="43.87569" lon="6.36235">
        <ele>966</ele>
        <time>2022-06-09T17:03:46Z</time>
      </trkpt>
      <trkpt lat="43.87638" lon="6.36177">
        <ele>970</ele>
        <time>2022-06-09T17:04:05Z</time>
      </trkpt>
      <trkpt lat="43.8769" lon="6.36056">
        <ele>963</ele>
        <time>2022-06-09T17:04:29Z</time>
      </trkpt>
      <trkpt lat="43.87736" lon="6.36004">
        <ele>966</ele>
        <time>2022-06-09T17:04:43Z</time>
      </trkpt>
      <trkpt lat="43.87752" lon="6.35975">
        <ele>966</ele>
        <time>2022-06-09T17:04:49Z</time>
      </trkpt>
      <trkpt lat="43.87768" lon="6.35934">
        <ele>965</ele>
        <time>2022-06-09T17:04:57Z</time>
      </trkpt>
      <trkpt lat="43.87771" lon="6.35918">
        <ele>964</ele>
        <time>2022-06-09T17:04:59Z</time>
      </trkpt>
      <trkpt lat="43.87793" lon="6.35868">
        <ele>965</ele>
        <time>2022-06-09T17:05:09Z</time>
      </trkpt>
      <trkpt lat="43.87801" lon="6.35828">
        <ele>965</ele>
        <time>2022-06-09T17:05:16Z</time>
      </trkpt>
      <trkpt lat="43.8781" lon="6.35805">
        <ele>965</ele>
        <time>2022-06-09T17:05:21Z</time>
      </trkpt>
      <trkpt lat="43.87808" lon="6.35803">
        <ele>965</ele>
        <time>2022-06-09T17:05:21Z</time>
      </trkpt>
      <trkpt lat="43.8781" lon="6.35802">
        <ele>965</ele>
        <time>2022-06-09T17:05:22Z</time>
      </trkpt>
      <trkpt lat="43.87807" lon="6.35801">
        <ele>965</ele>
        <time>2022-06-09T17:05:22Z</time>
      </trkpt>
      <trkpt lat="43.87851" lon="6.35751">
        <ele>969</ele>
        <time>2022-06-09T17:05:36Z</time>
      </trkpt>
      <trkpt lat="43.87866" lon="6.35693">
        <ele>968</ele>
        <time>2022-06-09T17:05:46Z</time>
      </trkpt>
      <trkpt lat="43.8791" lon="6.3564">
        <ele>969</ele>
        <time>2022-06-09T17:06:00Z</time>
      </trkpt>
      <trkpt lat="43.87947" lon="6.3558">
        <ele>971</ele>
        <time>2022-06-09T17:06:13Z</time>
      </trkpt>
      <trkpt lat="43.87961" lon="6.35551">
        <ele>971</ele>
        <time>2022-06-09T17:06:19Z</time>
      </trkpt>
      <trkpt lat="43.87989" lon="6.35505">
        <ele>971</ele>
        <time>2022-06-09T17:06:29Z</time>
      </trkpt>
      <trkpt lat="43.87993" lon="6.35493">
        <ele>971</ele>
        <time>2022-06-09T17:06:31Z</time>
      </trkpt>
      <trkpt lat="43.87987" lon="6.35487">
        <ele>971</ele>
        <time>2022-06-09T17:06:33Z</time>
      </trkpt>
      <trkpt lat="43.88019" lon="6.3544">
        <ele>972</ele>
        <time>2022-06-09T17:06:44Z</time>
      </trkpt>
      <trkpt lat="43.88032" lon="6.35404">
        <ele>973</ele>
        <time>2022-06-09T17:06:51Z</time>
      </trkpt>
      <trkpt lat="43.88039" lon="6.35367">
        <ele>975</ele>
        <time>2022-06-09T17:06:57Z</time>
      </trkpt>
      <trkpt lat="43.88046" lon="6.35322">
        <ele>977</ele>
        <time>2022-06-09T17:07:05Z</time>
      </trkpt>
      <trkpt lat="43.8805" lon="6.3527">
        <ele>978</ele>
        <time>2022-06-09T17:07:14Z</time>
      </trkpt>
      <trkpt lat="43.88056" lon="6.35236">
        <ele>979</ele>
        <time>2022-06-09T17:07:19Z</time>
      </trkpt>
      <trkpt lat="43.88095" lon="6.35158">
        <ele>980</ele>
        <time>2022-06-09T17:07:35Z</time>
      </trkpt>
      <trkpt lat="43.88111" lon="6.35104">
        <ele>984</ele>
        <time>2022-06-09T17:07:45Z</time>
      </trkpt>
      <trkpt lat="43.8813" lon="6.35051">
        <ele>986</ele>
        <time>2022-06-09T17:07:55Z</time>
      </trkpt>
      <trkpt lat="43.88153" lon="6.35013">
        <ele>986</ele>
        <time>2022-06-09T17:08:04Z</time>
      </trkpt>
      <trkpt lat="43.88195" lon="6.3498">
        <ele>990</ele>
        <time>2022-06-09T17:08:15Z</time>
      </trkpt>
      <trkpt lat="43.88241" lon="6.34983">
        <ele>996</ele>
        <time>2022-06-09T17:08:26Z</time>
      </trkpt>
      <trkpt lat="43.88269" lon="6.34969">
        <ele>999</ele>
        <time>2022-06-09T17:08:33Z</time>
      </trkpt>
      <trkpt lat="43.88296" lon="6.34961">
        <ele>1002</ele>
        <time>2022-06-09T17:08:39Z</time>
      </trkpt>
      <trkpt lat="43.88309" lon="6.34965">
        <ele>1004</ele>
        <time>2022-06-09T17:08:42Z</time>
      </trkpt>
      <trkpt lat="43.88318" lon="6.34972">
        <ele>1006</ele>
        <time>2022-06-09T17:08:45Z</time>
      </trkpt>
      <trkpt lat="43.88351" lon="6.34972">
        <ele>1010</ele>
        <time>2022-06-09T17:08:52Z</time>
      </trkpt>
      <trkpt lat="43.88359" lon="6.3497">
        <ele>1011</ele>
        <time>2022-06-09T17:08:54Z</time>
      </trkpt>
      <trkpt lat="43.88367" lon="6.34964">
        <ele>1012</ele>
        <time>2022-06-09T17:08:56Z</time>
      </trkpt>
      <trkpt lat="43.8838" lon="6.34949">
        <ele>1013</ele>
        <time>2022-06-09T17:09:00Z</time>
      </trkpt>
      <trkpt lat="43.88403" lon="6.34933">
        <ele>1016</ele>
        <time>2022-06-09T17:09:06Z</time>
      </trkpt>
      <trkpt lat="43.88438" lon="6.34934">
        <ele>1020</ele>
        <time>2022-06-09T17:09:14Z</time>
      </trkpt>
      <trkpt lat="43.8847" lon="6.34927">
        <ele>1023</ele>
        <time>2022-06-09T17:09:22Z</time>
      </trkpt>
      <trkpt lat="43.88496" lon="6.34917">
        <ele>1025</ele>
        <time>2022-06-09T17:09:28Z</time>
      </trkpt>
      <trkpt lat="43.88505" lon="6.34916">
        <ele>1026</ele>
        <time>2022-06-09T17:09:30Z</time>
      </trkpt>
      <trkpt lat="43.88529" lon="6.34919">
        <ele>1030</ele>
        <time>2022-06-09T17:09:36Z</time>
      </trkpt>
      <trkpt lat="43.88549" lon="6.34911">
        <ele>1032</ele>
        <time>2022-06-09T17:09:41Z</time>
      </trkpt>
      <trkpt lat="43.88569" lon="6.34871">
        <ele>1032</ele>
        <time>2022-06-09T17:09:49Z</time>
      </trkpt>
      <trkpt lat="43.88587" lon="6.34866">
        <ele>1034</ele>
        <time>2022-06-09T17:09:53Z</time>
      </trkpt>
      <trkpt lat="43.88594" lon="6.34856">
        <ele>1035</ele>
        <time>2022-06-09T17:09:56Z</time>
      </trkpt>
      <trkpt lat="43.88594" lon="6.3485">
        <ele>1035</ele>
        <time>2022-06-09T17:09:57Z</time>
      </trkpt>
      <trkpt lat="43.8859" lon="6.34839">
        <ele>1033</ele>
        <time>2022-06-09T17:09:59Z</time>
      </trkpt>
      <trkpt lat="43.88577" lon="6.3483">
        <ele>1031</ele>
        <time>2022-06-09T17:10:02Z</time>
      </trkpt>
      <trkpt lat="43.88553" lon="6.34821">
        <ele>1030</ele>
        <time>2022-06-09T17:10:08Z</time>
      </trkpt>
      <trkpt lat="43.88543" lon="6.34807">
        <ele>1031</ele>
        <time>2022-06-09T17:10:11Z</time>
      </trkpt>
      <trkpt lat="43.88532" lon="6.34765">
        <ele>1037</ele>
        <time>2022-06-09T17:10:19Z</time>
      </trkpt>
      <trkpt lat="43.88515" lon="6.3473">
        <ele>1039</ele>
        <time>2022-06-09T17:10:26Z</time>
      </trkpt>
      <trkpt lat="43.88519" lon="6.34724">
        <ele>1041</ele>
        <time>2022-06-09T17:10:27Z</time>
      </trkpt>
      <trkpt lat="43.88523" lon="6.34724">
        <ele>1042</ele>
        <time>2022-06-09T17:10:28Z</time>
      </trkpt>
      <trkpt lat="43.88538" lon="6.34735">
        <ele>1043</ele>
        <time>2022-06-09T17:10:32Z</time>
      </trkpt>
      <trkpt lat="43.88576" lon="6.34747">
        <ele>1048</ele>
        <time>2022-06-09T17:10:41Z</time>
      </trkpt>
      <trkpt lat="43.88584" lon="6.3474">
        <ele>1052</ele>
        <time>2022-06-09T17:10:43Z</time>
      </trkpt>
      <trkpt lat="43.88579" lon="6.34726">
        <ele>1054</ele>
        <time>2022-06-09T17:10:46Z</time>
      </trkpt>
      <trkpt lat="43.88568" lon="6.34719">
        <ele>1053</ele>
        <time>2022-06-09T17:10:49Z</time>
      </trkpt>
      <trkpt lat="43.8852" lon="6.34657">
        <ele>1053</ele>
        <time>2022-06-09T17:11:04Z</time>
      </trkpt>
      <trkpt lat="43.88507" lon="6.34637">
        <ele>1051</ele>
        <time>2022-06-09T17:11:09Z</time>
      </trkpt>
      <trkpt lat="43.88508" lon="6.34617">
        <ele>1053</ele>
        <time>2022-06-09T17:11:12Z</time>
      </trkpt>
      <trkpt lat="43.88525" lon="6.34584">
        <ele>1059</ele>
        <time>2022-06-09T17:11:19Z</time>
      </trkpt>
      <trkpt lat="43.88536" lon="6.34574">
        <ele>1061</ele>
        <time>2022-06-09T17:11:22Z</time>
      </trkpt>
      <trkpt lat="43.88573" lon="6.34577">
        <ele>1071</ele>
        <time>2022-06-09T17:11:31Z</time>
      </trkpt>
      <trkpt lat="43.88595" lon="6.34585">
        <ele>1076</ele>
        <time>2022-06-09T17:11:36Z</time>
      </trkpt>
      <trkpt lat="43.88603" lon="6.34594">
        <ele>1076</ele>
        <time>2022-06-09T17:11:38Z</time>
      </trkpt>
      <trkpt lat="43.88611" lon="6.3461">
        <ele>1077</ele>
        <time>2022-06-09T17:11:42Z</time>
      </trkpt>
      <trkpt lat="43.88625" lon="6.34646">
        <ele>1077</ele>
        <time>2022-06-09T17:11:49Z</time>
      </trkpt>
      <trkpt lat="43.88637" lon="6.34661">
        <ele>1079</ele>
        <time>2022-06-09T17:11:52Z</time>
      </trkpt>
      <trkpt lat="43.88667" lon="6.34685">
        <ele>1080</ele>
        <time>2022-06-09T17:12:00Z</time>
      </trkpt>
      <trkpt lat="43.88678" lon="6.34684">
        <ele>1083</ele>
        <time>2022-06-09T17:12:03Z</time>
      </trkpt>
      <trkpt lat="43.88685" lon="6.34647">
        <ele>1088</ele>
        <time>2022-06-09T17:12:09Z</time>
      </trkpt>
      <trkpt lat="43.88711" lon="6.34614">
        <ele>1093</ele>
        <time>2022-06-09T17:12:18Z</time>
      </trkpt>
      <trkpt lat="43.88721" lon="6.34605">
        <ele>1094</ele>
        <time>2022-06-09T17:12:20Z</time>
      </trkpt>
      <trkpt lat="43.88734" lon="6.34596">
        <ele>1096</ele>
        <time>2022-06-09T17:12:24Z</time>
      </trkpt>
      <trkpt lat="43.88775" lon="6.34579">
        <ele>1102</ele>
        <time>2022-06-09T17:12:34Z</time>
      </trkpt>
      <trkpt lat="43.88775" lon="6.34582">
        <ele>1102</ele>
        <time>2022-06-09T17:12:34Z</time>
      </trkpt>
      <trkpt lat="43.88779" lon="6.34582">
        <ele>1102</ele>
        <time>2022-06-09T17:12:35Z</time>
      </trkpt>
      <trkpt lat="43.88838" lon="6.34572">
        <ele>1112</ele>
        <time>2022-06-09T17:12:49Z</time>
      </trkpt>
      <trkpt lat="43.88851" lon="6.34562">
        <ele>1114</ele>
        <time>2022-06-09T17:12:53Z</time>
      </trkpt>
      <trkpt lat="43.8886" lon="6.34545">
        <ele>1116</ele>
        <time>2022-06-09T17:12:56Z</time>
      </trkpt>
      <trkpt lat="43.88868" lon="6.34504">
        <ele>1117</ele>
        <time>2022-06-09T17:13:03Z</time>
      </trkpt>
      <trkpt lat="43.8888" lon="6.34478">
        <ele>1120</ele>
        <time>2022-06-09T17:13:09Z</time>
      </trkpt>
      <trkpt lat="43.88883" lon="6.34476">
        <ele>1121</ele>
        <time>2022-06-09T17:13:09Z</time>
      </trkpt>
      <trkpt lat="43.88887" lon="6.34479">
        <ele>1122</ele>
        <time>2022-06-09T17:13:10Z</time>
      </trkpt>
      <trkpt lat="43.88891" lon="6.3449">
        <ele>1123</ele>
        <time>2022-06-09T17:13:12Z</time>
      </trkpt>
      <trkpt lat="43.88895" lon="6.34526">
        <ele>1124</ele>
        <time>2022-06-09T17:13:19Z</time>
      </trkpt>
      <trkpt lat="43.88919" lon="6.3456">
        <ele>1129</ele>
        <time>2022-06-09T17:13:27Z</time>
      </trkpt>
      <trkpt lat="43.88943" lon="6.34613">
        <ele>1135</ele>
        <time>2022-06-09T17:13:37Z</time>
      </trkpt>
      <trkpt lat="43.88944" lon="6.34633">
        <ele>1136</ele>
        <time>2022-06-09T17:13:41Z</time>
      </trkpt>
      <trkpt lat="43.88942" lon="6.34651">
        <ele>1136</ele>
        <time>2022-06-09T17:13:44Z</time>
      </trkpt>
      <trkpt lat="43.88925" lon="6.34707">
        <ele>1135</ele>
        <time>2022-06-09T17:13:54Z</time>
      </trkpt>
      <trkpt lat="43.88922" lon="6.34726">
        <ele>1135</ele>
        <time>2022-06-09T17:13:57Z</time>
      </trkpt>
      <trkpt lat="43.8893" lon="6.34729">
        <ele>1137</ele>
        <time>2022-06-09T17:13:59Z</time>
      </trkpt>
      <trkpt lat="43.88956" lon="6.34709">
        <ele>1143</ele>
        <time>2022-06-09T17:14:06Z</time>
      </trkpt>
      <trkpt lat="43.88986" lon="6.34694">
        <ele>1149</ele>
        <time>2022-06-09T17:14:13Z</time>
      </trkpt>
      <trkpt lat="43.89008" lon="6.34672">
        <ele>1153</ele>
        <time>2022-06-09T17:14:20Z</time>
      </trkpt>
      <trkpt lat="43.89026" lon="6.34642">
        <ele>1157</ele>
        <time>2022-06-09T17:14:26Z</time>
      </trkpt>
      <trkpt lat="43.89035" lon="6.34639">
        <ele>1160</ele>
        <time>2022-06-09T17:14:28Z</time>
      </trkpt>
      <trkpt lat="43.8904" lon="6.34649">
        <ele>1161</ele>
        <time>2022-06-09T17:14:31Z</time>
      </trkpt>
      <trkpt lat="43.89031" lon="6.34686">
        <ele>1161</ele>
        <time>2022-06-09T17:14:37Z</time>
      </trkpt>
      <trkpt lat="43.89035" lon="6.34703">
        <ele>1163</ele>
        <time>2022-06-09T17:14:40Z</time>
      </trkpt>
      <trkpt lat="43.89035" lon="6.34725">
        <ele>1165</ele>
        <time>2022-06-09T17:14:44Z</time>
      </trkpt>
      <trkpt lat="43.89029" lon="6.34749">
        <ele>1165</ele>
        <time>2022-06-09T17:14:48Z</time>
      </trkpt>
      <trkpt lat="43.89024" lon="6.34754">
        <ele>1164</ele>
        <time>2022-06-09T17:14:50Z</time>
      </trkpt>
      <trkpt lat="43.88997" lon="6.34804">
        <ele>1165</ele>
        <time>2022-06-09T17:15:00Z</time>
      </trkpt>
      <trkpt lat="43.88993" lon="6.34816">
        <ele>1165</ele>
        <time>2022-06-09T17:15:02Z</time>
      </trkpt>
      <trkpt lat="43.89001" lon="6.34823">
        <ele>1169</ele>
        <time>2022-06-09T17:15:04Z</time>
      </trkpt>
      <trkpt lat="43.89015" lon="6.3481">
        <ele>1171</ele>
        <time>2022-06-09T17:15:08Z</time>
      </trkpt>
      <trkpt lat="43.89028" lon="6.34803">
        <ele>1173</ele>
        <time>2022-06-09T17:15:12Z</time>
      </trkpt>
      <trkpt lat="43.89061" lon="6.34791">
        <ele>1181</ele>
        <time>2022-06-09T17:15:20Z</time>
      </trkpt>
      <trkpt lat="43.89066" lon="6.34792">
        <ele>1182</ele>
        <time>2022-06-09T17:15:21Z</time>
      </trkpt>
      <trkpt lat="43.89086" lon="6.34782">
        <ele>1186</ele>
        <time>2022-06-09T17:15:26Z</time>
      </trkpt>
      <trkpt lat="43.89092" lon="6.34768">
        <ele>1186</ele>
        <time>2022-06-09T17:15:29Z</time>
      </trkpt>
      <trkpt lat="43.89095" lon="6.34753">
        <ele>1184</ele>
        <time>2022-06-09T17:15:31Z</time>
      </trkpt>
      <trkpt lat="43.89118" lon="6.34703">
        <ele>1191</ele>
        <time>2022-06-09T17:15:41Z</time>
      </trkpt>
      <trkpt lat="43.89131" lon="6.34654">
        <ele>1193</ele>
        <time>2022-06-09T17:15:50Z</time>
      </trkpt>
      <trkpt lat="43.8914" lon="6.34635">
        <ele>1196</ele>
        <time>2022-06-09T17:15:54Z</time>
      </trkpt>
      <trkpt lat="43.89151" lon="6.34574">
        <ele>1199</ele>
        <time>2022-06-09T17:16:04Z</time>
      </trkpt>
      <trkpt lat="43.89175" lon="6.34512">
        <ele>1209</ele>
        <time>2022-06-09T17:16:16Z</time>
      </trkpt>
      <trkpt lat="43.89178" lon="6.34497">
        <ele>1210</ele>
        <time>2022-06-09T17:16:19Z</time>
      </trkpt>
      <trkpt lat="43.89179" lon="6.34461">
        <ele>1212</ele>
        <time>2022-06-09T17:16:25Z</time>
      </trkpt>
      <trkpt lat="43.89192" lon="6.34423">
        <ele>1220</ele>
        <time>2022-06-09T17:16:32Z</time>
      </trkpt>
      <trkpt lat="43.89191" lon="6.34401">
        <ele>1221</ele>
        <time>2022-06-09T17:16:36Z</time>
      </trkpt>
      <trkpt lat="43.89186" lon="6.34388">
        <ele>1220</ele>
        <time>2022-06-09T17:16:38Z</time>
      </trkpt>
      <trkpt lat="43.89185" lon="6.34328">
        <ele>1226</ele>
        <time>2022-06-09T17:16:48Z</time>
      </trkpt>
      <trkpt lat="43.89163" lon="6.34243">
        <ele>1226</ele>
        <time>2022-06-09T17:17:03Z</time>
      </trkpt>
      <trkpt lat="43.8917" lon="6.34189">
        <ele>1232</ele>
        <time>2022-06-09T17:17:13Z</time>
      </trkpt>
      <trkpt lat="43.89182" lon="6.34155">
        <ele>1237</ele>
        <time>2022-06-09T17:17:19Z</time>
      </trkpt>
      <trkpt lat="43.89201" lon="6.34062">
        <ele>1243</ele>
        <time>2022-06-09T17:17:35Z</time>
      </trkpt>
      <trkpt lat="43.89207" lon="6.34045">
        <ele>1244</ele>
        <time>2022-06-09T17:17:38Z</time>
      </trkpt>
      <trkpt lat="43.89214" lon="6.3403">
        <ele>1245</ele>
        <time>2022-06-09T17:17:41Z</time>
      </trkpt>
      <trkpt lat="43.89222" lon="6.34028">
        <ele>1247</ele>
        <time>2022-06-09T17:17:43Z</time>
      </trkpt>
      <trkpt lat="43.89241" lon="6.34085">
        <ele>1254</ele>
        <time>2022-06-09T17:17:54Z</time>
      </trkpt>
      <trkpt lat="43.89253" lon="6.3414">
        <ele>1257</ele>
        <time>2022-06-09T17:18:04Z</time>
      </trkpt>
      <trkpt lat="43.89265" lon="6.34179">
        <ele>1259</ele>
        <time>2022-06-09T17:18:11Z</time>
      </trkpt>
      <trkpt lat="43.89268" lon="6.34213">
        <ele>1259</ele>
        <time>2022-06-09T17:18:17Z</time>
      </trkpt>
      <trkpt lat="43.89267" lon="6.34231">
        <ele>1259</ele>
        <time>2022-06-09T17:18:20Z</time>
      </trkpt>
      <trkpt lat="43.89272" lon="6.3425">
        <ele>1259</ele>
        <time>2022-06-09T17:18:23Z</time>
      </trkpt>
      <trkpt lat="43.89285" lon="6.34269">
        <ele>1261</ele>
        <time>2022-06-09T17:18:27Z</time>
      </trkpt>
      <trkpt lat="43.89304" lon="6.34285">
        <ele>1266</ele>
        <time>2022-06-09T17:18:33Z</time>
      </trkpt>
      <trkpt lat="43.89319" lon="6.34305">
        <ele>1269</ele>
        <time>2022-06-09T17:18:37Z</time>
      </trkpt>
      <trkpt lat="43.89322" lon="6.34305">
        <ele>1270</ele>
        <time>2022-06-09T17:18:38Z</time>
      </trkpt>
      <trkpt lat="43.89325" lon="6.34297">
        <ele>1271</ele>
        <time>2022-06-09T17:18:40Z</time>
      </trkpt>
      <trkpt lat="43.89319" lon="6.34276">
        <ele>1270</ele>
        <time>2022-06-09T17:18:43Z</time>
      </trkpt>
      <trkpt lat="43.8932" lon="6.34258">
        <ele>1271</ele>
        <time>2022-06-09T17:18:46Z</time>
      </trkpt>
      <trkpt lat="43.89359" lon="6.34189">
        <ele>1282</ele>
        <time>2022-06-09T17:19:01Z</time>
      </trkpt>
      <trkpt lat="43.89369" lon="6.3415">
        <ele>1284</ele>
        <time>2022-06-09T17:19:08Z</time>
      </trkpt>
      <trkpt lat="43.89393" lon="6.34111">
        <ele>1290</ele>
        <time>2022-06-09T17:19:17Z</time>
      </trkpt>
      <trkpt lat="43.89398" lon="6.3408">
        <ele>1292</ele>
        <time>2022-06-09T17:19:22Z</time>
      </trkpt>
      <trkpt lat="43.89413" lon="6.34041">
        <ele>1295</ele>
        <time>2022-06-09T17:19:30Z</time>
      </trkpt>
      <trkpt lat="43.89417" lon="6.34021">
        <ele>1296</ele>
        <time>2022-06-09T17:19:33Z</time>
      </trkpt>
      <trkpt lat="43.89413" lon="6.33963">
        <ele>1293</ele>
        <time>2022-06-09T17:19:43Z</time>
      </trkpt>
      <trkpt lat="43.89417" lon="6.33934">
        <ele>1293</ele>
        <time>2022-06-09T17:19:48Z</time>
      </trkpt>
      <trkpt lat="43.89426" lon="6.33903">
        <ele>1294</ele>
        <time>2022-06-09T17:19:53Z</time>
      </trkpt>
      <trkpt lat="43.89439" lon="6.33874">
        <ele>1297</ele>
        <time>2022-06-09T17:19:59Z</time>
      </trkpt>
      <trkpt lat="43.89462" lon="6.33833">
        <ele>1302</ele>
        <time>2022-06-09T17:20:08Z</time>
      </trkpt>
      <trkpt lat="43.89489" lon="6.33796">
        <ele>1306</ele>
        <time>2022-06-09T17:20:17Z</time>
      </trkpt>
      <trkpt lat="43.89501" lon="6.33784">
        <ele>1308</ele>
        <time>2022-06-09T17:20:20Z</time>
      </trkpt>
      <trkpt lat="43.89511" lon="6.33748">
        <ele>1309</ele>
        <time>2022-06-09T17:20:27Z</time>
      </trkpt>
      <trkpt lat="43.89519" lon="6.33729">
        <ele>1310</ele>
        <time>2022-06-09T17:20:30Z</time>
      </trkpt>
      <trkpt lat="43.89554" lon="6.33683">
        <ele>1319</ele>
        <time>2022-06-09T17:20:42Z</time>
      </trkpt>
      <trkpt lat="43.89564" lon="6.3366">
        <ele>1322</ele>
        <time>2022-06-09T17:20:46Z</time>
      </trkpt>
      <trkpt lat="43.8957" lon="6.33633">
        <ele>1324</ele>
        <time>2022-06-09T17:20:51Z</time>
      </trkpt>
      <trkpt lat="43.89582" lon="6.33611">
        <ele>1327</ele>
        <time>2022-06-09T17:20:56Z</time>
      </trkpt>
      <trkpt lat="43.89591" lon="6.33579">
        <ele>1329</ele>
        <time>2022-06-09T17:21:01Z</time>
      </trkpt>
      <trkpt lat="43.89605" lon="6.33551">
        <ele>1333</ele>
        <time>2022-06-09T17:21:07Z</time>
      </trkpt>
      <trkpt lat="43.89617" lon="6.33532">
        <ele>1335</ele>
        <time>2022-06-09T17:21:11Z</time>
      </trkpt>
      <trkpt lat="43.89651" lon="6.33495">
        <ele>1342</ele>
        <time>2022-06-09T17:21:22Z</time>
      </trkpt>
      <trkpt lat="43.89675" lon="6.33456">
        <ele>1347</ele>
        <time>2022-06-09T17:21:30Z</time>
      </trkpt>
      <trkpt lat="43.89678" lon="6.33443">
        <ele>1348</ele>
        <time>2022-06-09T17:21:32Z</time>
      </trkpt>
      <trkpt lat="43.89673" lon="6.33413">
        <ele>1347</ele>
        <time>2022-06-09T17:21:38Z</time>
      </trkpt>
      <trkpt lat="43.89672" lon="6.33361">
        <ele>1347</ele>
        <time>2022-06-09T17:21:46Z</time>
      </trkpt>
      <trkpt lat="43.8968" lon="6.33323">
        <ele>1349</ele>
        <time>2022-06-09T17:21:53Z</time>
      </trkpt>
      <trkpt lat="43.89696" lon="6.33283">
        <ele>1351</ele>
        <time>2022-06-09T17:22:01Z</time>
      </trkpt>
      <trkpt lat="43.89702" lon="6.3325">
        <ele>1351</ele>
        <time>2022-06-09T17:22:06Z</time>
      </trkpt>
      <trkpt lat="43.8971" lon="6.33244">
        <ele>1351</ele>
        <time>2022-06-09T17:22:09Z</time>
      </trkpt>
      <trkpt lat="43.89721" lon="6.33241">
        <ele>1353</ele>
        <time>2022-06-09T17:22:11Z</time>
      </trkpt>
      <trkpt lat="43.89728" lon="6.33246">
        <ele>1354</ele>
        <time>2022-06-09T17:22:13Z</time>
      </trkpt>
      <trkpt lat="43.89742" lon="6.33251">
        <ele>1357</ele>
        <time>2022-06-09T17:22:16Z</time>
      </trkpt>
      <trkpt lat="43.8974" lon="6.33252">
        <ele>1357</ele>
        <time>2022-06-09T17:22:17Z</time>
      </trkpt>
      <trkpt lat="43.89769" lon="6.33235">
        <ele>1359</ele>
        <time>2022-06-09T17:22:24Z</time>
      </trkpt>
      <trkpt lat="43.89799" lon="6.3324">
        <ele>1364</ele>
        <time>2022-06-09T17:22:31Z</time>
      </trkpt>
      <trkpt lat="43.89812" lon="6.3323">
        <ele>1366</ele>
        <time>2022-06-09T17:22:35Z</time>
      </trkpt>
      <trkpt lat="43.89825" lon="6.33211">
        <ele>1366</ele>
        <time>2022-06-09T17:22:39Z</time>
      </trkpt>
      <trkpt lat="43.89837" lon="6.33202">
        <ele>1367</ele>
        <time>2022-06-09T17:22:42Z</time>
      </trkpt>
      <trkpt lat="43.89861" lon="6.33193">
        <ele>1371</ele>
        <time>2022-06-09T17:22:48Z</time>
      </trkpt>
      <trkpt lat="43.89867" lon="6.33182">
        <ele>1371</ele>
        <time>2022-06-09T17:22:51Z</time>
      </trkpt>
      <trkpt lat="43.89873" lon="6.33154">
        <ele>1370</ele>
        <time>2022-06-09T17:22:55Z</time>
      </trkpt>
      <trkpt lat="43.89879" lon="6.33143">
        <ele>1370</ele>
        <time>2022-06-09T17:22:58Z</time>
      </trkpt>
      <trkpt lat="43.89913" lon="6.33113">
        <ele>1374</ele>
        <time>2022-06-09T17:23:07Z</time>
      </trkpt>
      <trkpt lat="43.89919" lon="6.33101">
        <ele>1373</ele>
        <time>2022-06-09T17:23:10Z</time>
      </trkpt>
      <trkpt lat="43.8993" lon="6.33098">
        <ele>1374</ele>
        <time>2022-06-09T17:23:12Z</time>
      </trkpt>
      <trkpt lat="43.89935" lon="6.33102">
        <ele>1375</ele>
        <time>2022-06-09T17:23:14Z</time>
      </trkpt>
      <trkpt lat="43.89939" lon="6.33112">
        <ele>1376</ele>
        <time>2022-06-09T17:23:16Z</time>
      </trkpt>
      <trkpt lat="43.89957" lon="6.33127">
        <ele>1380</ele>
        <time>2022-06-09T17:23:20Z</time>
      </trkpt>
      <trkpt lat="43.89964" lon="6.33139">
        <ele>1383</ele>
        <time>2022-06-09T17:23:23Z</time>
      </trkpt>
      <trkpt lat="43.89976" lon="6.33149">
        <ele>1385</ele>
        <time>2022-06-09T17:23:26Z</time>
      </trkpt>
      <trkpt lat="43.90002" lon="6.33151">
        <ele>1389</ele>
        <time>2022-06-09T17:23:32Z</time>
      </trkpt>
      <trkpt lat="43.90012" lon="6.33155">
        <ele>1390</ele>
        <time>2022-06-09T17:23:35Z</time>
      </trkpt>
      <trkpt lat="43.9003" lon="6.33168">
        <ele>1394</ele>
        <time>2022-06-09T17:23:40Z</time>
      </trkpt>
      <trkpt lat="43.90053" lon="6.33174">
        <ele>1398</ele>
        <time>2022-06-09T17:23:45Z</time>
      </trkpt>
      <trkpt lat="43.90062" lon="6.33174">
        <ele>1399</ele>
        <time>2022-06-09T17:23:47Z</time>
      </trkpt>
      <trkpt lat="43.90075" lon="6.33183">
        <ele>1402</ele>
        <time>2022-06-09T17:23:51Z</time>
      </trkpt>
      <trkpt lat="43.90081" lon="6.33182">
        <ele>1402</ele>
        <time>2022-06-09T17:23:52Z</time>
      </trkpt>
      <trkpt lat="43.90093" lon="6.33169">
        <ele>1401</ele>
        <time>2022-06-09T17:23:55Z</time>
      </trkpt>
      <trkpt lat="43.90105" lon="6.33161">
        <ele>1401</ele>
        <time>2022-06-09T17:23:59Z</time>
      </trkpt>
      <trkpt lat="43.90115" lon="6.3316">
        <ele>1402</ele>
        <time>2022-06-09T17:24:01Z</time>
      </trkpt>
      <trkpt lat="43.90154" lon="6.3317">
        <ele>1407</ele>
        <time>2022-06-09T17:24:10Z</time>
      </trkpt>
      <trkpt lat="43.90159" lon="6.33166">
        <ele>1407</ele>
        <time>2022-06-09T17:24:12Z</time>
      </trkpt>
      <trkpt lat="43.90164" lon="6.33149">
        <ele>1407</ele>
        <time>2022-06-09T17:24:15Z</time>
      </trkpt>
      <trkpt lat="43.90168" lon="6.3312">
        <ele>1406</ele>
        <time>2022-06-09T17:24:20Z</time>
      </trkpt>
      <trkpt lat="43.90172" lon="6.3311">
        <ele>1406</ele>
        <time>2022-06-09T17:24:22Z</time>
      </trkpt>
      <trkpt lat="43.90181" lon="6.33098">
        <ele>1407</ele>
        <time>2022-06-09T17:24:24Z</time>
      </trkpt>
      <trkpt lat="43.90206" lon="6.33091">
        <ele>1413</ele>
        <time>2022-06-09T17:24:30Z</time>
      </trkpt>
      <trkpt lat="43.90227" lon="6.33069">
        <ele>1417</ele>
        <time>2022-06-09T17:24:37Z</time>
      </trkpt>
      <trkpt lat="43.90233" lon="6.33037">
        <ele>1415</ele>
        <time>2022-06-09T17:24:42Z</time>
      </trkpt>
      <trkpt lat="43.90231" lon="6.33022">
        <ele>1413</ele>
        <time>2022-06-09T17:24:45Z</time>
      </trkpt>
      <trkpt lat="43.90235" lon="6.33007">
        <ele>1413</ele>
        <time>2022-06-09T17:24:47Z</time>
      </trkpt>
      <trkpt lat="43.90237" lon="6.33006">
        <ele>1413</ele>
        <time>2022-06-09T17:24:48Z</time>
      </trkpt>
      <trkpt lat="43.90241" lon="6.33007">
        <ele>1414</ele>
        <time>2022-06-09T17:24:49Z</time>
      </trkpt>
      <trkpt lat="43.90247" lon="6.33016">
        <ele>1416</ele>
        <time>2022-06-09T17:24:51Z</time>
      </trkpt>
      <trkpt lat="43.9025" lon="6.33028">
        <ele>1418</ele>
        <time>2022-06-09T17:24:53Z</time>
      </trkpt>
      <trkpt lat="43.90262" lon="6.33052">
        <ele>1423</ele>
        <time>2022-06-09T17:24:58Z</time>
      </trkpt>
      <trkpt lat="43.90273" lon="6.33088">
        <ele>1429</ele>
        <time>2022-06-09T17:25:04Z</time>
      </trkpt>
      <trkpt lat="43.90264" lon="6.33163">
        <ele>1431</ele>
        <time>2022-06-09T17:25:17Z</time>
      </trkpt>
      <trkpt lat="43.90266" lon="6.33177">
        <ele>1433</ele>
        <time>2022-06-09T17:25:20Z</time>
      </trkpt>
      <trkpt lat="43.90265" lon="6.33193">
        <ele>1436</ele>
        <time>2022-06-09T17:25:22Z</time>
      </trkpt>
      <trkpt lat="43.90258" lon="6.33222">
        <ele>1438</ele>
        <time>2022-06-09T17:25:28Z</time>
      </trkpt>
      <trkpt lat="43.90251" lon="6.33236">
        <ele>1438</ele>
        <time>2022-06-09T17:25:30Z</time>
      </trkpt>
      <trkpt lat="43.90251" lon="6.33243">
        <ele>1439</ele>
        <time>2022-06-09T17:25:32Z</time>
      </trkpt>
      <trkpt lat="43.90254" lon="6.33246">
        <ele>1441</ele>
        <time>2022-06-09T17:25:32Z</time>
      </trkpt>
      <trkpt lat="43.90261" lon="6.3324">
        <ele>1442</ele>
        <time>2022-06-09T17:25:34Z</time>
      </trkpt>
      <trkpt lat="43.90269" lon="6.33227">
        <ele>1442</ele>
        <time>2022-06-09T17:25:37Z</time>
      </trkpt>
      <trkpt lat="43.90349" lon="6.33148">
        <ele>1455</ele>
        <time>2022-06-09T17:26:00Z</time>
      </trkpt>
      <trkpt lat="43.90369" lon="6.33123">
        <ele>1460</ele>
        <time>2022-06-09T17:26:06Z</time>
      </trkpt>
      <trkpt lat="43.90382" lon="6.3309">
        <ele>1461</ele>
        <time>2022-06-09T17:26:13Z</time>
      </trkpt>
      <trkpt lat="43.90391" lon="6.3305">
        <ele>1461</ele>
        <time>2022-06-09T17:26:20Z</time>
      </trkpt>
      <trkpt lat="43.90394" lon="6.33033">
        <ele>1460</ele>
        <time>2022-06-09T17:26:23Z</time>
      </trkpt>
      <trkpt lat="43.90393" lon="6.32993">
        <ele>1455</ele>
        <time>2022-06-09T17:26:30Z</time>
      </trkpt>
      <trkpt lat="43.904" lon="6.32982">
        <ele>1456</ele>
        <time>2022-06-09T17:26:32Z</time>
      </trkpt>
      <trkpt lat="43.9041" lon="6.32999">
        <ele>1463</ele>
        <time>2022-06-09T17:26:36Z</time>
      </trkpt>
      <trkpt lat="43.90408" lon="6.3304">
        <ele>1466</ele>
        <time>2022-06-09T17:26:43Z</time>
      </trkpt>
      <trkpt lat="43.90422" lon="6.33097">
        <ele>1477</ele>
        <time>2022-06-09T17:26:53Z</time>
      </trkpt>
      <trkpt lat="43.90422" lon="6.33115">
        <ele>1479</ele>
        <time>2022-06-09T17:26:56Z</time>
      </trkpt>
      <trkpt lat="43.90415" lon="6.33152">
        <ele>1479</ele>
        <time>2022-06-09T17:27:02Z</time>
      </trkpt>
      <trkpt lat="43.90391" lon="6.33226">
        <ele>1485</ele>
        <time>2022-06-09T17:27:16Z</time>
      </trkpt>
      <trkpt lat="43.90382" lon="6.33244">
        <ele>1485</ele>
        <time>2022-06-09T17:27:20Z</time>
      </trkpt>
      <trkpt lat="43.90374" lon="6.33256">
        <ele>1485</ele>
        <time>2022-06-09T17:27:22Z</time>
      </trkpt>
      <trkpt lat="43.90358" lon="6.3329">
        <ele>1488</ele>
        <time>2022-06-09T17:27:29Z</time>
      </trkpt>
      <trkpt lat="43.90348" lon="6.333">
        <ele>1487</ele>
        <time>2022-06-09T17:27:32Z</time>
      </trkpt>
      <trkpt lat="43.90338" lon="6.33317">
        <ele>1488</ele>
        <time>2022-06-09T17:27:36Z</time>
      </trkpt>
      <trkpt lat="43.9033" lon="6.33337">
        <ele>1490</ele>
        <time>2022-06-09T17:27:40Z</time>
      </trkpt>
      <trkpt lat="43.90314" lon="6.33365">
        <ele>1492</ele>
        <time>2022-06-09T17:27:46Z</time>
      </trkpt>
      <trkpt lat="43.90292" lon="6.33389">
        <ele>1490</ele>
        <time>2022-06-09T17:27:52Z</time>
      </trkpt>
      <trkpt lat="43.90286" lon="6.33406">
        <ele>1493</ele>
        <time>2022-06-09T17:27:55Z</time>
      </trkpt>
      <trkpt lat="43.90281" lon="6.3344">
        <ele>1497</ele>
        <time>2022-06-09T17:28:01Z</time>
      </trkpt>
      <trkpt lat="43.90283" lon="6.3346">
        <ele>1500</ele>
        <time>2022-06-09T17:28:05Z</time>
      </trkpt>
      <trkpt lat="43.9029" lon="6.33484">
        <ele>1507</ele>
        <time>2022-06-09T17:28:09Z</time>
      </trkpt>
      <trkpt lat="43.90297" lon="6.33531">
        <ele>1515</ele>
        <time>2022-06-09T17:28:17Z</time>
      </trkpt>
      <trkpt lat="43.90309" lon="6.33563">
        <ele>1523</ele>
        <time>2022-06-09T17:28:23Z</time>
      </trkpt>
      <trkpt lat="43.90307" lon="6.33579">
        <ele>1523</ele>
        <time>2022-06-09T17:28:26Z</time>
      </trkpt>
      <trkpt lat="43.90287" lon="6.33605">
        <ele>1520</ele>
        <time>2022-06-09T17:28:32Z</time>
      </trkpt>
      <trkpt lat="43.90273" lon="6.33636">
        <ele>1521</ele>
        <time>2022-06-09T17:28:38Z</time>
      </trkpt>
      <trkpt lat="43.90263" lon="6.33666">
        <ele>1523</ele>
        <time>2022-06-09T17:28:44Z</time>
      </trkpt>
      <trkpt lat="43.90257" lon="6.33667">
        <ele>1522</ele>
        <time>2022-06-09T17:28:45Z</time>
      </trkpt>
      <trkpt lat="43.90244" lon="6.33679">
        <ele>1521</ele>
        <time>2022-06-09T17:28:49Z</time>
      </trkpt>
      <trkpt lat="43.90234" lon="6.33697">
        <ele>1522</ele>
        <time>2022-06-09T17:28:53Z</time>
      </trkpt>
      <trkpt lat="43.9022" lon="6.33704">
        <ele>1521</ele>
        <time>2022-06-09T17:28:56Z</time>
      </trkpt>
      <trkpt lat="43.90205" lon="6.33699">
        <ele>1517</ele>
        <time>2022-06-09T17:29:00Z</time>
      </trkpt>
      <trkpt lat="43.90194" lon="6.337">
        <ele>1515</ele>
        <time>2022-06-09T17:29:02Z</time>
      </trkpt>
      <trkpt lat="43.90187" lon="6.33712">
        <ele>1516</ele>
        <time>2022-06-09T17:29:05Z</time>
      </trkpt>
      <trkpt lat="43.9018" lon="6.33747">
        <ele>1521</ele>
        <time>2022-06-09T17:29:11Z</time>
      </trkpt>
      <trkpt lat="43.90181" lon="6.33763">
        <ele>1521</ele>
        <time>2022-06-09T17:29:14Z</time>
      </trkpt>
      <trkpt lat="43.90198" lon="6.33857">
        <ele>1520</ele>
        <time>2022-06-09T17:29:30Z</time>
      </trkpt>
      <trkpt lat="43.90193" lon="6.33909">
        <ele>1518</ele>
        <time>2022-06-09T17:29:39Z</time>
      </trkpt>
      <trkpt lat="43.90196" lon="6.33927">
        <ele>1518</ele>
        <time>2022-06-09T17:29:42Z</time>
      </trkpt>
      <trkpt lat="43.90195" lon="6.3394">
        <ele>1518</ele>
        <time>2022-06-09T17:29:44Z</time>
      </trkpt>
      <trkpt lat="43.902" lon="6.33965">
        <ele>1518</ele>
        <time>2022-06-09T17:29:49Z</time>
      </trkpt>
      <trkpt lat="43.902" lon="6.33995">
        <ele>1518</ele>
        <time>2022-06-09T17:29:54Z</time>
      </trkpt>
      <trkpt lat="43.90205" lon="6.34002">
        <ele>1517</ele>
        <time>2022-06-09T17:29:55Z</time>
      </trkpt>
      <trkpt lat="43.9023" lon="6.33946">
        <ele>1514</ele>
        <time>2022-06-09T17:30:06Z</time>
      </trkpt>
      <trkpt lat="43.90244" lon="6.33924">
        <ele>1514</ele>
        <time>2022-06-09T17:30:11Z</time>
      </trkpt>
      <trkpt lat="43.90255" lon="6.33913">
        <ele>1514</ele>
        <time>2022-06-09T17:30:15Z</time>
      </trkpt>
      <trkpt lat="43.90287" lon="6.33889">
        <ele>1513</ele>
        <time>2022-06-09T17:30:23Z</time>
      </trkpt>
      <trkpt lat="43.90342" lon="6.33862">
        <ele>1511</ele>
        <time>2022-06-09T17:30:37Z</time>
      </trkpt>
      <trkpt lat="43.9038" lon="6.3384">
        <ele>1508</ele>
        <time>2022-06-09T17:30:46Z</time>
      </trkpt>
      <trkpt lat="43.90393" lon="6.3384">
        <ele>1506</ele>
        <time>2022-06-09T17:30:49Z</time>
      </trkpt>
      <trkpt lat="43.90399" lon="6.33849">
        <ele>1505</ele>
        <time>2022-06-09T17:30:51Z</time>
      </trkpt>
      <trkpt lat="43.90399" lon="6.33862">
        <ele>1504</ele>
        <time>2022-06-09T17:30:54Z</time>
      </trkpt>
      <trkpt lat="43.90383" lon="6.33925">
        <ele>1499</ele>
        <time>2022-06-09T17:31:05Z</time>
      </trkpt>
      <trkpt lat="43.90371" lon="6.34038">
        <ele>1491</ele>
        <time>2022-06-09T17:31:24Z</time>
      </trkpt>
      <trkpt lat="43.90362" lon="6.34099">
        <ele>1487</ele>
        <time>2022-06-09T17:31:34Z</time>
      </trkpt>
      <trkpt lat="43.90352" lon="6.34149">
        <ele>1483</ele>
        <time>2022-06-09T17:31:43Z</time>
      </trkpt>
      <trkpt lat="43.90328" lon="6.34243">
        <ele>1475</ele>
        <time>2022-06-09T17:32:00Z</time>
      </trkpt>
      <trkpt lat="43.9033" lon="6.34268">
        <ele>1472</ele>
        <time>2022-06-09T17:32:04Z</time>
      </trkpt>
      <trkpt lat="43.90336" lon="6.34287">
        <ele>1469</ele>
        <time>2022-06-09T17:32:08Z</time>
      </trkpt>
      <trkpt lat="43.90346" lon="6.34299">
        <ele>1466</ele>
        <time>2022-06-09T17:32:11Z</time>
      </trkpt>
      <trkpt lat="43.90354" lon="6.34303">
        <ele>1465</ele>
        <time>2022-06-09T17:32:13Z</time>
      </trkpt>
      <trkpt lat="43.90359" lon="6.34304">
        <ele>1465</ele>
        <time>2022-06-09T17:32:14Z</time>
      </trkpt>
      <trkpt lat="43.90383" lon="6.34298">
        <ele>1463</ele>
        <time>2022-06-09T17:32:20Z</time>
      </trkpt>
      <trkpt lat="43.90422" lon="6.3427">
        <ele>1464</ele>
        <time>2022-06-09T17:32:30Z</time>
      </trkpt>
      <trkpt lat="43.90461" lon="6.34256">
        <ele>1458</ele>
        <time>2022-06-09T17:32:39Z</time>
      </trkpt>
      <trkpt lat="43.90495" lon="6.34235">
        <ele>1454</ele>
        <time>2022-06-09T17:32:48Z</time>
      </trkpt>
      <trkpt lat="43.90517" lon="6.34203">
        <ele>1452</ele>
        <time>2022-06-09T17:32:55Z</time>
      </trkpt>
      <trkpt lat="43.90519" lon="6.34202">
        <ele>1452</ele>
        <time>2022-06-09T17:32:56Z</time>
      </trkpt>
      <trkpt lat="43.90522" lon="6.34206">
        <ele>1450</ele>
        <time>2022-06-09T17:32:57Z</time>
      </trkpt>
      <trkpt lat="43.90521" lon="6.34214">
        <ele>1449</ele>
        <time>2022-06-09T17:32:58Z</time>
      </trkpt>
      <trkpt lat="43.90475" lon="6.34331">
        <ele>1440</ele>
        <time>2022-06-09T17:33:21Z</time>
      </trkpt>
      <trkpt lat="43.90463" lon="6.34376">
        <ele>1431</ele>
        <time>2022-06-09T17:33:29Z</time>
      </trkpt>
      <trkpt lat="43.90445" lon="6.34411">
        <ele>1427</ele>
        <time>2022-06-09T17:33:36Z</time>
      </trkpt>
      <trkpt lat="43.90397" lon="6.34467">
        <ele>1427</ele>
        <time>2022-06-09T17:33:51Z</time>
      </trkpt>
      <trkpt lat="43.90374" lon="6.34503">
        <ele>1424</ele>
        <time>2022-06-09T17:33:59Z</time>
      </trkpt>
      <trkpt lat="43.90337" lon="6.3459">
        <ele>1413</ele>
        <time>2022-06-09T17:34:16Z</time>
      </trkpt>
      <trkpt lat="43.90331" lon="6.34645">
        <ele>1405</ele>
        <time>2022-06-09T17:34:25Z</time>
      </trkpt>
      <trkpt lat="43.90324" lon="6.34654">
        <ele>1404</ele>
        <time>2022-06-09T17:34:27Z</time>
      </trkpt>
      <trkpt lat="43.90307" lon="6.3466">
        <ele>1404</ele>
        <time>2022-06-09T17:34:31Z</time>
      </trkpt>
      <trkpt lat="43.90302" lon="6.34665">
        <ele>1404</ele>
        <time>2022-06-09T17:34:33Z</time>
      </trkpt>
      <trkpt lat="43.903" lon="6.34672">
        <ele>1403</ele>
        <time>2022-06-09T17:34:34Z</time>
      </trkpt>
      <trkpt lat="43.90302" lon="6.34675">
        <ele>1402</ele>
        <time>2022-06-09T17:34:35Z</time>
      </trkpt>
      <trkpt lat="43.90313" lon="6.3468">
        <ele>1400</ele>
        <time>2022-06-09T17:34:38Z</time>
      </trkpt>
      <trkpt lat="43.90338" lon="6.34675">
        <ele>1398</ele>
        <time>2022-06-09T17:34:43Z</time>
      </trkpt>
      <trkpt lat="43.90366" lon="6.34654">
        <ele>1394</ele>
        <time>2022-06-09T17:34:51Z</time>
      </trkpt>
      <trkpt lat="43.90408" lon="6.34606">
        <ele>1392</ele>
        <time>2022-06-09T17:35:04Z</time>
      </trkpt>
      <trkpt lat="43.9044" lon="6.34564">
        <ele>1391</ele>
        <time>2022-06-09T17:35:14Z</time>
      </trkpt>
      <trkpt lat="43.90462" lon="6.34529">
        <ele>1393</ele>
        <time>2022-06-09T17:35:22Z</time>
      </trkpt>
      <trkpt lat="43.90472" lon="6.34519">
        <ele>1393</ele>
        <time>2022-06-09T17:35:25Z</time>
      </trkpt>
      <trkpt lat="43.90611" lon="6.34418">
        <ele>1373</ele>
        <time>2022-06-09T17:36:01Z</time>
      </trkpt>
      <trkpt lat="43.90646" lon="6.34383">
        <ele>1370</ele>
        <time>2022-06-09T17:36:11Z</time>
      </trkpt>
      <trkpt lat="43.90669" lon="6.34355">
        <ele>1367</ele>
        <time>2022-06-09T17:36:18Z</time>
      </trkpt>
      <trkpt lat="43.90695" lon="6.34313">
        <ele>1364</ele>
        <time>2022-06-09T17:36:28Z</time>
      </trkpt>
      <trkpt lat="43.90721" lon="6.34279">
        <ele>1358</ele>
        <time>2022-06-09T17:36:36Z</time>
      </trkpt>
      <trkpt lat="43.90741" lon="6.34241">
        <ele>1353</ele>
        <time>2022-06-09T17:36:44Z</time>
      </trkpt>
      <trkpt lat="43.9076" lon="6.34185">
        <ele>1352</ele>
        <time>2022-06-09T17:36:54Z</time>
      </trkpt>
      <trkpt lat="43.90783" lon="6.34139">
        <ele>1349</ele>
        <time>2022-06-09T17:37:04Z</time>
      </trkpt>
      <trkpt lat="43.90805" lon="6.34111">
        <ele>1344</ele>
        <time>2022-06-09T17:37:11Z</time>
      </trkpt>
      <trkpt lat="43.90832" lon="6.3407">
        <ele>1338</ele>
        <time>2022-06-09T17:37:20Z</time>
      </trkpt>
      <trkpt lat="43.90853" lon="6.34031">
        <ele>1333</ele>
        <time>2022-06-09T17:37:28Z</time>
      </trkpt>
      <trkpt lat="43.90857" lon="6.34016">
        <ele>1332</ele>
        <time>2022-06-09T17:37:31Z</time>
      </trkpt>
      <trkpt lat="43.90853" lon="6.33956">
        <ele>1334</ele>
        <time>2022-06-09T17:37:41Z</time>
      </trkpt>
      <trkpt lat="43.90854" lon="6.33935">
        <ele>1333</ele>
        <time>2022-06-09T17:37:45Z</time>
      </trkpt>
      <trkpt lat="43.90861" lon="6.33906">
        <ele>1331</ele>
        <time>2022-06-09T17:37:50Z</time>
      </trkpt>
      <trkpt lat="43.90864" lon="6.33879">
        <ele>1332</ele>
        <time>2022-06-09T17:37:54Z</time>
      </trkpt>
      <trkpt lat="43.90871" lon="6.33873">
        <ele>1331</ele>
        <time>2022-06-09T17:37:56Z</time>
      </trkpt>
      <trkpt lat="43.90891" lon="6.3387">
        <ele>1325</ele>
        <time>2022-06-09T17:38:01Z</time>
      </trkpt>
      <trkpt lat="43.909" lon="6.33864">
        <ele>1322</ele>
        <time>2022-06-09T17:38:03Z</time>
      </trkpt>
      <trkpt lat="43.90908" lon="6.33855">
        <ele>1321</ele>
        <time>2022-06-09T17:38:06Z</time>
      </trkpt>
      <trkpt lat="43.90939" lon="6.33804">
        <ele>1316</ele>
        <time>2022-06-09T17:38:17Z</time>
      </trkpt>
      <trkpt lat="43.90968" lon="6.33752">
        <ele>1312</ele>
        <time>2022-06-09T17:38:28Z</time>
      </trkpt>
      <trkpt lat="43.90972" lon="6.33731">
        <ele>1313</ele>
        <time>2022-06-09T17:38:32Z</time>
      </trkpt>
      <trkpt lat="43.9097" lon="6.33701">
        <ele>1317</ele>
        <time>2022-06-09T17:38:37Z</time>
      </trkpt>
      <trkpt lat="43.90972" lon="6.33697">
        <ele>1317</ele>
        <time>2022-06-09T17:38:38Z</time>
      </trkpt>
      <trkpt lat="43.90975" lon="6.33694">
        <ele>1316</ele>
        <time>2022-06-09T17:38:38Z</time>
      </trkpt>
      <trkpt lat="43.91008" lon="6.33683">
        <ele>1305</ele>
        <time>2022-06-09T17:38:46Z</time>
      </trkpt>
      <trkpt lat="43.91039" lon="6.33664">
        <ele>1295</ele>
        <time>2022-06-09T17:38:54Z</time>
      </trkpt>
      <trkpt lat="43.91041" lon="6.3366">
        <ele>1295</ele>
        <time>2022-06-09T17:38:55Z</time>
      </trkpt>
      <trkpt lat="43.91043" lon="6.33655">
        <ele>1295</ele>
        <time>2022-06-09T17:38:56Z</time>
      </trkpt>
      <trkpt lat="43.91034" lon="6.33601">
        <ele>1304</ele>
        <time>2022-06-09T17:39:05Z</time>
      </trkpt>
      <trkpt lat="43.91033" lon="6.33574">
        <ele>1308</ele>
        <time>2022-06-09T17:39:10Z</time>
      </trkpt>
      <trkpt lat="43.91035" lon="6.33562">
        <ele>1310</ele>
        <time>2022-06-09T17:39:12Z</time>
      </trkpt>
      <trkpt lat="43.91046" lon="6.3355">
        <ele>1308</ele>
        <time>2022-06-09T17:39:15Z</time>
      </trkpt>
      <trkpt lat="43.91065" lon="6.3354">
        <ele>1303</ele>
        <time>2022-06-09T17:39:20Z</time>
      </trkpt>
      <trkpt lat="43.91118" lon="6.33533">
        <ele>1288</ele>
        <time>2022-06-09T17:39:33Z</time>
      </trkpt>
      <trkpt lat="43.91131" lon="6.33528">
        <ele>1285</ele>
        <time>2022-06-09T17:39:36Z</time>
      </trkpt>
      <trkpt lat="43.91154" lon="6.33513">
        <ele>1280</ele>
        <time>2022-06-09T17:39:42Z</time>
      </trkpt>
      <trkpt lat="43.91158" lon="6.33508">
        <ele>1280</ele>
        <time>2022-06-09T17:39:43Z</time>
      </trkpt>
      <trkpt lat="43.91164" lon="6.33492">
        <ele>1279</ele>
        <time>2022-06-09T17:39:46Z</time>
      </trkpt>
      <trkpt lat="43.91168" lon="6.33471">
        <ele>1279</ele>
        <time>2022-06-09T17:39:50Z</time>
      </trkpt>
      <trkpt lat="43.91166" lon="6.33467">
        <ele>1279</ele>
        <time>2022-06-09T17:39:50Z</time>
      </trkpt>
      <trkpt lat="43.91167" lon="6.3347">
        <ele>1279</ele>
        <time>2022-06-09T17:39:51Z</time>
      </trkpt>
      <trkpt lat="43.91161" lon="6.33466">
        <ele>1282</ele>
        <time>2022-06-09T17:39:52Z</time>
      </trkpt>
      <trkpt lat="43.91158" lon="6.33456">
        <ele>1283</ele>
        <time>2022-06-09T17:39:54Z</time>
      </trkpt>
      <trkpt lat="43.9116" lon="6.33405">
        <ele>1286</ele>
        <time>2022-06-09T17:40:03Z</time>
      </trkpt>
      <trkpt lat="43.91164" lon="6.3338">
        <ele>1287</ele>
        <time>2022-06-09T17:40:07Z</time>
      </trkpt>
      <trkpt lat="43.91192" lon="6.33325">
        <ele>1287</ele>
        <time>2022-06-09T17:40:19Z</time>
      </trkpt>
      <trkpt lat="43.91209" lon="6.33297">
        <ele>1289</ele>
        <time>2022-06-09T17:40:25Z</time>
      </trkpt>
      <trkpt lat="43.91223" lon="6.33279">
        <ele>1288</ele>
        <time>2022-06-09T17:40:29Z</time>
      </trkpt>
      <trkpt lat="43.91264" lon="6.33209">
        <ele>1287</ele>
        <time>2022-06-09T17:40:44Z</time>
      </trkpt>
      <trkpt lat="43.91271" lon="6.33212">
        <ele>1286</ele>
        <time>2022-06-09T17:40:46Z</time>
      </trkpt>
      <trkpt lat="43.9128" lon="6.33221">
        <ele>1285</ele>
        <time>2022-06-09T17:40:49Z</time>
      </trkpt>
      <trkpt lat="43.91278" lon="6.33229">
        <ele>1284</ele>
        <time>2022-06-09T17:40:50Z</time>
      </trkpt>
      <trkpt lat="43.91285" lon="6.33287">
        <ele>1278</ele>
        <time>2022-06-09T17:41:00Z</time>
      </trkpt>
      <trkpt lat="43.91281" lon="6.33334">
        <ele>1274</ele>
        <time>2022-06-09T17:41:08Z</time>
      </trkpt>
      <trkpt lat="43.91286" lon="6.33348">
        <ele>1274</ele>
        <time>2022-06-09T17:41:11Z</time>
      </trkpt>
      <trkpt lat="43.913" lon="6.33361">
        <ele>1275</ele>
        <time>2022-06-09T17:41:14Z</time>
      </trkpt>
      <trkpt lat="43.91295" lon="6.33365">
        <ele>1274</ele>
        <time>2022-06-09T17:41:16Z</time>
      </trkpt>
      <trkpt lat="43.91301" lon="6.33356">
        <ele>1275</ele>
        <time>2022-06-09T17:41:18Z</time>
      </trkpt>
      <trkpt lat="43.91318" lon="6.33346">
        <ele>1278</ele>
        <time>2022-06-09T17:41:22Z</time>
      </trkpt>
      <trkpt lat="43.91347" lon="6.33321">
        <ele>1284</ele>
        <time>2022-06-09T17:41:30Z</time>
      </trkpt>
      <trkpt lat="43.91345" lon="6.33306">
        <ele>1284</ele>
        <time>2022-06-09T17:41:33Z</time>
      </trkpt>
      <trkpt lat="43.91347" lon="6.33284">
        <ele>1285</ele>
        <time>2022-06-09T17:41:36Z</time>
      </trkpt>
      <trkpt lat="43.91375" lon="6.33175">
        <ele>1292</ele>
        <time>2022-06-09T17:41:56Z</time>
      </trkpt>
      <trkpt lat="43.91425" lon="6.3308">
        <ele>1296</ele>
        <time>2022-06-09T17:42:16Z</time>
      </trkpt>
      <trkpt lat="43.91462" lon="6.33015">
        <ele>1301</ele>
        <time>2022-06-09T17:42:30Z</time>
      </trkpt>
      <trkpt lat="43.9149" lon="6.32974">
        <ele>1304</ele>
        <time>2022-06-09T17:42:39Z</time>
      </trkpt>
      <trkpt lat="43.91507" lon="6.32973">
        <ele>1306</ele>
        <time>2022-06-09T17:42:43Z</time>
      </trkpt>
      <trkpt lat="43.91527" lon="6.32944">
        <ele>1307</ele>
        <time>2022-06-09T17:42:50Z</time>
      </trkpt>
      <trkpt lat="43.91578" lon="6.329">
        <ele>1312</ele>
        <time>2022-06-09T17:43:04Z</time>
      </trkpt>
      <trkpt lat="43.91579" lon="6.32895">
        <ele>1312</ele>
        <time>2022-06-09T17:43:05Z</time>
      </trkpt>
      <trkpt lat="43.91564" lon="6.32853">
        <ele>1311</ele>
        <time>2022-06-09T17:43:13Z</time>
      </trkpt>
      <trkpt lat="43.91564" lon="6.32833">
        <ele>1311</ele>
        <time>2022-06-09T17:43:16Z</time>
      </trkpt>
      <trkpt lat="43.91572" lon="6.32793">
        <ele>1312</ele>
        <time>2022-06-09T17:43:23Z</time>
      </trkpt>
      <trkpt lat="43.91584" lon="6.3277">
        <ele>1311</ele>
        <time>2022-06-09T17:43:28Z</time>
      </trkpt>
      <trkpt lat="43.91646" lon="6.32711">
        <ele>1317</ele>
        <time>2022-06-09T17:43:45Z</time>
      </trkpt>
      <trkpt lat="43.91684" lon="6.32669">
        <ele>1316</ele>
        <time>2022-06-09T17:43:57Z</time>
      </trkpt>
      <trkpt lat="43.91694" lon="6.32655">
        <ele>1317</ele>
        <time>2022-06-09T17:44:00Z</time>
      </trkpt>
      <trkpt lat="43.91712" lon="6.32641">
        <ele>1319</ele>
        <time>2022-06-09T17:44:05Z</time>
      </trkpt>
      <trkpt lat="43.91722" lon="6.32628">
        <ele>1320</ele>
        <time>2022-06-09T17:44:08Z</time>
      </trkpt>
      <trkpt lat="43.91724" lon="6.32617">
        <ele>1320</ele>
        <time>2022-06-09T17:44:10Z</time>
      </trkpt>
      <trkpt lat="43.91721" lon="6.32614">
        <ele>1320</ele>
        <time>2022-06-09T17:44:11Z</time>
      </trkpt>
      <trkpt lat="43.91718" lon="6.326">
        <ele>1321</ele>
        <time>2022-06-09T17:44:13Z</time>
      </trkpt>
      <trkpt lat="43.91721" lon="6.32598">
        <ele>1321</ele>
        <time>2022-06-09T17:44:14Z</time>
      </trkpt>
      <trkpt lat="43.91729" lon="6.32602">
        <ele>1321</ele>
        <time>2022-06-09T17:44:16Z</time>
      </trkpt>
      <trkpt lat="43.91734" lon="6.32599">
        <ele>1321</ele>
        <time>2022-06-09T17:44:17Z</time>
      </trkpt>
      <trkpt lat="43.91737" lon="6.32588">
        <ele>1320</ele>
        <time>2022-06-09T17:44:19Z</time>
      </trkpt>
      <trkpt lat="43.9175" lon="6.32574">
        <ele>1320</ele>
        <time>2022-06-09T17:44:23Z</time>
      </trkpt>
      <trkpt lat="43.91796" lon="6.32512">
        <ele>1327</ele>
        <time>2022-06-09T17:44:38Z</time>
      </trkpt>
      <trkpt lat="43.918" lon="6.32498">
        <ele>1327</ele>
        <time>2022-06-09T17:44:41Z</time>
      </trkpt>
      <trkpt lat="43.91828" lon="6.32452">
        <ele>1330</ele>
        <time>2022-06-09T17:44:51Z</time>
      </trkpt>
      <trkpt lat="43.91855" lon="6.32419">
        <ele>1333</ele>
        <time>2022-06-09T17:44:59Z</time>
      </trkpt>
      <trkpt lat="43.91861" lon="6.32407">
        <ele>1335</ele>
        <time>2022-06-09T17:45:02Z</time>
      </trkpt>
      <trkpt lat="43.91865" lon="6.32388">
        <ele>1337</ele>
        <time>2022-06-09T17:45:05Z</time>
      </trkpt>
      <trkpt lat="43.91877" lon="6.32364">
        <ele>1340</ele>
        <time>2022-06-09T17:45:10Z</time>
      </trkpt>
      <trkpt lat="43.91882" lon="6.32343">
        <ele>1342</ele>
        <time>2022-06-09T17:45:14Z</time>
      </trkpt>
      <trkpt lat="43.9189" lon="6.3233">
        <ele>1344</ele>
        <time>2022-06-09T17:45:16Z</time>
      </trkpt>
      <trkpt lat="43.91909" lon="6.32321">
        <ele>1346</ele>
        <time>2022-06-09T17:45:21Z</time>
      </trkpt>
      <trkpt lat="43.91916" lon="6.3231">
        <ele>1347</ele>
        <time>2022-06-09T17:45:24Z</time>
      </trkpt>
      <trkpt lat="43.91936" lon="6.32298">
        <ele>1351</ele>
        <time>2022-06-09T17:45:29Z</time>
      </trkpt>
      <trkpt lat="43.91948" lon="6.32278">
        <ele>1354</ele>
        <time>2022-06-09T17:45:33Z</time>
      </trkpt>
      <trkpt lat="43.91949" lon="6.3228">
        <ele>1354</ele>
        <time>2022-06-09T17:45:33Z</time>
      </trkpt>
      <trkpt lat="43.91984" lon="6.32232">
        <ele>1363</ele>
        <time>2022-06-09T17:45:45Z</time>
      </trkpt>
      <trkpt lat="43.92017" lon="6.32204">
        <ele>1371</ele>
        <time>2022-06-09T17:45:54Z</time>
      </trkpt>
      <trkpt lat="43.92027" lon="6.32192">
        <ele>1375</ele>
        <time>2022-06-09T17:45:57Z</time>
      </trkpt>
      <trkpt lat="43.92047" lon="6.32181">
        <ele>1379</ele>
        <time>2022-06-09T17:46:02Z</time>
      </trkpt>
      <trkpt lat="43.92056" lon="6.32173">
        <ele>1382</ele>
        <time>2022-06-09T17:46:05Z</time>
      </trkpt>
      <trkpt lat="43.92079" lon="6.32107">
        <ele>1387</ele>
        <time>2022-06-09T17:46:17Z</time>
      </trkpt>
      <trkpt lat="43.92082" lon="6.32055">
        <ele>1388</ele>
        <time>2022-06-09T17:46:26Z</time>
      </trkpt>
      <trkpt lat="43.92089" lon="6.32016">
        <ele>1390</ele>
        <time>2022-06-09T17:46:32Z</time>
      </trkpt>
      <trkpt lat="43.92089" lon="6.32003">
        <ele>1390</ele>
        <time>2022-06-09T17:46:35Z</time>
      </trkpt>
      <trkpt lat="43.92094" lon="6.31992">
        <ele>1391</ele>
        <time>2022-06-09T17:46:37Z</time>
      </trkpt>
      <trkpt lat="43.92091" lon="6.31971">
        <ele>1391</ele>
        <time>2022-06-09T17:46:40Z</time>
      </trkpt>
      <trkpt lat="43.92082" lon="6.31953">
        <ele>1390</ele>
        <time>2022-06-09T17:46:44Z</time>
      </trkpt>
      <trkpt lat="43.92085" lon="6.31947">
        <ele>1391</ele>
        <time>2022-06-09T17:46:45Z</time>
      </trkpt>
      <trkpt lat="43.92078" lon="6.31943">
        <ele>1389</ele>
        <time>2022-06-09T17:46:47Z</time>
      </trkpt>
      <trkpt lat="43.92069" lon="6.31929">
        <ele>1388</ele>
        <time>2022-06-09T17:46:50Z</time>
      </trkpt>
      <trkpt lat="43.9207" lon="6.31922">
        <ele>1389</ele>
        <time>2022-06-09T17:46:51Z</time>
      </trkpt>
      <trkpt lat="43.92076" lon="6.3192">
        <ele>1390</ele>
        <time>2022-06-09T17:46:53Z</time>
      </trkpt>
      <trkpt lat="43.92086" lon="6.31909">
        <ele>1393</ele>
        <time>2022-06-09T17:46:56Z</time>
      </trkpt>
      <trkpt lat="43.92087" lon="6.31898">
        <ele>1394</ele>
        <time>2022-06-09T17:46:58Z</time>
      </trkpt>
      <trkpt lat="43.92098" lon="6.31868">
        <ele>1401</ele>
        <time>2022-06-09T17:47:03Z</time>
      </trkpt>
      <trkpt lat="43.92093" lon="6.31861">
        <ele>1401</ele>
        <time>2022-06-09T17:47:05Z</time>
      </trkpt>
      <trkpt lat="43.92067" lon="6.31841">
        <ele>1400</ele>
        <time>2022-06-09T17:47:12Z</time>
      </trkpt>
      <trkpt lat="43.92063" lon="6.31835">
        <ele>1401</ele>
        <time>2022-06-09T17:47:13Z</time>
      </trkpt>
      <trkpt lat="43.92058" lon="6.3182">
        <ele>1403</ele>
        <time>2022-06-09T17:47:16Z</time>
      </trkpt>
      <trkpt lat="43.92037" lon="6.31786">
        <ele>1408</ele>
        <time>2022-06-09T17:47:24Z</time>
      </trkpt>
      <trkpt lat="43.92025" lon="6.31749">
        <ele>1414</ele>
        <time>2022-06-09T17:47:31Z</time>
      </trkpt>
      <trkpt lat="43.92021" lon="6.31727">
        <ele>1416</ele>
        <time>2022-06-09T17:47:34Z</time>
      </trkpt>
      <trkpt lat="43.92011" lon="6.31709">
        <ele>1417</ele>
        <time>2022-06-09T17:47:38Z</time>
      </trkpt>
      <trkpt lat="43.91989" lon="6.31697">
        <ele>1415</ele>
        <time>2022-06-09T17:47:44Z</time>
      </trkpt>
      <trkpt lat="43.91987" lon="6.31681">
        <ele>1417</ele>
        <time>2022-06-09T17:47:46Z</time>
      </trkpt>
      <trkpt lat="43.92005" lon="6.31533">
        <ele>1421</ele>
        <time>2022-06-09T17:48:12Z</time>
      </trkpt>
      <trkpt lat="43.92006" lon="6.31501">
        <ele>1421</ele>
        <time>2022-06-09T17:48:17Z</time>
      </trkpt>
      <trkpt lat="43.92004" lon="6.31504">
        <ele>1421</ele>
        <time>2022-06-09T17:48:18Z</time>
      </trkpt>
      <trkpt lat="43.92001" lon="6.31504">
        <ele>1421</ele>
        <time>2022-06-09T17:48:18Z</time>
      </trkpt>
      <trkpt lat="43.92003" lon="6.31503">
        <ele>1421</ele>
        <time>2022-06-09T17:48:19Z</time>
      </trkpt>
      <trkpt lat="43.92004" lon="6.31505">
        <ele>1421</ele>
        <time>2022-06-09T17:48:19Z</time>
      </trkpt>
      <trkpt lat="43.92002" lon="6.31504">
        <ele>1421</ele>
        <time>2022-06-09T17:48:20Z</time>
      </trkpt>
      <trkpt lat="43.92004" lon="6.31504">
        <ele>1421</ele>
        <time>2022-06-09T17:48:20Z</time>
      </trkpt>
      <trkpt lat="43.92005" lon="6.315">
        <ele>1421</ele>
        <time>2022-06-09T17:48:21Z</time>
      </trkpt>
      <trkpt lat="43.92003" lon="6.31495">
        <ele>1421</ele>
        <time>2022-06-09T17:48:22Z</time>
      </trkpt>
      <trkpt lat="43.92001" lon="6.31496">
        <ele>1421</ele>
        <time>2022-06-09T17:48:23Z</time>
      </trkpt>
      <trkpt lat="43.92005" lon="6.31496">
        <ele>1421</ele>
        <time>2022-06-09T17:48:23Z</time>
      </trkpt>
      <trkpt lat="43.92006" lon="6.31483">
        <ele>1421</ele>
        <time>2022-06-09T17:48:26Z</time>
      </trkpt>
      <trkpt lat="43.92019" lon="6.31435">
        <ele>1418</ele>
        <time>2022-06-09T17:48:34Z</time>
      </trkpt>
      <trkpt lat="43.9203" lon="6.31408">
        <ele>1415</ele>
        <time>2022-06-09T17:48:39Z</time>
      </trkpt>
      <trkpt lat="43.92036" lon="6.31376">
        <ele>1412</ele>
        <time>2022-06-09T17:48:45Z</time>
      </trkpt>
      <trkpt lat="43.92041" lon="6.31367">
        <ele>1410</ele>
        <time>2022-06-09T17:48:47Z</time>
      </trkpt>
      <trkpt lat="43.92028" lon="6.31328">
        <ele>1409</ele>
        <time>2022-06-09T17:48:54Z</time>
      </trkpt>
      <trkpt lat="43.9203" lon="6.31312">
        <ele>1408</ele>
        <time>2022-06-09T17:48:57Z</time>
      </trkpt>
      <trkpt lat="43.92024" lon="6.31277">
        <ele>1407</ele>
        <time>2022-06-09T17:49:03Z</time>
      </trkpt>
      <trkpt lat="43.92031" lon="6.31254">
        <ele>1405</ele>
        <time>2022-06-09T17:49:07Z</time>
      </trkpt>
      <trkpt lat="43.92031" lon="6.31224">
        <ele>1404</ele>
        <time>2022-06-09T17:49:12Z</time>
      </trkpt>
      <trkpt lat="43.92039" lon="6.31201">
        <ele>1402</ele>
        <time>2022-06-09T17:49:17Z</time>
      </trkpt>
      <trkpt lat="43.92037" lon="6.31183">
        <ele>1402</ele>
        <time>2022-06-09T17:49:20Z</time>
      </trkpt>
      <trkpt lat="43.92041" lon="6.31179">
        <ele>1401</ele>
        <time>2022-06-09T17:49:21Z</time>
      </trkpt>
      <trkpt lat="43.92057" lon="6.31179">
        <ele>1399</ele>
        <time>2022-06-09T17:49:24Z</time>
      </trkpt>
      <trkpt lat="43.92063" lon="6.3117">
        <ele>1397</ele>
        <time>2022-06-09T17:49:27Z</time>
      </trkpt>
      <trkpt lat="43.9207" lon="6.31137">
        <ele>1394</ele>
        <time>2022-06-09T17:49:32Z</time>
      </trkpt>
      <trkpt lat="43.92067" lon="6.31107">
        <ele>1393</ele>
        <time>2022-06-09T17:49:37Z</time>
      </trkpt>
      <trkpt lat="43.92072" lon="6.31071">
        <ele>1390</ele>
        <time>2022-06-09T17:49:44Z</time>
      </trkpt>
      <trkpt lat="43.92074" lon="6.31064">
        <ele>1389</ele>
        <time>2022-06-09T17:49:45Z</time>
      </trkpt>
      <trkpt lat="43.92086" lon="6.31046">
        <ele>1385</ele>
        <time>2022-06-09T17:49:49Z</time>
      </trkpt>
      <trkpt lat="43.92091" lon="6.31047">
        <ele>1386</ele>
        <time>2022-06-09T17:49:50Z</time>
      </trkpt>
      <trkpt lat="43.92102" lon="6.3098">
        <ele>1385</ele>
        <time>2022-06-09T17:50:02Z</time>
      </trkpt>
      <trkpt lat="43.92093" lon="6.30932">
        <ele>1382</ele>
        <time>2022-06-09T17:50:10Z</time>
      </trkpt>
      <trkpt lat="43.92083" lon="6.30919">
        <ele>1379</ele>
        <time>2022-06-09T17:50:13Z</time>
      </trkpt>
      <trkpt lat="43.92073" lon="6.30898">
        <ele>1381</ele>
        <time>2022-06-09T17:50:17Z</time>
      </trkpt>
      <trkpt lat="43.92071" lon="6.30865">
        <ele>1382</ele>
        <time>2022-06-09T17:50:23Z</time>
      </trkpt>
      <trkpt lat="43.92061" lon="6.30856">
        <ele>1381</ele>
        <time>2022-06-09T17:50:26Z</time>
      </trkpt>
      <trkpt lat="43.9205" lon="6.30837">
        <ele>1379</ele>
        <time>2022-06-09T17:50:30Z</time>
      </trkpt>
      <trkpt lat="43.92041" lon="6.3081">
        <ele>1378</ele>
        <time>2022-06-09T17:50:35Z</time>
      </trkpt>
      <trkpt lat="43.9204" lon="6.30812">
        <ele>1378</ele>
        <time>2022-06-09T17:50:35Z</time>
      </trkpt>
      <trkpt lat="43.92036" lon="6.30798">
        <ele>1377</ele>
        <time>2022-06-09T17:50:38Z</time>
      </trkpt>
      <trkpt lat="43.92038" lon="6.30778">
        <ele>1377</ele>
        <time>2022-06-09T17:50:41Z</time>
      </trkpt>
      <trkpt lat="43.92034" lon="6.30772">
        <ele>1376</ele>
        <time>2022-06-09T17:50:43Z</time>
      </trkpt>
      <trkpt lat="43.92031" lon="6.30756">
        <ele>1375</ele>
        <time>2022-06-09T17:50:45Z</time>
      </trkpt>
      <trkpt lat="43.92027" lon="6.30748">
        <ele>1374</ele>
        <time>2022-06-09T17:50:47Z</time>
      </trkpt>
      <trkpt lat="43.92017" lon="6.30732">
        <ele>1370</ele>
        <time>2022-06-09T17:50:51Z</time>
      </trkpt>
      <trkpt lat="43.91993" lon="6.30718">
        <ele>1363</ele>
        <time>2022-06-09T17:50:57Z</time>
      </trkpt>
      <trkpt lat="43.91982" lon="6.30707">
        <ele>1362</ele>
        <time>2022-06-09T17:51:00Z</time>
      </trkpt>
      <trkpt lat="43.91966" lon="6.30677">
        <ele>1356</ele>
        <time>2022-06-09T17:51:06Z</time>
      </trkpt>
      <trkpt lat="43.91977" lon="6.30671">
        <ele>1357</ele>
        <time>2022-06-09T17:51:09Z</time>
      </trkpt>
      <trkpt lat="43.91964" lon="6.30647">
        <ele>1353</ele>
        <time>2022-06-09T17:51:14Z</time>
      </trkpt>
      <trkpt lat="43.91957" lon="6.30646">
        <ele>1351</ele>
        <time>2022-06-09T17:51:16Z</time>
      </trkpt>
      <trkpt lat="43.91927" lon="6.30651">
        <ele>1344</ele>
        <time>2022-06-09T17:51:23Z</time>
      </trkpt>
      <trkpt lat="43.91905" lon="6.30634">
        <ele>1337</ele>
        <time>2022-06-09T17:51:29Z</time>
      </trkpt>
      <trkpt lat="43.91909" lon="6.30626">
        <ele>1336</ele>
        <time>2022-06-09T17:51:30Z</time>
      </trkpt>
      <trkpt lat="43.91931" lon="6.30618">
        <ele>1340</ele>
        <time>2022-06-09T17:51:36Z</time>
      </trkpt>
      <trkpt lat="43.91927" lon="6.30592">
        <ele>1335</ele>
        <time>2022-06-09T17:51:40Z</time>
      </trkpt>
      <trkpt lat="43.91928" lon="6.30567">
        <ele>1330</ele>
        <time>2022-06-09T17:51:44Z</time>
      </trkpt>
      <trkpt lat="43.91938" lon="6.30536">
        <ele>1328</ele>
        <time>2022-06-09T17:51:50Z</time>
      </trkpt>
      <trkpt lat="43.91929" lon="6.30486">
        <ele>1315</ele>
        <time>2022-06-09T17:51:59Z</time>
      </trkpt>
      <trkpt lat="43.91925" lon="6.30474">
        <ele>1312</ele>
        <time>2022-06-09T17:52:01Z</time>
      </trkpt>
      <trkpt lat="43.91912" lon="6.30453">
        <ele>1304</ele>
        <time>2022-06-09T17:52:05Z</time>
      </trkpt>
      <trkpt lat="43.91902" lon="6.30426">
        <ele>1298</ele>
        <time>2022-06-09T17:52:11Z</time>
      </trkpt>
      <trkpt lat="43.91885" lon="6.30407">
        <ele>1293</ele>
        <time>2022-06-09T17:52:16Z</time>
      </trkpt>
      <trkpt lat="43.91869" lon="6.30378">
        <ele>1288</ele>
        <time>2022-06-09T17:52:22Z</time>
      </trkpt>
      <trkpt lat="43.91855" lon="6.30323">
        <ele>1279</ele>
        <time>2022-06-09T17:52:32Z</time>
      </trkpt>
      <trkpt lat="43.91858" lon="6.3031">
        <ele>1279</ele>
        <time>2022-06-09T17:52:34Z</time>
      </trkpt>
      <trkpt lat="43.91845" lon="6.30281">
        <ele>1274</ele>
        <time>2022-06-09T17:52:40Z</time>
      </trkpt>
      <trkpt lat="43.91839" lon="6.30273">
        <ele>1272</ele>
        <time>2022-06-09T17:52:42Z</time>
      </trkpt>
      <trkpt lat="43.91831" lon="6.3027">
        <ele>1270</ele>
        <time>2022-06-09T17:52:44Z</time>
      </trkpt>
      <trkpt lat="43.91823" lon="6.30262">
        <ele>1269</ele>
        <time>2022-06-09T17:52:46Z</time>
      </trkpt>
      <trkpt lat="43.91816" lon="6.30222">
        <ele>1265</ele>
        <time>2022-06-09T17:52:53Z</time>
      </trkpt>
      <trkpt lat="43.91809" lon="6.30204">
        <ele>1263</ele>
        <time>2022-06-09T17:52:56Z</time>
      </trkpt>
      <trkpt lat="43.91806" lon="6.30182">
        <ele>1261</ele>
        <time>2022-06-09T17:53:00Z</time>
      </trkpt>
      <trkpt lat="43.91811" lon="6.30161">
        <ele>1259</ele>
        <time>2022-06-09T17:53:04Z</time>
      </trkpt>
      <trkpt lat="43.91815" lon="6.30108">
        <ele>1251</ele>
        <time>2022-06-09T17:53:13Z</time>
      </trkpt>
      <trkpt lat="43.91829" lon="6.30049">
        <ele>1244</ele>
        <time>2022-06-09T17:53:23Z</time>
      </trkpt>
      <trkpt lat="43.91833" lon="6.30009">
        <ele>1240</ele>
        <time>2022-06-09T17:53:30Z</time>
      </trkpt>
      <trkpt lat="43.91831" lon="6.2999">
        <ele>1238</ele>
        <time>2022-06-09T17:53:33Z</time>
      </trkpt>
      <trkpt lat="43.91832" lon="6.29969">
        <ele>1235</ele>
        <time>2022-06-09T17:53:37Z</time>
      </trkpt>
      <trkpt lat="43.91836" lon="6.29949">
        <ele>1234</ele>
        <time>2022-06-09T17:53:40Z</time>
      </trkpt>
      <trkpt lat="43.91835" lon="6.29922">
        <ele>1231</ele>
        <time>2022-06-09T17:53:45Z</time>
      </trkpt>
      <trkpt lat="43.91828" lon="6.2993">
        <ele>1230</ele>
        <time>2022-06-09T17:53:47Z</time>
      </trkpt>
      <trkpt lat="43.91825" lon="6.29929">
        <ele>1230</ele>
        <time>2022-06-09T17:53:48Z</time>
      </trkpt>
      <trkpt lat="43.91823" lon="6.29886">
        <ele>1223</ele>
        <time>2022-06-09T17:53:55Z</time>
      </trkpt>
      <trkpt lat="43.91839" lon="6.29858">
        <ele>1221</ele>
        <time>2022-06-09T17:54:01Z</time>
      </trkpt>
      <trkpt lat="43.91851" lon="6.29827">
        <ele>1218</ele>
        <time>2022-06-09T17:54:07Z</time>
      </trkpt>
      <trkpt lat="43.91849" lon="6.29821">
        <ele>1216</ele>
        <time>2022-06-09T17:54:08Z</time>
      </trkpt>
      <trkpt lat="43.91842" lon="6.29824">
        <ele>1216</ele>
        <time>2022-06-09T17:54:10Z</time>
      </trkpt>
      <trkpt lat="43.9184" lon="6.29819">
        <ele>1215</ele>
        <time>2022-06-09T17:54:11Z</time>
      </trkpt>
      <trkpt lat="43.91841" lon="6.29817">
        <ele>1215</ele>
        <time>2022-06-09T17:54:11Z</time>
      </trkpt>
      <trkpt lat="43.91843" lon="6.29819">
        <ele>1215</ele>
        <time>2022-06-09T17:54:11Z</time>
      </trkpt>
      <trkpt lat="43.91841" lon="6.29824">
        <ele>1216</ele>
        <time>2022-06-09T17:54:12Z</time>
      </trkpt>
      <trkpt lat="43.91856" lon="6.29762">
        <ele>1209</ele>
        <time>2022-06-09T17:54:23Z</time>
      </trkpt>
      <trkpt lat="43.91855" lon="6.29751">
        <ele>1207</ele>
        <time>2022-06-09T17:54:25Z</time>
      </trkpt>
      <trkpt lat="43.91859" lon="6.29746">
        <ele>1207</ele>
        <time>2022-06-09T17:54:27Z</time>
      </trkpt>
      <trkpt lat="43.91868" lon="6.29711">
        <ele>1205</ele>
        <time>2022-06-09T17:54:33Z</time>
      </trkpt>
      <trkpt lat="43.91843" lon="6.29654">
        <ele>1195</ele>
        <time>2022-06-09T17:54:44Z</time>
      </trkpt>
      <trkpt lat="43.9183" lon="6.29635">
        <ele>1191</ele>
        <time>2022-06-09T17:54:48Z</time>
      </trkpt>
      <trkpt lat="43.91807" lon="6.29609">
        <ele>1192</ele>
        <time>2022-06-09T17:54:55Z</time>
      </trkpt>
      <trkpt lat="43.91798" lon="6.29574">
        <ele>1193</ele>
        <time>2022-06-09T17:55:02Z</time>
      </trkpt>
      <trkpt lat="43.91792" lon="6.29561">
        <ele>1196</ele>
        <time>2022-06-09T17:55:04Z</time>
      </trkpt>
      <trkpt lat="43.91786" lon="6.29556">
        <ele>1198</ele>
        <time>2022-06-09T17:55:06Z</time>
      </trkpt>
      <trkpt lat="43.91791" lon="6.29516">
        <ele>1202</ele>
        <time>2022-06-09T17:55:13Z</time>
      </trkpt>
      <trkpt lat="43.91814" lon="6.29503">
        <ele>1196</ele>
        <time>2022-06-09T17:55:19Z</time>
      </trkpt>
      <trkpt lat="43.91824" lon="6.29477">
        <ele>1196</ele>
        <time>2022-06-09T17:55:23Z</time>
      </trkpt>
      <trkpt lat="43.9184" lon="6.29445">
        <ele>1197</ele>
        <time>2022-06-09T17:55:30Z</time>
      </trkpt>
      <trkpt lat="43.91846" lon="6.29426">
        <ele>1199</ele>
        <time>2022-06-09T17:55:34Z</time>
      </trkpt>
      <trkpt lat="43.91847" lon="6.29418">
        <ele>1200</ele>
        <time>2022-06-09T17:55:35Z</time>
      </trkpt>
      <trkpt lat="43.91837" lon="6.29358">
        <ele>1208</ele>
        <time>2022-06-09T17:55:45Z</time>
      </trkpt>
      <trkpt lat="43.91843" lon="6.29323">
        <ele>1207</ele>
        <time>2022-06-09T17:55:51Z</time>
      </trkpt>
      <trkpt lat="43.91838" lon="6.29313">
        <ele>1207</ele>
        <time>2022-06-09T17:55:53Z</time>
      </trkpt>
      <trkpt lat="43.91828" lon="6.29302">
        <ele>1209</ele>
        <time>2022-06-09T17:55:56Z</time>
      </trkpt>
      <trkpt lat="43.91825" lon="6.29294">
        <ele>1209</ele>
        <time>2022-06-09T17:55:58Z</time>
      </trkpt>
      <trkpt lat="43.91825" lon="6.29274">
        <ele>1206</ele>
        <time>2022-06-09T17:56:01Z</time>
      </trkpt>
      <trkpt lat="43.91816" lon="6.29248">
        <ele>1205</ele>
        <time>2022-06-09T17:56:06Z</time>
      </trkpt>
      <trkpt lat="43.91783" lon="6.29215">
        <ele>1215</ele>
        <time>2022-06-09T17:56:16Z</time>
      </trkpt>
      <trkpt lat="43.91774" lon="6.2921">
        <ele>1218</ele>
        <time>2022-06-09T17:56:18Z</time>
      </trkpt>
      <trkpt lat="43.91759" lon="6.29191">
        <ele>1220</ele>
        <time>2022-06-09T17:56:23Z</time>
      </trkpt>
      <trkpt lat="43.91756" lon="6.29189">
        <ele>1221</ele>
        <time>2022-06-09T17:56:23Z</time>
      </trkpt>
      <trkpt lat="43.91753" lon="6.29196">
        <ele>1223</ele>
        <time>2022-06-09T17:56:25Z</time>
      </trkpt>
      <trkpt lat="43.91757" lon="6.29194">
        <ele>1221</ele>
        <time>2022-06-09T17:56:26Z</time>
      </trkpt>
      <trkpt lat="43.91756" lon="6.29183">
        <ele>1220</ele>
        <time>2022-06-09T17:56:28Z</time>
      </trkpt>
      <trkpt lat="43.91732" lon="6.29162">
        <ele>1224</ele>
        <time>2022-06-09T17:56:34Z</time>
      </trkpt>
      <trkpt lat="43.91726" lon="6.2912">
        <ele>1229</ele>
        <time>2022-06-09T17:56:41Z</time>
      </trkpt>
      <trkpt lat="43.91717" lon="6.29088">
        <ele>1232</ele>
        <time>2022-06-09T17:56:47Z</time>
      </trkpt>
      <trkpt lat="43.91705" lon="6.2906">
        <ele>1232</ele>
        <time>2022-06-09T17:56:53Z</time>
      </trkpt>
      <trkpt lat="43.91701" lon="6.29039">
        <ele>1232</ele>
        <time>2022-06-09T17:56:56Z</time>
      </trkpt>
      <trkpt lat="43.91699" lon="6.29035">
        <ele>1232</ele>
        <time>2022-06-09T17:56:57Z</time>
      </trkpt>
      <trkpt lat="43.91693" lon="6.29032">
        <ele>1231</ele>
        <time>2022-06-09T17:56:59Z</time>
      </trkpt>
      <trkpt lat="43.91691" lon="6.29035">
        <ele>1231</ele>
        <time>2022-06-09T17:56:59Z</time>
      </trkpt>
      <trkpt lat="43.91686" lon="6.29035">
        <ele>1230</ele>
        <time>2022-06-09T17:57:00Z</time>
      </trkpt>
      <trkpt lat="43.91686" lon="6.29032">
        <ele>1230</ele>
        <time>2022-06-09T17:57:01Z</time>
      </trkpt>
      <trkpt lat="43.91695" lon="6.29026">
        <ele>1231</ele>
        <time>2022-06-09T17:57:03Z</time>
      </trkpt>
      <trkpt lat="43.91691" lon="6.29011">
        <ele>1230</ele>
        <time>2022-06-09T17:57:06Z</time>
      </trkpt>
      <trkpt lat="43.91677" lon="6.28982">
        <ele>1223</ele>
        <time>2022-06-09T17:57:12Z</time>
      </trkpt>
      <trkpt lat="43.91663" lon="6.28972">
        <ele>1218</ele>
        <time>2022-06-09T17:57:16Z</time>
      </trkpt>
      <trkpt lat="43.91629" lon="6.2897">
        <ele>1212</ele>
        <time>2022-06-09T17:57:23Z</time>
      </trkpt>
      <trkpt lat="43.91571" lon="6.28975">
        <ele>1203</ele>
        <time>2022-06-09T17:57:37Z</time>
      </trkpt>
      <trkpt lat="43.91548" lon="6.28969">
        <ele>1197</ele>
        <time>2022-06-09T17:57:43Z</time>
      </trkpt>
      <trkpt lat="43.91531" lon="6.28973">
        <ele>1195</ele>
        <time>2022-06-09T17:57:47Z</time>
      </trkpt>
      <trkpt lat="43.91512" lon="6.28974">
        <ele>1192</ele>
        <time>2022-06-09T17:57:51Z</time>
      </trkpt>
      <trkpt lat="43.91507" lon="6.28965">
        <ele>1188</ele>
        <time>2022-06-09T17:57:53Z</time>
      </trkpt>
      <trkpt lat="43.91514" lon="6.28947">
        <ele>1184</ele>
        <time>2022-06-09T17:57:56Z</time>
      </trkpt>
      <trkpt lat="43.91511" lon="6.28941">
        <ele>1182</ele>
        <time>2022-06-09T17:57:58Z</time>
      </trkpt>
      <trkpt lat="43.91499" lon="6.2894">
        <ele>1179</ele>
        <time>2022-06-09T17:58:00Z</time>
      </trkpt>
      <trkpt lat="43.91478" lon="6.2893">
        <ele>1171</ele>
        <time>2022-06-09T17:58:06Z</time>
      </trkpt>
      <trkpt lat="43.91458" lon="6.28917">
        <ele>1163</ele>
        <time>2022-06-09T17:58:11Z</time>
      </trkpt>
      <trkpt lat="43.9145" lon="6.2892">
        <ele>1162</ele>
        <time>2022-06-09T17:58:13Z</time>
      </trkpt>
      <trkpt lat="43.91439" lon="6.28929">
        <ele>1162</ele>
        <time>2022-06-09T17:58:16Z</time>
      </trkpt>
      <trkpt lat="43.91419" lon="6.28932">
        <ele>1158</ele>
        <time>2022-06-09T17:58:20Z</time>
      </trkpt>
      <trkpt lat="43.91407" lon="6.28939">
        <ele>1158</ele>
        <time>2022-06-09T17:58:23Z</time>
      </trkpt>
      <trkpt lat="43.91403" lon="6.28938">
        <ele>1157</ele>
        <time>2022-06-09T17:58:24Z</time>
      </trkpt>
      <trkpt lat="43.91386" lon="6.28924">
        <ele>1151</ele>
        <time>2022-06-09T17:58:29Z</time>
      </trkpt>
      <trkpt lat="43.91387" lon="6.28899">
        <ele>1146</ele>
        <time>2022-06-09T17:58:33Z</time>
      </trkpt>
      <trkpt lat="43.91382" lon="6.28899">
        <ele>1145</ele>
        <time>2022-06-09T17:58:34Z</time>
      </trkpt>
      <trkpt lat="43.91382" lon="6.28897">
        <ele>1145</ele>
        <time>2022-06-09T17:58:35Z</time>
      </trkpt>
      <trkpt lat="43.91371" lon="6.289">
        <ele>1144</ele>
        <time>2022-06-09T17:58:37Z</time>
      </trkpt>
      <trkpt lat="43.91327" lon="6.28929">
        <ele>1144</ele>
        <time>2022-06-09T17:58:49Z</time>
      </trkpt>
      <trkpt lat="43.91313" lon="6.28942">
        <ele>1145</ele>
        <time>2022-06-09T17:58:53Z</time>
      </trkpt>
      <trkpt lat="43.91305" lon="6.28958">
        <ele>1147</ele>
        <time>2022-06-09T17:58:56Z</time>
      </trkpt>
      <trkpt lat="43.9129" lon="6.29015">
        <ele>1157</ele>
        <time>2022-06-09T17:59:06Z</time>
      </trkpt>
      <trkpt lat="43.91266" lon="6.29053">
        <ele>1161</ele>
        <time>2022-06-09T17:59:15Z</time>
      </trkpt>
      <trkpt lat="43.91244" lon="6.29066">
        <ele>1162</ele>
        <time>2022-06-09T17:59:20Z</time>
      </trkpt>
      <trkpt lat="43.91226" lon="6.29066">
        <ele>1166</ele>
        <time>2022-06-09T17:59:24Z</time>
      </trkpt>
      <trkpt lat="43.91212" lon="6.29046">
        <ele>1165</ele>
        <time>2022-06-09T17:59:29Z</time>
      </trkpt>
      <trkpt lat="43.91207" lon="6.29021">
        <ele>1162</ele>
        <time>2022-06-09T17:59:33Z</time>
      </trkpt>
      <trkpt lat="43.91193" lon="6.29005">
        <ele>1162</ele>
        <time>2022-06-09T17:59:38Z</time>
      </trkpt>
      <trkpt lat="43.91149" lon="6.2896">
        <ele>1162</ele>
        <time>2022-06-09T17:59:50Z</time>
      </trkpt>
      <trkpt lat="43.91111" lon="6.28937">
        <ele>1164</ele>
        <time>2022-06-09T18:00:00Z</time>
      </trkpt>
      <trkpt lat="43.91085" lon="6.28912">
        <ele>1162</ele>
        <time>2022-06-09T18:00:07Z</time>
      </trkpt>
      <trkpt lat="43.91049" lon="6.28894">
        <ele>1168</ele>
        <time>2022-06-09T18:00:16Z</time>
      </trkpt>
      <trkpt lat="43.91032" lon="6.28869">
        <ele>1168</ele>
        <time>2022-06-09T18:00:22Z</time>
      </trkpt>
      <trkpt lat="43.90994" lon="6.28832">
        <ele>1168</ele>
        <time>2022-06-09T18:00:33Z</time>
      </trkpt>
      <trkpt lat="43.90983" lon="6.28806">
        <ele>1164</ele>
        <time>2022-06-09T18:00:38Z</time>
      </trkpt>
      <trkpt lat="43.90966" lon="6.28789">
        <ele>1160</ele>
        <time>2022-06-09T18:00:43Z</time>
      </trkpt>
      <trkpt lat="43.90918" lon="6.288">
        <ele>1163</ele>
        <time>2022-06-09T18:00:54Z</time>
      </trkpt>
      <trkpt lat="43.90905" lon="6.28813">
        <ele>1164</ele>
        <time>2022-06-09T18:00:58Z</time>
      </trkpt>
      <trkpt lat="43.90899" lon="6.28843">
        <ele>1171</ele>
        <time>2022-06-09T18:01:03Z</time>
      </trkpt>
      <trkpt lat="43.90889" lon="6.28864">
        <ele>1174</ele>
        <time>2022-06-09T18:01:08Z</time>
      </trkpt>
      <trkpt lat="43.90872" lon="6.28883">
        <ele>1177</ele>
        <time>2022-06-09T18:01:13Z</time>
      </trkpt>
      <trkpt lat="43.90852" lon="6.28895">
        <ele>1177</ele>
        <time>2022-06-09T18:01:18Z</time>
      </trkpt>
      <trkpt lat="43.9083" lon="6.28898">
        <ele>1175</ele>
        <time>2022-06-09T18:01:23Z</time>
      </trkpt>
      <trkpt lat="43.90812" lon="6.28909">
        <ele>1176</ele>
        <time>2022-06-09T18:01:28Z</time>
      </trkpt>
      <trkpt lat="43.908" lon="6.28922">
        <ele>1178</ele>
        <time>2022-06-09T18:01:31Z</time>
      </trkpt>
      <trkpt lat="43.90775" lon="6.28933">
        <ele>1177</ele>
        <time>2022-06-09T18:01:37Z</time>
      </trkpt>
      <trkpt lat="43.90748" lon="6.28937">
        <ele>1175</ele>
        <time>2022-06-09T18:01:44Z</time>
      </trkpt>
      <trkpt lat="43.90728" lon="6.28949">
        <ele>1176</ele>
        <time>2022-06-09T18:01:49Z</time>
      </trkpt>
      <trkpt lat="43.90717" lon="6.2896">
        <ele>1177</ele>
        <time>2022-06-09T18:01:52Z</time>
      </trkpt>
      <trkpt lat="43.90712" lon="6.2897">
        <ele>1178</ele>
        <time>2022-06-09T18:01:54Z</time>
      </trkpt>
      <trkpt lat="43.9066" lon="6.29033">
        <ele>1186</ele>
        <time>2022-06-09T18:02:10Z</time>
      </trkpt>
      <trkpt lat="43.90626" lon="6.29057">
        <ele>1185</ele>
        <time>2022-06-09T18:02:19Z</time>
      </trkpt>
      <trkpt lat="43.90586" lon="6.291">
        <ele>1191</ele>
        <time>2022-06-09T18:02:31Z</time>
      </trkpt>
      <trkpt lat="43.9057" lon="6.29114">
        <ele>1193</ele>
        <time>2022-06-09T18:02:35Z</time>
      </trkpt>
      <trkpt lat="43.90526" lon="6.29139">
        <ele>1197</ele>
        <time>2022-06-09T18:02:46Z</time>
      </trkpt>
      <trkpt lat="43.90483" lon="6.29149">
        <ele>1200</ele>
        <time>2022-06-09T18:02:56Z</time>
      </trkpt>
      <trkpt lat="43.90454" lon="6.29127">
        <ele>1197</ele>
        <time>2022-06-09T18:03:04Z</time>
      </trkpt>
      <trkpt lat="43.90436" lon="6.29117">
        <ele>1197</ele>
        <time>2022-06-09T18:03:09Z</time>
      </trkpt>
      <trkpt lat="43.90398" lon="6.29111">
        <ele>1197</ele>
        <time>2022-06-09T18:03:18Z</time>
      </trkpt>
      <trkpt lat="43.90385" lon="6.29112">
        <ele>1198</ele>
        <time>2022-06-09T18:03:21Z</time>
      </trkpt>
      <trkpt lat="43.90341" lon="6.29131">
        <ele>1203</ele>
        <time>2022-06-09T18:03:31Z</time>
      </trkpt>
      <trkpt lat="43.90296" lon="6.29139">
        <ele>1206</ele>
        <time>2022-06-09T18:03:42Z</time>
      </trkpt>
      <trkpt lat="43.90258" lon="6.2915">
        <ele>1208</ele>
        <time>2022-06-09T18:03:51Z</time>
      </trkpt>
      <trkpt lat="43.9023" lon="6.29149">
        <ele>1209</ele>
        <time>2022-06-09T18:03:58Z</time>
      </trkpt>
      <trkpt lat="43.90217" lon="6.29143">
        <ele>1209</ele>
        <time>2022-06-09T18:04:01Z</time>
      </trkpt>
      <trkpt lat="43.90203" lon="6.2913">
        <ele>1208</ele>
        <time>2022-06-09T18:04:05Z</time>
      </trkpt>
      <trkpt lat="43.90187" lon="6.2912">
        <ele>1207</ele>
        <time>2022-06-09T18:04:09Z</time>
      </trkpt>
      <trkpt lat="43.90171" lon="6.29116">
        <ele>1206</ele>
        <time>2022-06-09T18:04:13Z</time>
      </trkpt>
      <trkpt lat="43.90157" lon="6.29106">
        <ele>1206</ele>
        <time>2022-06-09T18:04:16Z</time>
      </trkpt>
      <trkpt lat="43.90145" lon="6.29101">
        <ele>1207</ele>
        <time>2022-06-09T18:04:19Z</time>
      </trkpt>
      <trkpt lat="43.90129" lon="6.29098">
        <ele>1209</ele>
        <time>2022-06-09T18:04:23Z</time>
      </trkpt>
      <trkpt lat="43.90115" lon="6.29088">
        <ele>1209</ele>
        <time>2022-06-09T18:04:27Z</time>
      </trkpt>
      <trkpt lat="43.90077" lon="6.29045">
        <ele>1207</ele>
        <time>2022-06-09T18:04:38Z</time>
      </trkpt>
      <trkpt lat="43.90052" lon="6.29034">
        <ele>1204</ele>
        <time>2022-06-09T18:04:44Z</time>
      </trkpt>
      <trkpt lat="43.90038" lon="6.29044">
        <ele>1207</ele>
        <time>2022-06-09T18:04:48Z</time>
      </trkpt>
      <trkpt lat="43.90018" lon="6.29075">
        <ele>1214</ele>
        <time>2022-06-09T18:04:55Z</time>
      </trkpt>
      <trkpt lat="43.90006" lon="6.2908">
        <ele>1215</ele>
        <time>2022-06-09T18:04:58Z</time>
      </trkpt>
      <trkpt lat="43.89998" lon="6.29071">
        <ele>1214</ele>
        <time>2022-06-09T18:05:00Z</time>
      </trkpt>
      <trkpt lat="43.89983" lon="6.2903">
        <ele>1208</ele>
        <time>2022-06-09T18:05:08Z</time>
      </trkpt>
      <trkpt lat="43.8997" lon="6.29022">
        <ele>1209</ele>
        <time>2022-06-09T18:05:11Z</time>
      </trkpt>
      <trkpt lat="43.89959" lon="6.2901">
        <ele>1209</ele>
        <time>2022-06-09T18:05:15Z</time>
      </trkpt>
      <trkpt lat="43.89909" lon="6.29">
        <ele>1219</ele>
        <time>2022-06-09T18:05:26Z</time>
      </trkpt>
      <trkpt lat="43.89889" lon="6.28993">
        <ele>1220</ele>
        <time>2022-06-09T18:05:31Z</time>
      </trkpt>
      <trkpt lat="43.89872" lon="6.28992">
        <ele>1222</ele>
        <time>2022-06-09T18:05:35Z</time>
      </trkpt>
      <trkpt lat="43.89856" lon="6.28994">
        <ele>1225</ele>
        <time>2022-06-09T18:05:39Z</time>
      </trkpt>
      <trkpt lat="43.89839" lon="6.2899">
        <ele>1226</ele>
        <time>2022-06-09T18:05:43Z</time>
      </trkpt>
      <trkpt lat="43.89823" lon="6.2898">
        <ele>1227</ele>
        <time>2022-06-09T18:05:47Z</time>
      </trkpt>
      <trkpt lat="43.89791" lon="6.28939">
        <ele>1225</ele>
        <time>2022-06-09T18:05:57Z</time>
      </trkpt>
      <trkpt lat="43.89761" lon="6.28944">
        <ele>1231</ele>
        <time>2022-06-09T18:06:04Z</time>
      </trkpt>
      <trkpt lat="43.89753" lon="6.28937">
        <ele>1231</ele>
        <time>2022-06-09T18:06:06Z</time>
      </trkpt>
      <trkpt lat="43.8975" lon="6.28921">
        <ele>1229</ele>
        <time>2022-06-09T18:06:09Z</time>
      </trkpt>
      <trkpt lat="43.89736" lon="6.28897">
        <ele>1229</ele>
        <time>2022-06-09T18:06:14Z</time>
      </trkpt>
      <trkpt lat="43.89714" lon="6.28876">
        <ele>1230</ele>
        <time>2022-06-09T18:06:21Z</time>
      </trkpt>
      <trkpt lat="43.89694" lon="6.28865">
        <ele>1231</ele>
        <time>2022-06-09T18:06:26Z</time>
      </trkpt>
      <trkpt lat="43.89677" lon="6.28864">
        <ele>1233</ele>
        <time>2022-06-09T18:06:30Z</time>
      </trkpt>
      <trkpt lat="43.89638" lon="6.28852">
        <ele>1236</ele>
        <time>2022-06-09T18:06:39Z</time>
      </trkpt>
      <trkpt lat="43.89618" lon="6.28856">
        <ele>1239</ele>
        <time>2022-06-09T18:06:44Z</time>
      </trkpt>
      <trkpt lat="43.89603" lon="6.28863">
        <ele>1242</ele>
        <time>2022-06-09T18:06:47Z</time>
      </trkpt>
      <trkpt lat="43.8959" lon="6.28857">
        <ele>1242</ele>
        <time>2022-06-09T18:06:51Z</time>
      </trkpt>
      <trkpt lat="43.8957" lon="6.28843">
        <ele>1243</ele>
        <time>2022-06-09T18:06:56Z</time>
      </trkpt>
      <trkpt lat="43.89542" lon="6.2883">
        <ele>1245</ele>
        <time>2022-06-09T18:07:03Z</time>
      </trkpt>
      <trkpt lat="43.8952" lon="6.28814">
        <ele>1249</ele>
        <time>2022-06-09T18:07:09Z</time>
      </trkpt>
      <trkpt lat="43.89489" lon="6.28806">
        <ele>1253</ele>
        <time>2022-06-09T18:07:16Z</time>
      </trkpt>
      <trkpt lat="43.89464" lon="6.28808">
        <ele>1256</ele>
        <time>2022-06-09T18:07:22Z</time>
      </trkpt>
      <trkpt lat="43.89448" lon="6.28818">
        <ele>1257</ele>
        <time>2022-06-09T18:07:26Z</time>
      </trkpt>
      <trkpt lat="43.89424" lon="6.28842">
        <ele>1261</ele>
        <time>2022-06-09T18:07:33Z</time>
      </trkpt>
      <trkpt lat="43.89413" lon="6.2885">
        <ele>1262</ele>
        <time>2022-06-09T18:07:36Z</time>
      </trkpt>
      <trkpt lat="43.89404" lon="6.28877">
        <ele>1264</ele>
        <time>2022-06-09T18:07:41Z</time>
      </trkpt>
      <trkpt lat="43.89395" lon="6.28859">
        <ele>1262</ele>
        <time>2022-06-09T18:07:44Z</time>
      </trkpt>
      <trkpt lat="43.89369" lon="6.28857">
        <ele>1261</ele>
        <time>2022-06-09T18:07:50Z</time>
      </trkpt>
      <trkpt lat="43.8934" lon="6.28859">
        <ele>1260</ele>
        <time>2022-06-09T18:07:57Z</time>
      </trkpt>
      <trkpt lat="43.89308" lon="6.28857">
        <ele>1258</ele>
        <time>2022-06-09T18:08:05Z</time>
      </trkpt>
      <trkpt lat="43.89299" lon="6.28859">
        <ele>1257</ele>
        <time>2022-06-09T18:08:07Z</time>
      </trkpt>
      <trkpt lat="43.89287" lon="6.28865">
        <ele>1257</ele>
        <time>2022-06-09T18:08:10Z</time>
      </trkpt>
      <trkpt lat="43.89258" lon="6.28891">
        <ele>1254</ele>
        <time>2022-06-09T18:08:18Z</time>
      </trkpt>
      <trkpt lat="43.89238" lon="6.2892">
        <ele>1252</ele>
        <time>2022-06-09T18:08:25Z</time>
      </trkpt>
      <trkpt lat="43.89205" lon="6.28945">
        <ele>1252</ele>
        <time>2022-06-09T18:08:33Z</time>
      </trkpt>
      <trkpt lat="43.8919" lon="6.28936">
        <ele>1250</ele>
        <time>2022-06-09T18:08:37Z</time>
      </trkpt>
      <trkpt lat="43.89178" lon="6.28939">
        <ele>1249</ele>
        <time>2022-06-09T18:08:40Z</time>
      </trkpt>
      <trkpt lat="43.89178" lon="6.28942">
        <ele>1249</ele>
        <time>2022-06-09T18:08:41Z</time>
      </trkpt>
      <trkpt lat="43.89172" lon="6.28939">
        <ele>1248</ele>
        <time>2022-06-09T18:08:42Z</time>
      </trkpt>
      <trkpt lat="43.89179" lon="6.28939">
        <ele>1249</ele>
        <time>2022-06-09T18:08:44Z</time>
      </trkpt>
      <trkpt lat="43.89178" lon="6.28941">
        <ele>1249</ele>
        <time>2022-06-09T18:08:44Z</time>
      </trkpt>
      <trkpt lat="43.89174" lon="6.28939">
        <ele>1248</ele>
        <time>2022-06-09T18:08:45Z</time>
      </trkpt>
      <trkpt lat="43.89171" lon="6.28937">
        <ele>1248</ele>
        <time>2022-06-09T18:08:46Z</time>
      </trkpt>
      <trkpt lat="43.89172" lon="6.28935">
        <ele>1248</ele>
        <time>2022-06-09T18:08:46Z</time>
      </trkpt>
      <trkpt lat="43.89175" lon="6.28937">
        <ele>1248</ele>
        <time>2022-06-09T18:08:47Z</time>
      </trkpt>
      <trkpt lat="43.89171" lon="6.28937">
        <ele>1248</ele>
        <time>2022-06-09T18:08:48Z</time>
      </trkpt>
      <trkpt lat="43.89173" lon="6.28941">
        <ele>1249</ele>
        <time>2022-06-09T18:08:49Z</time>
      </trkpt>
      <trkpt lat="43.89168" lon="6.28939">
        <ele>1248</ele>
        <time>2022-06-09T18:08:50Z</time>
      </trkpt>
      <trkpt lat="43.89168" lon="6.28936">
        <ele>1247</ele>
        <time>2022-06-09T18:08:51Z</time>
      </trkpt>
      <trkpt lat="43.89172" lon="6.28939">
        <ele>1248</ele>
        <time>2022-06-09T18:08:52Z</time>
      </trkpt>
      <trkpt lat="43.89172" lon="6.28943">
        <ele>1249</ele>
        <time>2022-06-09T18:08:52Z</time>
      </trkpt>
      <trkpt lat="43.89171" lon="6.28938">
        <ele>1248</ele>
        <time>2022-06-09T18:08:53Z</time>
      </trkpt>
      <trkpt lat="43.89184" lon="6.28934">
        <ele>1249</ele>
        <time>2022-06-09T18:08:56Z</time>
      </trkpt>
      <trkpt lat="43.89187" lon="6.28935">
        <ele>1249</ele>
        <time>2022-06-09T18:08:57Z</time>
      </trkpt>
      <trkpt lat="43.89188" lon="6.28939">
        <ele>1250</ele>
        <time>2022-06-09T18:08:58Z</time>
      </trkpt>
      <trkpt lat="43.89194" lon="6.28938">
        <ele>1250</ele>
        <time>2022-06-09T18:08:59Z</time>
      </trkpt>
      <trkpt lat="43.89198" lon="6.28945">
        <ele>1252</ele>
        <time>2022-06-09T18:09:01Z</time>
      </trkpt>
      <trkpt lat="43.89166" lon="6.28962">
        <ele>1252</ele>
        <time>2022-06-09T18:09:09Z</time>
      </trkpt>
      <trkpt lat="43.89142" lon="6.28965">
        <ele>1250</ele>
        <time>2022-06-09T18:09:14Z</time>
      </trkpt>
      <trkpt lat="43.89124" lon="6.28959">
        <ele>1248</ele>
        <time>2022-06-09T18:09:19Z</time>
      </trkpt>
      <trkpt lat="43.89107" lon="6.28966">
        <ele>1248</ele>
        <time>2022-06-09T18:09:23Z</time>
      </trkpt>
      <trkpt lat="43.89087" lon="6.28981">
        <ele>1249</ele>
        <time>2022-06-09T18:09:28Z</time>
      </trkpt>
      <trkpt lat="43.89061" lon="6.28994">
        <ele>1251</ele>
        <time>2022-06-09T18:09:34Z</time>
      </trkpt>
      <trkpt lat="43.89033" lon="6.28999">
        <ele>1252</ele>
        <time>2022-06-09T18:09:41Z</time>
      </trkpt>
      <trkpt lat="43.88993" lon="6.28971">
        <ele>1246</ele>
        <time>2022-06-09T18:09:52Z</time>
      </trkpt>
      <trkpt lat="43.88958" lon="6.28956">
        <ele>1245</ele>
        <time>2022-06-09T18:10:00Z</time>
      </trkpt>
      <trkpt lat="43.88933" lon="6.28955">
        <ele>1247</ele>
        <time>2022-06-09T18:10:06Z</time>
      </trkpt>
      <trkpt lat="43.88902" lon="6.28972">
        <ele>1252</ele>
        <time>2022-06-09T18:10:14Z</time>
      </trkpt>
      <trkpt lat="43.88812" lon="6.29008">
        <ele>1255</ele>
        <time>2022-06-09T18:10:36Z</time>
      </trkpt>
      <trkpt lat="43.88794" lon="6.29013">
        <ele>1255</ele>
        <time>2022-06-09T18:10:40Z</time>
      </trkpt>
      <trkpt lat="43.88773" lon="6.29024">
        <ele>1256</ele>
        <time>2022-06-09T18:10:45Z</time>
      </trkpt>
      <trkpt lat="43.88744" lon="6.29064">
        <ele>1259</ele>
        <time>2022-06-09T18:10:55Z</time>
      </trkpt>
      <trkpt lat="43.8862" lon="6.29212">
        <ele>1265</ele>
        <time>2022-06-09T18:11:33Z</time>
      </trkpt>
      <trkpt lat="43.88603" lon="6.29239">
        <ele>1266</ele>
        <time>2022-06-09T18:11:39Z</time>
      </trkpt>
      <trkpt lat="43.88593" lon="6.29282">
        <ele>1273</ele>
        <time>2022-06-09T18:11:46Z</time>
      </trkpt>
      <trkpt lat="43.88581" lon="6.29291">
        <ele>1273</ele>
        <time>2022-06-09T18:11:50Z</time>
      </trkpt>
      <trkpt lat="43.88575" lon="6.29291">
        <ele>1274</ele>
        <time>2022-06-09T18:11:51Z</time>
      </trkpt>
      <trkpt lat="43.88577" lon="6.29288">
        <ele>1273</ele>
        <time>2022-06-09T18:11:52Z</time>
      </trkpt>
      <trkpt lat="43.88576" lon="6.29292">
        <ele>1274</ele>
        <time>2022-06-09T18:11:52Z</time>
      </trkpt>
      <trkpt lat="43.88539" lon="6.29274">
        <ele>1272</ele>
        <time>2022-06-09T18:12:02Z</time>
      </trkpt>
      <trkpt lat="43.88518" lon="6.29257">
        <ele>1268</ele>
        <time>2022-06-09T18:12:07Z</time>
      </trkpt>
      <trkpt lat="43.88494" lon="6.29244">
        <ele>1265</ele>
        <time>2022-06-09T18:12:13Z</time>
      </trkpt>
      <trkpt lat="43.88444" lon="6.29241">
        <ele>1266</ele>
        <time>2022-06-09T18:12:25Z</time>
      </trkpt>
      <trkpt lat="43.88421" lon="6.29253">
        <ele>1271</ele>
        <time>2022-06-09T18:12:31Z</time>
      </trkpt>
      <trkpt lat="43.88376" lon="6.29266">
        <ele>1270</ele>
        <time>2022-06-09T18:12:41Z</time>
      </trkpt>
      <trkpt lat="43.8832" lon="6.29319">
        <ele>1276</ele>
        <time>2022-06-09T18:12:57Z</time>
      </trkpt>
      <trkpt lat="43.88311" lon="6.29335">
        <ele>1278</ele>
        <time>2022-06-09T18:13:01Z</time>
      </trkpt>
      <trkpt lat="43.88293" lon="6.29393">
        <ele>1287</ele>
        <time>2022-06-09T18:13:11Z</time>
      </trkpt>
      <trkpt lat="43.88286" lon="6.29408">
        <ele>1290</ele>
        <time>2022-06-09T18:13:14Z</time>
      </trkpt>
      <trkpt lat="43.88276" lon="6.29421">
        <ele>1291</ele>
        <time>2022-06-09T18:13:18Z</time>
      </trkpt>
      <trkpt lat="43.88239" lon="6.29436">
        <ele>1292</ele>
        <time>2022-06-09T18:13:27Z</time>
      </trkpt>
      <trkpt lat="43.88225" lon="6.29446">
        <ele>1295</ele>
        <time>2022-06-09T18:13:30Z</time>
      </trkpt>
      <trkpt lat="43.88202" lon="6.29472">
        <ele>1300</ele>
        <time>2022-06-09T18:13:37Z</time>
      </trkpt>
      <trkpt lat="43.88178" lon="6.29506">
        <ele>1306</ele>
        <time>2022-06-09T18:13:45Z</time>
      </trkpt>
      <trkpt lat="43.88165" lon="6.29512">
        <ele>1307</ele>
        <time>2022-06-09T18:13:48Z</time>
      </trkpt>
      <trkpt lat="43.88152" lon="6.29511">
        <ele>1309</ele>
        <time>2022-06-09T18:13:51Z</time>
      </trkpt>
      <trkpt lat="43.88143" lon="6.29507">
        <ele>1309</ele>
        <time>2022-06-09T18:13:54Z</time>
      </trkpt>
      <trkpt lat="43.88127" lon="6.29495">
        <ele>1309</ele>
        <time>2022-06-09T18:13:58Z</time>
      </trkpt>
      <trkpt lat="43.88104" lon="6.29471">
        <ele>1308</ele>
        <time>2022-06-09T18:14:05Z</time>
      </trkpt>
      <trkpt lat="43.88084" lon="6.29459">
        <ele>1309</ele>
        <time>2022-06-09T18:14:10Z</time>
      </trkpt>
      <trkpt lat="43.88076" lon="6.29457">
        <ele>1309</ele>
        <time>2022-06-09T18:14:12Z</time>
      </trkpt>
      <trkpt lat="43.88064" lon="6.29458">
        <ele>1310</ele>
        <time>2022-06-09T18:14:14Z</time>
      </trkpt>
      <trkpt lat="43.88031" lon="6.29482">
        <ele>1317</ele>
        <time>2022-06-09T18:14:23Z</time>
      </trkpt>
      <trkpt lat="43.87982" lon="6.295">
        <ele>1323</ele>
        <time>2022-06-09T18:14:35Z</time>
      </trkpt>
      <trkpt lat="43.8797" lon="6.29499">
        <ele>1324</ele>
        <time>2022-06-09T18:14:38Z</time>
      </trkpt>
      <trkpt lat="43.87955" lon="6.29488">
        <ele>1322</ele>
        <time>2022-06-09T18:14:42Z</time>
      </trkpt>
      <trkpt lat="43.87951" lon="6.29476">
        <ele>1320</ele>
        <time>2022-06-09T18:14:44Z</time>
      </trkpt>
      <trkpt lat="43.87936" lon="6.29464">
        <ele>1319</ele>
        <time>2022-06-09T18:14:48Z</time>
      </trkpt>
      <trkpt lat="43.87925" lon="6.29465">
        <ele>1320</ele>
        <time>2022-06-09T18:14:51Z</time>
      </trkpt>
      <trkpt lat="43.87892" lon="6.29518">
        <ele>1328</ele>
        <time>2022-06-09T18:15:02Z</time>
      </trkpt>
      <trkpt lat="43.87881" lon="6.29529">
        <ele>1330</ele>
        <time>2022-06-09T18:15:06Z</time>
      </trkpt>
      <trkpt lat="43.87868" lon="6.29533">
        <ele>1330</ele>
        <time>2022-06-09T18:15:09Z</time>
      </trkpt>
      <trkpt lat="43.87861" lon="6.2953">
        <ele>1330</ele>
        <time>2022-06-09T18:15:10Z</time>
      </trkpt>
      <trkpt lat="43.87845" lon="6.29532">
        <ele>1330</ele>
        <time>2022-06-09T18:15:14Z</time>
      </trkpt>
      <trkpt lat="43.87818" lon="6.29554">
        <ele>1335</ele>
        <time>2022-06-09T18:15:21Z</time>
      </trkpt>
      <trkpt lat="43.87803" lon="6.29558">
        <ele>1336</ele>
        <time>2022-06-09T18:15:25Z</time>
      </trkpt>
      <trkpt lat="43.87786" lon="6.29558">
        <ele>1337</ele>
        <time>2022-06-09T18:15:29Z</time>
      </trkpt>
      <trkpt lat="43.87763" lon="6.29555">
        <ele>1338</ele>
        <time>2022-06-09T18:15:34Z</time>
      </trkpt>
      <trkpt lat="43.87732" lon="6.29533">
        <ele>1337</ele>
        <time>2022-06-09T18:15:42Z</time>
      </trkpt>
      <trkpt lat="43.87714" lon="6.2953">
        <ele>1338</ele>
        <time>2022-06-09T18:15:47Z</time>
      </trkpt>
      <trkpt lat="43.87698" lon="6.29518">
        <ele>1337</ele>
        <time>2022-06-09T18:15:51Z</time>
      </trkpt>
      <trkpt lat="43.87687" lon="6.29501">
        <ele>1336</ele>
        <time>2022-06-09T18:15:55Z</time>
      </trkpt>
      <trkpt lat="43.87672" lon="6.29486">
        <ele>1334</ele>
        <time>2022-06-09T18:15:59Z</time>
      </trkpt>
      <trkpt lat="43.87659" lon="6.29485">
        <ele>1331</ele>
        <time>2022-06-09T18:16:02Z</time>
      </trkpt>
      <trkpt lat="43.8765" lon="6.29493">
        <ele>1330</ele>
        <time>2022-06-09T18:16:05Z</time>
      </trkpt>
      <trkpt lat="43.87639" lon="6.29538">
        <ele>1334</ele>
        <time>2022-06-09T18:16:13Z</time>
      </trkpt>
      <trkpt lat="43.87632" lon="6.29557">
        <ele>1335</ele>
        <time>2022-06-09T18:16:16Z</time>
      </trkpt>
      <trkpt lat="43.87627" lon="6.29583">
        <ele>1338</ele>
        <time>2022-06-09T18:16:21Z</time>
      </trkpt>
      <trkpt lat="43.87621" lon="6.2963">
        <ele>1343</ele>
        <time>2022-06-09T18:16:29Z</time>
      </trkpt>
      <trkpt lat="43.87621" lon="6.29658">
        <ele>1348</ele>
        <time>2022-06-09T18:16:33Z</time>
      </trkpt>
      <trkpt lat="43.87625" lon="6.2968">
        <ele>1352</ele>
        <time>2022-06-09T18:16:37Z</time>
      </trkpt>
      <trkpt lat="43.87622" lon="6.29687">
        <ele>1353</ele>
        <time>2022-06-09T18:16:39Z</time>
      </trkpt>
      <trkpt lat="43.87587" lon="6.29735">
        <ele>1355</ele>
        <time>2022-06-09T18:16:50Z</time>
      </trkpt>
      <trkpt lat="43.87568" lon="6.29746">
        <ele>1354</ele>
        <time>2022-06-09T18:16:55Z</time>
      </trkpt>
      <trkpt lat="43.87538" lon="6.29733">
        <ele>1347</ele>
        <time>2022-06-09T18:17:02Z</time>
      </trkpt>
      <trkpt lat="43.87525" lon="6.29732">
        <ele>1345</ele>
        <time>2022-06-09T18:17:05Z</time>
      </trkpt>
      <trkpt lat="43.8752" lon="6.29734">
        <ele>1344</ele>
        <time>2022-06-09T18:17:07Z</time>
      </trkpt>
      <trkpt lat="43.87497" lon="6.29766">
        <ele>1347</ele>
        <time>2022-06-09T18:17:14Z</time>
      </trkpt>
      <trkpt lat="43.87484" lon="6.29773">
        <ele>1347</ele>
        <time>2022-06-09T18:17:17Z</time>
      </trkpt>
      <trkpt lat="43.87468" lon="6.29774">
        <ele>1345</ele>
        <time>2022-06-09T18:17:21Z</time>
      </trkpt>
      <trkpt lat="43.87454" lon="6.29764">
        <ele>1343</ele>
        <time>2022-06-09T18:17:25Z</time>
      </trkpt>
      <trkpt lat="43.87433" lon="6.29737">
        <ele>1336</ele>
        <time>2022-06-09T18:17:32Z</time>
      </trkpt>
      <trkpt lat="43.87393" lon="6.29707">
        <ele>1328</ele>
        <time>2022-06-09T18:17:42Z</time>
      </trkpt>
      <trkpt lat="43.87375" lon="6.29706">
        <ele>1327</ele>
        <time>2022-06-09T18:17:46Z</time>
      </trkpt>
      <trkpt lat="43.87367" lon="6.29712">
        <ele>1327</ele>
        <time>2022-06-09T18:17:49Z</time>
      </trkpt>
      <trkpt lat="43.87357" lon="6.29728">
        <ele>1329</ele>
        <time>2022-06-09T18:17:52Z</time>
      </trkpt>
      <trkpt lat="43.87352" lon="6.29763">
        <ele>1336</ele>
        <time>2022-06-09T18:17:58Z</time>
      </trkpt>
      <trkpt lat="43.87326" lon="6.29803">
        <ele>1342</ele>
        <time>2022-06-09T18:18:07Z</time>
      </trkpt>
      <trkpt lat="43.87299" lon="6.29851">
        <ele>1348</ele>
        <time>2022-06-09T18:18:17Z</time>
      </trkpt>
      <trkpt lat="43.87288" lon="6.29865">
        <ele>1350</ele>
        <time>2022-06-09T18:18:21Z</time>
      </trkpt>
      <trkpt lat="43.87287" lon="6.29863">
        <ele>1349</ele>
        <time>2022-06-09T18:18:21Z</time>
      </trkpt>
      <trkpt lat="43.87288" lon="6.29865">
        <ele>1350</ele>
        <time>2022-06-09T18:18:22Z</time>
      </trkpt>
      <trkpt lat="43.87285" lon="6.29867">
        <ele>1350</ele>
        <time>2022-06-09T18:18:22Z</time>
      </trkpt>
      <trkpt lat="43.87275" lon="6.29868">
        <ele>1349</ele>
        <time>2022-06-09T18:18:25Z</time>
      </trkpt>
      <trkpt lat="43.87254" lon="6.29882">
        <ele>1349</ele>
        <time>2022-06-09T18:18:30Z</time>
      </trkpt>
      <trkpt lat="43.87242" lon="6.29911">
        <ele>1355</ele>
        <time>2022-06-09T18:18:36Z</time>
      </trkpt>
      <trkpt lat="43.87204" lon="6.29945">
        <ele>1361</ele>
        <time>2022-06-09T18:18:46Z</time>
      </trkpt>
      <trkpt lat="43.87159" lon="6.29967">
        <ele>1363</ele>
        <time>2022-06-09T18:18:58Z</time>
      </trkpt>
      <trkpt lat="43.87142" lon="6.2997">
        <ele>1362</ele>
        <time>2022-06-09T18:19:02Z</time>
      </trkpt>
      <trkpt lat="43.8713" lon="6.29978">
        <ele>1363</ele>
        <time>2022-06-09T18:19:05Z</time>
      </trkpt>
      <trkpt lat="43.87124" lon="6.29988">
        <ele>1364</ele>
        <time>2022-06-09T18:19:07Z</time>
      </trkpt>
      <trkpt lat="43.8711" lon="6.29998">
        <ele>1364</ele>
        <time>2022-06-09T18:19:11Z</time>
      </trkpt>
      <trkpt lat="43.87102" lon="6.30009">
        <ele>1365</ele>
        <time>2022-06-09T18:19:13Z</time>
      </trkpt>
      <trkpt lat="43.87097" lon="6.30024">
        <ele>1367</ele>
        <time>2022-06-09T18:19:16Z</time>
      </trkpt>
      <trkpt lat="43.87099" lon="6.30059">
        <ele>1373</ele>
        <time>2022-06-09T18:19:22Z</time>
      </trkpt>
      <trkpt lat="43.87102" lon="6.30071">
        <ele>1375</ele>
        <time>2022-06-09T18:19:24Z</time>
      </trkpt>
      <trkpt lat="43.871" lon="6.30075">
        <ele>1375</ele>
        <time>2022-06-09T18:19:25Z</time>
      </trkpt>
      <trkpt lat="43.87101" lon="6.30091">
        <ele>1379</ele>
        <time>2022-06-09T18:19:28Z</time>
      </trkpt>
      <trkpt lat="43.87107" lon="6.30122">
        <ele>1388</ele>
        <time>2022-06-09T18:19:33Z</time>
      </trkpt>
      <trkpt lat="43.87107" lon="6.30149">
        <ele>1394</ele>
        <time>2022-06-09T18:19:38Z</time>
      </trkpt>
      <trkpt lat="43.87102" lon="6.30158">
        <ele>1396</ele>
        <time>2022-06-09T18:19:39Z</time>
      </trkpt>
      <trkpt lat="43.87091" lon="6.30158">
        <ele>1395</ele>
        <time>2022-06-09T18:19:42Z</time>
      </trkpt>
      <trkpt lat="43.87074" lon="6.30146">
        <ele>1391</ele>
        <time>2022-06-09T18:19:46Z</time>
      </trkpt>
      <trkpt lat="43.87061" lon="6.30147">
        <ele>1391</ele>
        <time>2022-06-09T18:19:49Z</time>
      </trkpt>
      <trkpt lat="43.87051" lon="6.30151">
        <ele>1393</ele>
        <time>2022-06-09T18:19:52Z</time>
      </trkpt>
      <trkpt lat="43.86999" lon="6.30152">
        <ele>1394</ele>
        <time>2022-06-09T18:20:04Z</time>
      </trkpt>
      <trkpt lat="43.8696" lon="6.30144">
        <ele>1393</ele>
        <time>2022-06-09T18:20:13Z</time>
      </trkpt>
      <trkpt lat="43.86937" lon="6.30158">
        <ele>1397</ele>
        <time>2022-06-09T18:20:19Z</time>
      </trkpt>
      <trkpt lat="43.86933" lon="6.30169">
        <ele>1400</ele>
        <time>2022-06-09T18:20:21Z</time>
      </trkpt>
      <trkpt lat="43.86937" lon="6.30172">
        <ele>1401</ele>
        <time>2022-06-09T18:20:22Z</time>
      </trkpt>
      <trkpt lat="43.86955" lon="6.30176">
        <ele>1402</ele>
        <time>2022-06-09T18:20:27Z</time>
      </trkpt>
      <trkpt lat="43.86984" lon="6.30195">
        <ele>1408</ele>
        <time>2022-06-09T18:20:34Z</time>
      </trkpt>
      <trkpt lat="43.87006" lon="6.30216">
        <ele>1415</ele>
        <time>2022-06-09T18:20:40Z</time>
      </trkpt>
      <trkpt lat="43.87008" lon="6.30222">
        <ele>1417</ele>
        <time>2022-06-09T18:20:41Z</time>
      </trkpt>
      <trkpt lat="43.86983" lon="6.30221">
        <ele>1417</ele>
        <time>2022-06-09T18:20:47Z</time>
      </trkpt>
      <trkpt lat="43.86954" lon="6.30241">
        <ele>1422</ele>
        <time>2022-06-09T18:20:55Z</time>
      </trkpt>
      <trkpt lat="43.86947" lon="6.30255">
        <ele>1425</ele>
        <time>2022-06-09T18:20:58Z</time>
      </trkpt>
      <trkpt lat="43.86934" lon="6.30264">
        <ele>1427</ele>
        <time>2022-06-09T18:21:01Z</time>
      </trkpt>
      <trkpt lat="43.86891" lon="6.30276">
        <ele>1429</ele>
        <time>2022-06-09T18:21:11Z</time>
      </trkpt>
      <trkpt lat="43.86878" lon="6.30288">
        <ele>1432</ele>
        <time>2022-06-09T18:21:15Z</time>
      </trkpt>
      <trkpt lat="43.86855" lon="6.30333">
        <ele>1442</ele>
        <time>2022-06-09T18:21:24Z</time>
      </trkpt>
      <trkpt lat="43.86846" lon="6.30344">
        <ele>1444</ele>
        <time>2022-06-09T18:21:27Z</time>
      </trkpt>
      <trkpt lat="43.86833" lon="6.30353">
        <ele>1445</ele>
        <time>2022-06-09T18:21:30Z</time>
      </trkpt>
      <trkpt lat="43.86813" lon="6.30355">
        <ele>1444</ele>
        <time>2022-06-09T18:21:35Z</time>
      </trkpt>
      <trkpt lat="43.86805" lon="6.30361">
        <ele>1445</ele>
        <time>2022-06-09T18:21:37Z</time>
      </trkpt>
      <trkpt lat="43.86802" lon="6.30373">
        <ele>1448</ele>
        <time>2022-06-09T18:21:39Z</time>
      </trkpt>
      <trkpt lat="43.86803" lon="6.30369">
        <ele>1447</ele>
        <time>2022-06-09T18:21:40Z</time>
      </trkpt>
      <trkpt lat="43.86789" lon="6.30389">
        <ele>1451</ele>
        <time>2022-06-09T18:21:45Z</time>
      </trkpt>
      <trkpt lat="43.86755" lon="6.30421">
        <ele>1456</ele>
        <time>2022-06-09T18:21:54Z</time>
      </trkpt>
      <trkpt lat="43.86709" lon="6.30455">
        <ele>1463</ele>
        <time>2022-06-09T18:22:07Z</time>
      </trkpt>
      <trkpt lat="43.86696" lon="6.30455">
        <ele>1462</ele>
        <time>2022-06-09T18:22:10Z</time>
      </trkpt>
      <trkpt lat="43.86675" lon="6.30449">
        <ele>1460</ele>
        <time>2022-06-09T18:22:15Z</time>
      </trkpt>
      <trkpt lat="43.86663" lon="6.30458">
        <ele>1461</ele>
        <time>2022-06-09T18:22:18Z</time>
      </trkpt>
      <trkpt lat="43.86655" lon="6.30471">
        <ele>1462</ele>
        <time>2022-06-09T18:22:21Z</time>
      </trkpt>
      <trkpt lat="43.86642" lon="6.30485">
        <ele>1462</ele>
        <time>2022-06-09T18:22:24Z</time>
      </trkpt>
      <trkpt lat="43.8663" lon="6.3049">
        <ele>1461</ele>
        <time>2022-06-09T18:22:27Z</time>
      </trkpt>
      <trkpt lat="43.86621" lon="6.30497">
        <ele>1460</ele>
        <time>2022-06-09T18:22:30Z</time>
      </trkpt>
      <trkpt lat="43.86605" lon="6.30538">
        <ele>1466</ele>
        <time>2022-06-09T18:22:38Z</time>
      </trkpt>
      <trkpt lat="43.86604" lon="6.30553">
        <ele>1469</ele>
        <time>2022-06-09T18:22:40Z</time>
      </trkpt>
      <trkpt lat="43.86607" lon="6.30579">
        <ele>1475</ele>
        <time>2022-06-09T18:22:45Z</time>
      </trkpt>
      <trkpt lat="43.86603" lon="6.30596">
        <ele>1479</ele>
        <time>2022-06-09T18:22:48Z</time>
      </trkpt>
      <trkpt lat="43.86599" lon="6.30603">
        <ele>1480</ele>
        <time>2022-06-09T18:22:49Z</time>
      </trkpt>
      <trkpt lat="43.86587" lon="6.30617">
        <ele>1482</ele>
        <time>2022-06-09T18:22:53Z</time>
      </trkpt>
      <trkpt lat="43.86541" lon="6.3065">
        <ele>1488</ele>
        <time>2022-06-09T18:23:05Z</time>
      </trkpt>
      <trkpt lat="43.86531" lon="6.30655">
        <ele>1489</ele>
        <time>2022-06-09T18:23:07Z</time>
      </trkpt>
      <trkpt lat="43.86512" lon="6.30654">
        <ele>1487</ele>
        <time>2022-06-09T18:23:12Z</time>
      </trkpt>
      <trkpt lat="43.86504" lon="6.30657">
        <ele>1488</ele>
        <time>2022-06-09T18:23:14Z</time>
      </trkpt>
      <trkpt lat="43.86499" lon="6.30665">
        <ele>1489</ele>
        <time>2022-06-09T18:23:16Z</time>
      </trkpt>
      <trkpt lat="43.86497" lon="6.30691">
        <ele>1496</ele>
        <time>2022-06-09T18:23:20Z</time>
      </trkpt>
      <trkpt lat="43.86491" lon="6.30714">
        <ele>1501</ele>
        <time>2022-06-09T18:23:24Z</time>
      </trkpt>
      <trkpt lat="43.86477" lon="6.30726">
        <ele>1502</ele>
        <time>2022-06-09T18:23:28Z</time>
      </trkpt>
      <trkpt lat="43.86451" lon="6.30732">
        <ele>1500</ele>
        <time>2022-06-09T18:23:34Z</time>
      </trkpt>
      <trkpt lat="43.86441" lon="6.30741">
        <ele>1501</ele>
        <time>2022-06-09T18:23:37Z</time>
      </trkpt>
      <trkpt lat="43.8642" lon="6.30748">
        <ele>1499</ele>
        <time>2022-06-09T18:23:42Z</time>
      </trkpt>
      <trkpt lat="43.86411" lon="6.30757">
        <ele>1501</ele>
        <time>2022-06-09T18:23:44Z</time>
      </trkpt>
      <trkpt lat="43.86396" lon="6.30764">
        <ele>1503</ele>
        <time>2022-06-09T18:23:48Z</time>
      </trkpt>
      <trkpt lat="43.86324" lon="6.30765">
        <ele>1502</ele>
        <time>2022-06-09T18:24:05Z</time>
      </trkpt>
      <trkpt lat="43.863" lon="6.30777">
        <ele>1501</ele>
        <time>2022-06-09T18:24:11Z</time>
      </trkpt>
      <trkpt lat="43.86274" lon="6.30796">
        <ele>1501</ele>
        <time>2022-06-09T18:24:18Z</time>
      </trkpt>
      <trkpt lat="43.86264" lon="6.30806">
        <ele>1501</ele>
        <time>2022-06-09T18:24:21Z</time>
      </trkpt>
      <trkpt lat="43.86264" lon="6.30812">
        <ele>1502</ele>
        <time>2022-06-09T18:24:22Z</time>
      </trkpt>
      <trkpt lat="43.86266" lon="6.30813">
        <ele>1502</ele>
        <time>2022-06-09T18:24:22Z</time>
      </trkpt>
      <trkpt lat="43.86262" lon="6.3081">
        <ele>1501</ele>
        <time>2022-06-09T18:24:23Z</time>
      </trkpt>
      <trkpt lat="43.86267" lon="6.30813">
        <ele>1503</ele>
        <time>2022-06-09T18:24:25Z</time>
      </trkpt>
      <trkpt lat="43.86265" lon="6.30811">
        <ele>1502</ele>
        <time>2022-06-09T18:24:25Z</time>
      </trkpt>
      <trkpt lat="43.8626" lon="6.30817">
        <ele>1502</ele>
        <time>2022-06-09T18:24:27Z</time>
      </trkpt>
      <trkpt lat="43.86231" lon="6.30872">
        <ele>1505</ele>
        <time>2022-06-09T18:24:38Z</time>
      </trkpt>
      <trkpt lat="43.86196" lon="6.30905">
        <ele>1504</ele>
        <time>2022-06-09T18:24:48Z</time>
      </trkpt>
      <trkpt lat="43.8618" lon="6.30915">
        <ele>1502</ele>
        <time>2022-06-09T18:24:52Z</time>
      </trkpt>
      <trkpt lat="43.86164" lon="6.3093">
        <ele>1501</ele>
        <time>2022-06-09T18:24:57Z</time>
      </trkpt>
      <trkpt lat="43.86126" lon="6.30972">
        <ele>1503</ele>
        <time>2022-06-09T18:25:08Z</time>
      </trkpt>
      <trkpt lat="43.86106" lon="6.3098">
        <ele>1503</ele>
        <time>2022-06-09T18:25:13Z</time>
      </trkpt>
      <trkpt lat="43.86071" lon="6.30987">
        <ele>1502</ele>
        <time>2022-06-09T18:25:21Z</time>
      </trkpt>
      <trkpt lat="43.85997" lon="6.31026">
        <ele>1508</ele>
        <time>2022-06-09T18:25:40Z</time>
      </trkpt>
      <trkpt lat="43.85946" lon="6.31038">
        <ele>1499</ele>
        <time>2022-06-09T18:25:52Z</time>
      </trkpt>
      <trkpt lat="43.85923" lon="6.31055">
        <ele>1497</ele>
        <time>2022-06-09T18:25:58Z</time>
      </trkpt>
      <trkpt lat="43.85911" lon="6.31072">
        <ele>1497</ele>
        <time>2022-06-09T18:26:02Z</time>
      </trkpt>
      <trkpt lat="43.85906" lon="6.31088">
        <ele>1499</ele>
        <time>2022-06-09T18:26:05Z</time>
      </trkpt>
      <trkpt lat="43.85907" lon="6.31158">
        <ele>1506</ele>
        <time>2022-06-09T18:26:16Z</time>
      </trkpt>
      <trkpt lat="43.85888" lon="6.31213">
        <ele>1503</ele>
        <time>2022-06-09T18:26:27Z</time>
      </trkpt>
      <trkpt lat="43.85881" lon="6.31244">
        <ele>1502</ele>
        <time>2022-06-09T18:26:32Z</time>
      </trkpt>
      <trkpt lat="43.85878" lon="6.31293">
        <ele>1505</ele>
        <time>2022-06-09T18:26:40Z</time>
      </trkpt>
      <trkpt lat="43.85875" lon="6.31301">
        <ele>1505</ele>
        <time>2022-06-09T18:26:42Z</time>
      </trkpt>
      <trkpt lat="43.85866" lon="6.31312">
        <ele>1502</ele>
        <time>2022-06-09T18:26:45Z</time>
      </trkpt>
      <trkpt lat="43.85828" lon="6.31406">
        <ele>1495</ele>
        <time>2022-06-09T18:27:03Z</time>
      </trkpt>
      <trkpt lat="43.85829" lon="6.31433">
        <ele>1498</ele>
        <time>2022-06-09T18:27:07Z</time>
      </trkpt>
      <trkpt lat="43.85813" lon="6.31535">
        <ele>1503</ele>
        <time>2022-06-09T18:27:25Z</time>
      </trkpt>
      <trkpt lat="43.85787" lon="6.316">
        <ele>1500</ele>
        <time>2022-06-09T18:27:38Z</time>
      </trkpt>
      <trkpt lat="43.85776" lon="6.31652">
        <ele>1503</ele>
        <time>2022-06-09T18:27:47Z</time>
      </trkpt>
      <trkpt lat="43.85767" lon="6.3168">
        <ele>1503</ele>
        <time>2022-06-09T18:27:52Z</time>
      </trkpt>
      <trkpt lat="43.85767" lon="6.31701">
        <ele>1506</ele>
        <time>2022-06-09T18:27:55Z</time>
      </trkpt>
      <trkpt lat="43.85763" lon="6.31725">
        <ele>1508</ele>
        <time>2022-06-09T18:28:00Z</time>
      </trkpt>
      <trkpt lat="43.85743" lon="6.31759">
        <ele>1504</ele>
        <time>2022-06-09T18:28:07Z</time>
      </trkpt>
      <trkpt lat="43.85738" lon="6.31811">
        <ele>1506</ele>
        <time>2022-06-09T18:28:16Z</time>
      </trkpt>
      <trkpt lat="43.85733" lon="6.31829">
        <ele>1505</ele>
        <time>2022-06-09T18:28:19Z</time>
      </trkpt>
      <trkpt lat="43.85729" lon="6.31861">
        <ele>1503</ele>
        <time>2022-06-09T18:28:25Z</time>
      </trkpt>
      <trkpt lat="43.85737" lon="6.31883">
        <ele>1506</ele>
        <time>2022-06-09T18:28:29Z</time>
      </trkpt>
      <trkpt lat="43.85754" lon="6.31901">
        <ele>1511</ele>
        <time>2022-06-09T18:28:34Z</time>
      </trkpt>
      <trkpt lat="43.85769" lon="6.31924">
        <ele>1517</ele>
        <time>2022-06-09T18:28:39Z</time>
      </trkpt>
      <trkpt lat="43.85777" lon="6.31959">
        <ele>1519</ele>
        <time>2022-06-09T18:28:45Z</time>
      </trkpt>
      <trkpt lat="43.85775" lon="6.31984">
        <ele>1518</ele>
        <time>2022-06-09T18:28:49Z</time>
      </trkpt>
      <trkpt lat="43.8578" lon="6.32006">
        <ele>1519</ele>
        <time>2022-06-09T18:28:53Z</time>
      </trkpt>
      <trkpt lat="43.85796" lon="6.3203">
        <ele>1524</ele>
        <time>2022-06-09T18:28:59Z</time>
      </trkpt>
      <trkpt lat="43.85809" lon="6.32075">
        <ele>1527</ele>
        <time>2022-06-09T18:29:07Z</time>
      </trkpt>
      <trkpt lat="43.85827" lon="6.32113">
        <ele>1531</ele>
        <time>2022-06-09T18:29:14Z</time>
      </trkpt>
      <trkpt lat="43.85834" lon="6.3214">
        <ele>1530</ele>
        <time>2022-06-09T18:29:19Z</time>
      </trkpt>
      <trkpt lat="43.8584" lon="6.32191">
        <ele>1526</ele>
        <time>2022-06-09T18:29:28Z</time>
      </trkpt>
      <trkpt lat="43.8584" lon="6.32217">
        <ele>1524</ele>
        <time>2022-06-09T18:29:32Z</time>
      </trkpt>
      <trkpt lat="43.85847" lon="6.32244">
        <ele>1524</ele>
        <time>2022-06-09T18:29:37Z</time>
      </trkpt>
      <trkpt lat="43.85887" lon="6.32311">
        <ele>1535</ele>
        <time>2022-06-09T18:29:52Z</time>
      </trkpt>
      <trkpt lat="43.85895" lon="6.32317">
        <ele>1537</ele>
        <time>2022-06-09T18:29:54Z</time>
      </trkpt>
      <trkpt lat="43.85897" lon="6.32316">
        <ele>1538</ele>
        <time>2022-06-09T18:29:55Z</time>
      </trkpt>
      <trkpt lat="43.85898" lon="6.32308">
        <ele>1539</ele>
        <time>2022-06-09T18:29:56Z</time>
      </trkpt>
      <trkpt lat="43.85885" lon="6.32282">
        <ele>1538</ele>
        <time>2022-06-09T18:30:01Z</time>
      </trkpt>
      <trkpt lat="43.85876" lon="6.32252">
        <ele>1536</ele>
        <time>2022-06-09T18:30:07Z</time>
      </trkpt>
      <trkpt lat="43.85869" lon="6.32199">
        <ele>1541</ele>
        <time>2022-06-09T18:30:16Z</time>
      </trkpt>
      <trkpt lat="43.85876" lon="6.32191">
        <ele>1546</ele>
        <time>2022-06-09T18:30:18Z</time>
      </trkpt>
      <trkpt lat="43.85881" lon="6.32196">
        <ele>1548</ele>
        <time>2022-06-09T18:30:19Z</time>
      </trkpt>
      <trkpt lat="43.85895" lon="6.32231">
        <ele>1549</ele>
        <time>2022-06-09T18:30:26Z</time>
      </trkpt>
      <trkpt lat="43.85899" lon="6.32232">
        <ele>1551</ele>
        <time>2022-06-09T18:30:27Z</time>
      </trkpt>
      <trkpt lat="43.85926" lon="6.32265">
        <ele>1556</ele>
        <time>2022-06-09T18:30:35Z</time>
      </trkpt>
      <trkpt lat="43.85965" lon="6.32295">
        <ele>1562</ele>
        <time>2022-06-09T18:30:46Z</time>
      </trkpt>
      <trkpt lat="43.86045" lon="6.3237">
        <ele>1570</ele>
        <time>2022-06-09T18:31:08Z</time>
      </trkpt>
      <trkpt lat="43.86065" lon="6.32386">
        <ele>1573</ele>
        <time>2022-06-09T18:31:14Z</time>
      </trkpt>
      <trkpt lat="43.86079" lon="6.32394">
        <ele>1575</ele>
        <time>2022-06-09T18:31:17Z</time>
      </trkpt>
      <trkpt lat="43.86085" lon="6.32395">
        <ele>1576</ele>
        <time>2022-06-09T18:31:19Z</time>
      </trkpt>
      <trkpt lat="43.86122" lon="6.32415">
        <ele>1580</ele>
        <time>2022-06-09T18:31:28Z</time>
      </trkpt>
      <trkpt lat="43.86125" lon="6.3241">
        <ele>1581</ele>
        <time>2022-06-09T18:31:29Z</time>
      </trkpt>
      <trkpt lat="43.86121" lon="6.32394">
        <ele>1583</ele>
        <time>2022-06-09T18:31:32Z</time>
      </trkpt>
      <trkpt lat="43.86087" lon="6.32349">
        <ele>1584</ele>
        <time>2022-06-09T18:31:43Z</time>
      </trkpt>
      <trkpt lat="43.86081" lon="6.32332">
        <ele>1586</ele>
        <time>2022-06-09T18:31:46Z</time>
      </trkpt>
      <trkpt lat="43.86088" lon="6.32326">
        <ele>1590</ele>
        <time>2022-06-09T18:31:48Z</time>
      </trkpt>
      <trkpt lat="43.86113" lon="6.32345">
        <ele>1590</ele>
        <time>2022-06-09T18:31:55Z</time>
      </trkpt>
      <trkpt lat="43.86146" lon="6.32362">
        <ele>1594</ele>
        <time>2022-06-09T18:32:03Z</time>
      </trkpt>
      <trkpt lat="43.86205" lon="6.32382">
        <ele>1602</ele>
        <time>2022-06-09T18:32:17Z</time>
      </trkpt>
      <trkpt lat="43.86252" lon="6.32392">
        <ele>1609</ele>
        <time>2022-06-09T18:32:28Z</time>
      </trkpt>
      <trkpt lat="43.86287" lon="6.32411">
        <ele>1611</ele>
        <time>2022-06-09T18:32:37Z</time>
      </trkpt>
      <trkpt lat="43.86291" lon="6.32409">
        <ele>1612</ele>
        <time>2022-06-09T18:32:38Z</time>
      </trkpt>
      <trkpt lat="43.86292" lon="6.32403">
        <ele>1613</ele>
        <time>2022-06-09T18:32:39Z</time>
      </trkpt>
      <trkpt lat="43.8627" lon="6.32364">
        <ele>1617</ele>
        <time>2022-06-09T18:32:47Z</time>
      </trkpt>
      <trkpt lat="43.86259" lon="6.32348">
        <ele>1619</ele>
        <time>2022-06-09T18:32:51Z</time>
      </trkpt>
      <trkpt lat="43.86246" lon="6.32335">
        <ele>1620</ele>
        <time>2022-06-09T18:32:55Z</time>
      </trkpt>
      <trkpt lat="43.86227" lon="6.32322">
        <ele>1620</ele>
        <time>2022-06-09T18:33:00Z</time>
      </trkpt>
      <trkpt lat="43.8622" lon="6.32312">
        <ele>1623</ele>
        <time>2022-06-09T18:33:02Z</time>
      </trkpt>
      <trkpt lat="43.86221" lon="6.32309">
        <ele>1624</ele>
        <time>2022-06-09T18:33:03Z</time>
      </trkpt>
      <trkpt lat="43.86227" lon="6.32306">
        <ele>1626</ele>
        <time>2022-06-09T18:33:04Z</time>
      </trkpt>
      <trkpt lat="43.86344" lon="6.32308">
        <ele>1635</ele>
        <time>2022-06-09T18:33:31Z</time>
      </trkpt>
      <trkpt lat="43.86389" lon="6.32295">
        <ele>1637</ele>
        <time>2022-06-09T18:33:42Z</time>
      </trkpt>
      <trkpt lat="43.86414" lon="6.32281">
        <ele>1640</ele>
        <time>2022-06-09T18:33:48Z</time>
      </trkpt>
      <trkpt lat="43.86422" lon="6.32273">
        <ele>1642</ele>
        <time>2022-06-09T18:33:51Z</time>
      </trkpt>
      <trkpt lat="43.86414" lon="6.32287">
        <ele>1639</ele>
        <time>2022-06-09T18:33:54Z</time>
      </trkpt>
      <trkpt lat="43.8641" lon="6.3239">
        <ele>1615</ele>
        <time>2022-06-09T18:34:11Z</time>
      </trkpt>
      <trkpt lat="43.86394" lon="6.32426">
        <ele>1610</ele>
        <time>2022-06-09T18:34:18Z</time>
      </trkpt>
      <trkpt lat="43.86353" lon="6.3249">
        <ele>1607</ele>
        <time>2022-06-09T18:34:33Z</time>
      </trkpt>
      <trkpt lat="43.86323" lon="6.32522">
        <ele>1607</ele>
        <time>2022-06-09T18:34:42Z</time>
      </trkpt>
      <trkpt lat="43.86324" lon="6.32519">
        <ele>1607</ele>
        <time>2022-06-09T18:34:42Z</time>
      </trkpt>
      <trkpt lat="43.86324" lon="6.32525">
        <ele>1606</ele>
        <time>2022-06-09T18:34:43Z</time>
      </trkpt>
      <trkpt lat="43.86314" lon="6.32542">
        <ele>1604</ele>
        <time>2022-06-09T18:34:47Z</time>
      </trkpt>
      <trkpt lat="43.86298" lon="6.32556">
        <ele>1603</ele>
        <time>2022-06-09T18:34:51Z</time>
      </trkpt>
      <trkpt lat="43.86299" lon="6.3256">
        <ele>1603</ele>
        <time>2022-06-09T18:34:52Z</time>
      </trkpt>
      <trkpt lat="43.86314" lon="6.32568">
        <ele>1601</ele>
        <time>2022-06-09T18:34:56Z</time>
      </trkpt>
      <trkpt lat="43.86324" lon="6.32564">
        <ele>1601</ele>
        <time>2022-06-09T18:34:58Z</time>
      </trkpt>
      <trkpt lat="43.86326" lon="6.32561">
        <ele>1601</ele>
        <time>2022-06-09T18:34:59Z</time>
      </trkpt>
      <trkpt lat="43.86326" lon="6.32576">
        <ele>1599</ele>
        <time>2022-06-09T18:35:01Z</time>
      </trkpt>
      <trkpt lat="43.86342" lon="6.32568">
        <ele>1597</ele>
        <time>2022-06-09T18:35:05Z</time>
      </trkpt>
      <trkpt lat="43.86338" lon="6.32584">
        <ele>1595</ele>
        <time>2022-06-09T18:35:08Z</time>
      </trkpt>
      <trkpt lat="43.86338" lon="6.32594">
        <ele>1594</ele>
        <time>2022-06-09T18:35:10Z</time>
      </trkpt>
      <trkpt lat="43.86342" lon="6.32591">
        <ele>1593</ele>
        <time>2022-06-09T18:35:11Z</time>
      </trkpt>
      <trkpt lat="43.86343" lon="6.32587">
        <ele>1593</ele>
        <time>2022-06-09T18:35:12Z</time>
      </trkpt>
      <trkpt lat="43.8635" lon="6.32584">
        <ele>1591</ele>
        <time>2022-06-09T18:35:13Z</time>
      </trkpt>
      <trkpt lat="43.86365" lon="6.32568">
        <ele>1589</ele>
        <time>2022-06-09T18:35:18Z</time>
      </trkpt>
      <trkpt lat="43.86427" lon="6.32533">
        <ele>1575</ele>
        <time>2022-06-09T18:35:33Z</time>
      </trkpt>
      <trkpt lat="43.86428" lon="6.32538">
        <ele>1574</ele>
        <time>2022-06-09T18:35:34Z</time>
      </trkpt>
      <trkpt lat="43.86424" lon="6.32553">
        <ele>1572</ele>
        <time>2022-06-09T18:35:37Z</time>
      </trkpt>
      <trkpt lat="43.86435" lon="6.32554">
        <ele>1567</ele>
        <time>2022-06-09T18:35:40Z</time>
      </trkpt>
      <trkpt lat="43.86439" lon="6.32561">
        <ele>1564</ele>
        <time>2022-06-09T18:35:41Z</time>
      </trkpt>
      <trkpt lat="43.86458" lon="6.32525">
        <ele>1564</ele>
        <time>2022-06-09T18:35:49Z</time>
      </trkpt>
      <trkpt lat="43.86489" lon="6.32508">
        <ele>1556</ele>
        <time>2022-06-09T18:35:56Z</time>
      </trkpt>
      <trkpt lat="43.8652" lon="6.32495">
        <ele>1550</ele>
        <time>2022-06-09T18:36:04Z</time>
      </trkpt>
      <trkpt lat="43.86535" lon="6.32484">
        <ele>1550</ele>
        <time>2022-06-09T18:36:08Z</time>
      </trkpt>
      <trkpt lat="43.86549" lon="6.3248">
        <ele>1549</ele>
        <time>2022-06-09T18:36:11Z</time>
      </trkpt>
      <trkpt lat="43.86584" lon="6.3248">
        <ele>1542</ele>
        <time>2022-06-09T18:36:19Z</time>
      </trkpt>
      <trkpt lat="43.86589" lon="6.32482">
        <ele>1541</ele>
        <time>2022-06-09T18:36:21Z</time>
      </trkpt>
      <trkpt lat="43.86608" lon="6.32496">
        <ele>1537</ele>
        <time>2022-06-09T18:36:26Z</time>
      </trkpt>
      <trkpt lat="43.86606" lon="6.32497">
        <ele>1537</ele>
        <time>2022-06-09T18:36:26Z</time>
      </trkpt>
      <trkpt lat="43.86609" lon="6.32501">
        <ele>1535</ele>
        <time>2022-06-09T18:36:27Z</time>
      </trkpt>
      <trkpt lat="43.86624" lon="6.32512">
        <ele>1532</ele>
        <time>2022-06-09T18:36:31Z</time>
      </trkpt>
      <trkpt lat="43.86638" lon="6.32516">
        <ele>1531</ele>
        <time>2022-06-09T18:36:34Z</time>
      </trkpt>
      <trkpt lat="43.86702" lon="6.32508">
        <ele>1527</ele>
        <time>2022-06-09T18:36:49Z</time>
      </trkpt>
      <trkpt lat="43.86734" lon="6.32488">
        <ele>1530</ele>
        <time>2022-06-09T18:36:58Z</time>
      </trkpt>
      <trkpt lat="43.86746" lon="6.32489">
        <ele>1528</ele>
        <time>2022-06-09T18:37:00Z</time>
      </trkpt>
      <trkpt lat="43.86772" lon="6.32497">
        <ele>1524</ele>
        <time>2022-06-09T18:37:07Z</time>
      </trkpt>
      <trkpt lat="43.86819" lon="6.32527">
        <ele>1514</ele>
        <time>2022-06-09T18:37:19Z</time>
      </trkpt>
      <trkpt lat="43.86841" lon="6.32538">
        <ele>1510</ele>
        <time>2022-06-09T18:37:24Z</time>
      </trkpt>
      <trkpt lat="43.86851" lon="6.32549">
        <ele>1505</ele>
        <time>2022-06-09T18:37:27Z</time>
      </trkpt>
      <trkpt lat="43.86899" lon="6.32542">
        <ele>1504</ele>
        <time>2022-06-09T18:37:38Z</time>
      </trkpt>
      <trkpt lat="43.86944" lon="6.32545">
        <ele>1498</ele>
        <time>2022-06-09T18:37:49Z</time>
      </trkpt>
      <trkpt lat="43.86957" lon="6.32542">
        <ele>1498</ele>
        <time>2022-06-09T18:37:52Z</time>
      </trkpt>
      <trkpt lat="43.86976" lon="6.32547">
        <ele>1494</ele>
        <time>2022-06-09T18:37:56Z</time>
      </trkpt>
      <trkpt lat="43.87001" lon="6.32547">
        <ele>1491</ele>
        <time>2022-06-09T18:38:02Z</time>
      </trkpt>
      <trkpt lat="43.87026" lon="6.32536">
        <ele>1489</ele>
        <time>2022-06-09T18:38:08Z</time>
      </trkpt>
      <trkpt lat="43.87042" lon="6.32537">
        <ele>1485</ele>
        <time>2022-06-09T18:38:12Z</time>
      </trkpt>
      <trkpt lat="43.87051" lon="6.32535">
        <ele>1484</ele>
        <time>2022-06-09T18:38:14Z</time>
      </trkpt>
      <trkpt lat="43.87096" lon="6.32519">
        <ele>1478</ele>
        <time>2022-06-09T18:38:25Z</time>
      </trkpt>
      <trkpt lat="43.87118" lon="6.32503">
        <ele>1478</ele>
        <time>2022-06-09T18:38:31Z</time>
      </trkpt>
      <trkpt lat="43.87138" lon="6.32532">
        <ele>1469</ele>
        <time>2022-06-09T18:38:38Z</time>
      </trkpt>
      <trkpt lat="43.87151" lon="6.32532">
        <ele>1467</ele>
        <time>2022-06-09T18:38:41Z</time>
      </trkpt>
      <trkpt lat="43.87162" lon="6.32538">
        <ele>1464</ele>
        <time>2022-06-09T18:38:44Z</time>
      </trkpt>
      <trkpt lat="43.8717" lon="6.32537">
        <ele>1463</ele>
        <time>2022-06-09T18:38:45Z</time>
      </trkpt>
      <trkpt lat="43.87183" lon="6.32531">
        <ele>1463</ele>
        <time>2022-06-09T18:38:49Z</time>
      </trkpt>
      <trkpt lat="43.87232" lon="6.32547">
        <ele>1455</ele>
        <time>2022-06-09T18:39:00Z</time>
      </trkpt>
      <trkpt lat="43.87243" lon="6.32538">
        <ele>1455</ele>
        <time>2022-06-09T18:39:03Z</time>
      </trkpt>
      <trkpt lat="43.87251" lon="6.32527">
        <ele>1457</ele>
        <time>2022-06-09T18:39:06Z</time>
      </trkpt>
      <trkpt lat="43.8729" lon="6.32488">
        <ele>1456</ele>
        <time>2022-06-09T18:39:17Z</time>
      </trkpt>
      <trkpt lat="43.87322" lon="6.32478">
        <ele>1451</ele>
        <time>2022-06-09T18:39:25Z</time>
      </trkpt>
      <trkpt lat="43.87332" lon="6.32471">
        <ele>1450</ele>
        <time>2022-06-09T18:39:27Z</time>
      </trkpt>
      <trkpt lat="43.87342" lon="6.3247">
        <ele>1449</ele>
        <time>2022-06-09T18:39:30Z</time>
      </trkpt>
      <trkpt lat="43.87356" lon="6.32459">
        <ele>1450</ele>
        <time>2022-06-09T18:39:34Z</time>
      </trkpt>
      <trkpt lat="43.87379" lon="6.32466">
        <ele>1447</ele>
        <time>2022-06-09T18:39:39Z</time>
      </trkpt>
      <trkpt lat="43.87392" lon="6.32467">
        <ele>1445</ele>
        <time>2022-06-09T18:39:42Z</time>
      </trkpt>
      <trkpt lat="43.87403" lon="6.32462">
        <ele>1445</ele>
        <time>2022-06-09T18:39:45Z</time>
      </trkpt>
      <trkpt lat="43.87415" lon="6.32463">
        <ele>1444</ele>
        <time>2022-06-09T18:39:48Z</time>
      </trkpt>
      <trkpt lat="43.87427" lon="6.3246">
        <ele>1443</ele>
        <time>2022-06-09T18:39:50Z</time>
      </trkpt>
      <trkpt lat="43.87445" lon="6.32444">
        <ele>1444</ele>
        <time>2022-06-09T18:39:55Z</time>
      </trkpt>
      <trkpt lat="43.87457" lon="6.32437">
        <ele>1444</ele>
        <time>2022-06-09T18:39:58Z</time>
      </trkpt>
      <trkpt lat="43.87474" lon="6.32413">
        <ele>1447</ele>
        <time>2022-06-09T18:40:04Z</time>
      </trkpt>
      <trkpt lat="43.87512" lon="6.3238">
        <ele>1451</ele>
        <time>2022-06-09T18:40:15Z</time>
      </trkpt>
      <trkpt lat="43.87526" lon="6.32389">
        <ele>1448</ele>
        <time>2022-06-09T18:40:18Z</time>
      </trkpt>
      <trkpt lat="43.87557" lon="6.32385">
        <ele>1448</ele>
        <time>2022-06-09T18:40:26Z</time>
      </trkpt>
      <trkpt lat="43.87571" lon="6.32392">
        <ele>1445</ele>
        <time>2022-06-09T18:40:29Z</time>
      </trkpt>
      <trkpt lat="43.87598" lon="6.32394">
        <ele>1445</ele>
        <time>2022-06-09T18:40:35Z</time>
      </trkpt>
      <trkpt lat="43.87613" lon="6.32398">
        <ele>1445</ele>
        <time>2022-06-09T18:40:39Z</time>
      </trkpt>
      <trkpt lat="43.87653" lon="6.32396">
        <ele>1448</ele>
        <time>2022-06-09T18:40:48Z</time>
      </trkpt>
      <trkpt lat="43.87673" lon="6.32389">
        <ele>1450</ele>
        <time>2022-06-09T18:40:53Z</time>
      </trkpt>
      <trkpt lat="43.87694" lon="6.32388">
        <ele>1450</ele>
        <time>2022-06-09T18:40:58Z</time>
      </trkpt>
      <trkpt lat="43.87737" lon="6.32394">
        <ele>1447</ele>
        <time>2022-06-09T18:41:08Z</time>
      </trkpt>
      <trkpt lat="43.87775" lon="6.3241">
        <ele>1445</ele>
        <time>2022-06-09T18:41:17Z</time>
      </trkpt>
      <trkpt lat="43.87782" lon="6.3241">
        <ele>1446</ele>
        <time>2022-06-09T18:41:19Z</time>
      </trkpt>
      <trkpt lat="43.87788" lon="6.32415">
        <ele>1445</ele>
        <time>2022-06-09T18:41:21Z</time>
      </trkpt>
      <trkpt lat="43.87834" lon="6.32423">
        <ele>1448</ele>
        <time>2022-06-09T18:41:31Z</time>
      </trkpt>
      <trkpt lat="43.87844" lon="6.3243">
        <ele>1450</ele>
        <time>2022-06-09T18:41:34Z</time>
      </trkpt>
      <trkpt lat="43.87873" lon="6.32443">
        <ele>1455</ele>
        <time>2022-06-09T18:41:41Z</time>
      </trkpt>
      <trkpt lat="43.87885" lon="6.32457">
        <ele>1455</ele>
        <time>2022-06-09T18:41:45Z</time>
      </trkpt>
      <trkpt lat="43.87896" lon="6.32462">
        <ele>1457</ele>
        <time>2022-06-09T18:41:47Z</time>
      </trkpt>
      <trkpt lat="43.87908" lon="6.32477">
        <ele>1456</ele>
        <time>2022-06-09T18:41:51Z</time>
      </trkpt>
      <trkpt lat="43.8793" lon="6.32516">
        <ele>1456</ele>
        <time>2022-06-09T18:42:00Z</time>
      </trkpt>
      <trkpt lat="43.87942" lon="6.32573">
        <ele>1453</ele>
        <time>2022-06-09T18:42:10Z</time>
      </trkpt>
      <trkpt lat="43.87941" lon="6.32593">
        <ele>1450</ele>
        <time>2022-06-09T18:42:13Z</time>
      </trkpt>
      <trkpt lat="43.87942" lon="6.32596">
        <ele>1450</ele>
        <time>2022-06-09T18:42:14Z</time>
      </trkpt>
      <trkpt lat="43.87951" lon="6.32593">
        <ele>1452</ele>
        <time>2022-06-09T18:42:16Z</time>
      </trkpt>
      <trkpt lat="43.87952" lon="6.32598">
        <ele>1452</ele>
        <time>2022-06-09T18:42:17Z</time>
      </trkpt>
      <trkpt lat="43.87949" lon="6.32611">
        <ele>1450</ele>
        <time>2022-06-09T18:42:19Z</time>
      </trkpt>
      <trkpt lat="43.87956" lon="6.3263">
        <ele>1449</ele>
        <time>2022-06-09T18:42:22Z</time>
      </trkpt>
      <trkpt lat="43.87991" lon="6.3265">
        <ele>1449</ele>
        <time>2022-06-09T18:42:31Z</time>
      </trkpt>
      <trkpt lat="43.88016" lon="6.32655">
        <ele>1450</ele>
        <time>2022-06-09T18:42:37Z</time>
      </trkpt>
      <trkpt lat="43.88027" lon="6.32676">
        <ele>1445</ele>
        <time>2022-06-09T18:42:42Z</time>
      </trkpt>
      <trkpt lat="43.88048" lon="6.327">
        <ele>1440</ele>
        <time>2022-06-09T18:42:48Z</time>
      </trkpt>
      <trkpt lat="43.88055" lon="6.32719">
        <ele>1435</ele>
        <time>2022-06-09T18:42:52Z</time>
      </trkpt>
      <trkpt lat="43.88072" lon="6.32734">
        <ele>1431</ele>
        <time>2022-06-09T18:42:56Z</time>
      </trkpt>
      <trkpt lat="43.8808" lon="6.32758">
        <ele>1425</ele>
        <time>2022-06-09T18:43:01Z</time>
      </trkpt>
      <trkpt lat="43.881" lon="6.32772">
        <ele>1422</ele>
        <time>2022-06-09T18:43:06Z</time>
      </trkpt>
      <trkpt lat="43.88101" lon="6.32828">
        <ele>1411</ele>
        <time>2022-06-09T18:43:15Z</time>
      </trkpt>
      <trkpt lat="43.88104" lon="6.32855">
        <ele>1406</ele>
        <time>2022-06-09T18:43:20Z</time>
      </trkpt>
      <trkpt lat="43.8811" lon="6.32869">
        <ele>1403</ele>
        <time>2022-06-09T18:43:23Z</time>
      </trkpt>
      <trkpt lat="43.8814" lon="6.32883">
        <ele>1402</ele>
        <time>2022-06-09T18:43:30Z</time>
      </trkpt>
      <trkpt lat="43.88186" lon="6.32909">
        <ele>1396</ele>
        <time>2022-06-09T18:43:42Z</time>
      </trkpt>
      <trkpt lat="43.88192" lon="6.32916">
        <ele>1394</ele>
        <time>2022-06-09T18:43:43Z</time>
      </trkpt>
      <trkpt lat="43.88197" lon="6.32928">
        <ele>1391</ele>
        <time>2022-06-09T18:43:46Z</time>
      </trkpt>
      <trkpt lat="43.88195" lon="6.32943">
        <ele>1389</ele>
        <time>2022-06-09T18:43:48Z</time>
      </trkpt>
      <trkpt lat="43.88179" lon="6.32974">
        <ele>1386</ele>
        <time>2022-06-09T18:43:55Z</time>
      </trkpt>
      <trkpt lat="43.88163" lon="6.33026">
        <ele>1379</ele>
        <time>2022-06-09T18:44:04Z</time>
      </trkpt>
      <trkpt lat="43.88108" lon="6.33098">
        <ele>1366</ele>
        <time>2022-06-09T18:44:22Z</time>
      </trkpt>
      <trkpt lat="43.88077" lon="6.33159">
        <ele>1363</ele>
        <time>2022-06-09T18:44:35Z</time>
      </trkpt>
      <trkpt lat="43.88079" lon="6.33157">
        <ele>1363</ele>
        <time>2022-06-09T18:44:35Z</time>
      </trkpt>
      <trkpt lat="43.88079" lon="6.33159">
        <ele>1363</ele>
        <time>2022-06-09T18:44:35Z</time>
      </trkpt>
      <trkpt lat="43.88062" lon="6.33182">
        <ele>1357</ele>
        <time>2022-06-09T18:44:41Z</time>
      </trkpt>
      <trkpt lat="43.8805" lon="6.33207">
        <ele>1351</ele>
        <time>2022-06-09T18:44:46Z</time>
      </trkpt>
      <trkpt lat="43.88045" lon="6.33229">
        <ele>1346</ele>
        <time>2022-06-09T18:44:50Z</time>
      </trkpt>
      <trkpt lat="43.88028" lon="6.33271">
        <ele>1339</ele>
        <time>2022-06-09T18:44:58Z</time>
      </trkpt>
      <trkpt lat="43.88005" lon="6.33295">
        <ele>1336</ele>
        <time>2022-06-09T18:45:05Z</time>
      </trkpt>
      <trkpt lat="43.87996" lon="6.33315">
        <ele>1333</ele>
        <time>2022-06-09T18:45:09Z</time>
      </trkpt>
      <trkpt lat="43.87981" lon="6.33334">
        <ele>1332</ele>
        <time>2022-06-09T18:45:13Z</time>
      </trkpt>
      <trkpt lat="43.87983" lon="6.33351">
        <ele>1329</ele>
        <time>2022-06-09T18:45:16Z</time>
      </trkpt>
      <trkpt lat="43.87992" lon="6.33379">
        <ele>1322</ele>
        <time>2022-06-09T18:45:22Z</time>
      </trkpt>
      <trkpt lat="43.87994" lon="6.33393">
        <ele>1319</ele>
        <time>2022-06-09T18:45:24Z</time>
      </trkpt>
      <trkpt lat="43.87993" lon="6.33412">
        <ele>1316</ele>
        <time>2022-06-09T18:45:27Z</time>
      </trkpt>
      <trkpt lat="43.87997" lon="6.33441">
        <ele>1306</ele>
        <time>2022-06-09T18:45:32Z</time>
      </trkpt>
      <trkpt lat="43.87993" lon="6.33453">
        <ele>1303</ele>
        <time>2022-06-09T18:45:34Z</time>
      </trkpt>
      <trkpt lat="43.87993" lon="6.33463">
        <ele>1300</ele>
        <time>2022-06-09T18:45:36Z</time>
      </trkpt>
      <trkpt lat="43.87997" lon="6.33474">
        <ele>1295</ele>
        <time>2022-06-09T18:45:38Z</time>
      </trkpt>
      <trkpt lat="43.88003" lon="6.33474">
        <ele>1292</ele>
        <time>2022-06-09T18:45:40Z</time>
      </trkpt>
      <trkpt lat="43.88012" lon="6.33497">
        <ele>1281</ele>
        <time>2022-06-09T18:45:44Z</time>
      </trkpt>
      <trkpt lat="43.88001" lon="6.33528">
        <ele>1277</ele>
        <time>2022-06-09T18:45:50Z</time>
      </trkpt>
      <trkpt lat="43.87979" lon="6.33544">
        <ele>1281</ele>
        <time>2022-06-09T18:45:56Z</time>
      </trkpt>
      <trkpt lat="43.87971" lon="6.33546">
        <ele>1283</ele>
        <time>2022-06-09T18:45:57Z</time>
      </trkpt>
      <trkpt lat="43.87966" lon="6.33555">
        <ele>1282</ele>
        <time>2022-06-09T18:45:59Z</time>
      </trkpt>
      <trkpt lat="43.87966" lon="6.33553">
        <ele>1283</ele>
        <time>2022-06-09T18:46:00Z</time>
      </trkpt>
      <trkpt lat="43.87964" lon="6.33563">
        <ele>1280</ele>
        <time>2022-06-09T18:46:01Z</time>
      </trkpt>
      <trkpt lat="43.87952" lon="6.33587">
        <ele>1276</ele>
        <time>2022-06-09T18:46:06Z</time>
      </trkpt>
      <trkpt lat="43.8794" lon="6.33643">
        <ele>1262</ele>
        <time>2022-06-09T18:46:16Z</time>
      </trkpt>
      <trkpt lat="43.87941" lon="6.33657">
        <ele>1257</ele>
        <time>2022-06-09T18:46:19Z</time>
      </trkpt>
      <trkpt lat="43.87937" lon="6.33665">
        <ele>1255</ele>
        <time>2022-06-09T18:46:20Z</time>
      </trkpt>
      <trkpt lat="43.87937" lon="6.33713">
        <ele>1248</ele>
        <time>2022-06-09T18:46:28Z</time>
      </trkpt>
      <trkpt lat="43.87925" lon="6.33737">
        <ele>1247</ele>
        <time>2022-06-09T18:46:33Z</time>
      </trkpt>
      <trkpt lat="43.87927" lon="6.33735">
        <ele>1247</ele>
        <time>2022-06-09T18:46:34Z</time>
      </trkpt>
      <trkpt lat="43.87906" lon="6.33746">
        <ele>1246</ele>
        <time>2022-06-09T18:46:39Z</time>
      </trkpt>
      <trkpt lat="43.87901" lon="6.33774">
        <ele>1246</ele>
        <time>2022-06-09T18:46:44Z</time>
      </trkpt>
      <trkpt lat="43.87881" lon="6.33796">
        <ele>1243</ele>
        <time>2022-06-09T18:46:50Z</time>
      </trkpt>
      <trkpt lat="43.87877" lon="6.33804">
        <ele>1243</ele>
        <time>2022-06-09T18:46:51Z</time>
      </trkpt>
      <trkpt lat="43.87842" lon="6.33848">
        <ele>1235</ele>
        <time>2022-06-09T18:47:02Z</time>
      </trkpt>
      <trkpt lat="43.87833" lon="6.33864">
        <ele>1233</ele>
        <time>2022-06-09T18:47:06Z</time>
      </trkpt>
      <trkpt lat="43.87818" lon="6.33909">
        <ele>1228</ele>
        <time>2022-06-09T18:47:14Z</time>
      </trkpt>
      <trkpt lat="43.87818" lon="6.33933">
        <ele>1229</ele>
        <time>2022-06-09T18:47:18Z</time>
      </trkpt>
      <trkpt lat="43.87791" lon="6.33959">
        <ele>1219</ele>
        <time>2022-06-09T18:47:26Z</time>
      </trkpt>
      <trkpt lat="43.87784" lon="6.33985">
        <ele>1217</ele>
        <time>2022-06-09T18:47:31Z</time>
      </trkpt>
      <trkpt lat="43.87778" lon="6.33991">
        <ele>1214</ele>
        <time>2022-06-09T18:47:32Z</time>
      </trkpt>
      <trkpt lat="43.87772" lon="6.33994">
        <ele>1212</ele>
        <time>2022-06-09T18:47:34Z</time>
      </trkpt>
      <trkpt lat="43.87772" lon="6.33992">
        <ele>1212</ele>
        <time>2022-06-09T18:47:34Z</time>
      </trkpt>
      <trkpt lat="43.8777" lon="6.34009">
        <ele>1210</ele>
        <time>2022-06-09T18:47:37Z</time>
      </trkpt>
      <trkpt lat="43.87767" lon="6.3401">
        <ele>1208</ele>
        <time>2022-06-09T18:47:38Z</time>
      </trkpt>
      <trkpt lat="43.87753" lon="6.34029">
        <ele>1199</ele>
        <time>2022-06-09T18:47:42Z</time>
      </trkpt>
      <trkpt lat="43.8775" lon="6.34027">
        <ele>1198</ele>
        <time>2022-06-09T18:47:43Z</time>
      </trkpt>
      <trkpt lat="43.87747" lon="6.34019">
        <ele>1198</ele>
        <time>2022-06-09T18:47:45Z</time>
      </trkpt>
      <trkpt lat="43.87742" lon="6.34042">
        <ele>1192</ele>
        <time>2022-06-09T18:47:49Z</time>
      </trkpt>
      <trkpt lat="43.87742" lon="6.34047">
        <ele>1191</ele>
        <time>2022-06-09T18:47:50Z</time>
      </trkpt>
      <trkpt lat="43.87747" lon="6.34056">
        <ele>1192</ele>
        <time>2022-06-09T18:47:51Z</time>
      </trkpt>
      <trkpt lat="43.87745" lon="6.34063">
        <ele>1190</ele>
        <time>2022-06-09T18:47:53Z</time>
      </trkpt>
      <trkpt lat="43.87753" lon="6.34071">
        <ele>1192</ele>
        <time>2022-06-09T18:47:55Z</time>
      </trkpt>
      <trkpt lat="43.87783" lon="6.3408">
        <ele>1202</ele>
        <time>2022-06-09T18:48:02Z</time>
      </trkpt>
      <trkpt lat="43.87785" lon="6.34087">
        <ele>1200</ele>
        <time>2022-06-09T18:48:03Z</time>
      </trkpt>
      <trkpt lat="43.87782" lon="6.34098">
        <ele>1193</ele>
        <time>2022-06-09T18:48:05Z</time>
      </trkpt>
      <trkpt lat="43.87783" lon="6.34113">
        <ele>1185</ele>
        <time>2022-06-09T18:48:08Z</time>
      </trkpt>
      <trkpt lat="43.87795" lon="6.34129">
        <ele>1180</ele>
        <time>2022-06-09T18:48:12Z</time>
      </trkpt>
      <trkpt lat="43.87793" lon="6.3413">
        <ele>1179</ele>
        <time>2022-06-09T18:48:12Z</time>
      </trkpt>
      <trkpt lat="43.87795" lon="6.34129">
        <ele>1180</ele>
        <time>2022-06-09T18:48:13Z</time>
      </trkpt>
      <trkpt lat="43.87822" lon="6.34142">
        <ele>1181</ele>
        <time>2022-06-09T18:48:20Z</time>
      </trkpt>
      <trkpt lat="43.87872" lon="6.34155">
        <ele>1182</ele>
        <time>2022-06-09T18:48:31Z</time>
      </trkpt>
      <trkpt lat="43.87889" lon="6.34166">
        <ele>1177</ele>
        <time>2022-06-09T18:48:36Z</time>
      </trkpt>
      <trkpt lat="43.87912" lon="6.34199">
        <ele>1165</ele>
        <time>2022-06-09T18:48:44Z</time>
      </trkpt>
      <trkpt lat="43.87923" lon="6.34201">
        <ele>1164</ele>
        <time>2022-06-09T18:48:46Z</time>
      </trkpt>
      <trkpt lat="43.87931" lon="6.34206">
        <ele>1160</ele>
        <time>2022-06-09T18:48:48Z</time>
      </trkpt>
      <trkpt lat="43.87933" lon="6.34218">
        <ele>1155</ele>
        <time>2022-06-09T18:48:50Z</time>
      </trkpt>
      <trkpt lat="43.8794" lon="6.34232">
        <ele>1147</ele>
        <time>2022-06-09T18:48:53Z</time>
      </trkpt>
      <trkpt lat="43.87939" lon="6.34236">
        <ele>1146</ele>
        <time>2022-06-09T18:48:54Z</time>
      </trkpt>
      <trkpt lat="43.87933" lon="6.3424">
        <ele>1145</ele>
        <time>2022-06-09T18:48:55Z</time>
      </trkpt>
      <trkpt lat="43.87934" lon="6.34246">
        <ele>1142</ele>
        <time>2022-06-09T18:48:56Z</time>
      </trkpt>
      <trkpt lat="43.87946" lon="6.34258">
        <ele>1137</ele>
        <time>2022-06-09T18:49:00Z</time>
      </trkpt>
      <trkpt lat="43.8794" lon="6.34262">
        <ele>1137</ele>
        <time>2022-06-09T18:49:01Z</time>
      </trkpt>
      <trkpt lat="43.87945" lon="6.34273">
        <ele>1134</ele>
        <time>2022-06-09T18:49:04Z</time>
      </trkpt>
      <trkpt lat="43.87944" lon="6.34302">
        <ele>1128</ele>
        <time>2022-06-09T18:49:09Z</time>
      </trkpt>
      <trkpt lat="43.87946" lon="6.3432">
        <ele>1123</ele>
        <time>2022-06-09T18:49:12Z</time>
      </trkpt>
      <trkpt lat="43.87931" lon="6.3435">
        <ele>1121</ele>
        <time>2022-06-09T18:49:18Z</time>
      </trkpt>
      <trkpt lat="43.87933" lon="6.34422">
        <ele>1109</ele>
        <time>2022-06-09T18:49:30Z</time>
      </trkpt>
      <trkpt lat="43.8793" lon="6.3446">
        <ele>1107</ele>
        <time>2022-06-09T18:49:36Z</time>
      </trkpt>
      <trkpt lat="43.87916" lon="6.34495">
        <ele>1109</ele>
        <time>2022-06-09T18:49:43Z</time>
      </trkpt>
      <trkpt lat="43.87905" lon="6.34534">
        <ele>1095</ele>
        <time>2022-06-09T18:49:50Z</time>
      </trkpt>
      <trkpt lat="43.87871" lon="6.34569">
        <ele>1080</ele>
        <time>2022-06-09T18:50:00Z</time>
      </trkpt>
      <trkpt lat="43.87843" lon="6.34579">
        <ele>1077</ele>
        <time>2022-06-09T18:50:07Z</time>
      </trkpt>
      <trkpt lat="43.87851" lon="6.34593">
        <ele>1075</ele>
        <time>2022-06-09T18:50:10Z</time>
      </trkpt>
      <trkpt lat="43.87851" lon="6.346">
        <ele>1073</ele>
        <time>2022-06-09T18:50:11Z</time>
      </trkpt>
      <trkpt lat="43.87862" lon="6.34603">
        <ele>1072</ele>
        <time>2022-06-09T18:50:14Z</time>
      </trkpt>
      <trkpt lat="43.87836" lon="6.3465">
        <ele>1065</ele>
        <time>2022-06-09T18:50:23Z</time>
      </trkpt>
      <trkpt lat="43.87852" lon="6.34685">
        <ele>1057</ele>
        <time>2022-06-09T18:50:30Z</time>
      </trkpt>
      <trkpt lat="43.87853" lon="6.34699">
        <ele>1055</ele>
        <time>2022-06-09T18:50:33Z</time>
      </trkpt>
      <trkpt lat="43.87858" lon="6.34713">
        <ele>1052</ele>
        <time>2022-06-09T18:50:35Z</time>
      </trkpt>
      <trkpt lat="43.87867" lon="6.34756">
        <ele>1044</ele>
        <time>2022-06-09T18:50:43Z</time>
      </trkpt>
      <trkpt lat="43.87883" lon="6.34802">
        <ele>1037</ele>
        <time>2022-06-09T18:50:52Z</time>
      </trkpt>
      <trkpt lat="43.87887" lon="6.34823">
        <ele>1035</ele>
        <time>2022-06-09T18:50:55Z</time>
      </trkpt>
      <trkpt lat="43.87914" lon="6.34852">
        <ele>1032</ele>
        <time>2022-06-09T18:51:03Z</time>
      </trkpt>
      <trkpt lat="43.87944" lon="6.3491">
        <ele>1022</ele>
        <time>2022-06-09T18:51:15Z</time>
      </trkpt>
      <trkpt lat="43.87949" lon="6.34931">
        <ele>1018</ele>
        <time>2022-06-09T18:51:19Z</time>
      </trkpt>
      <trkpt lat="43.8795" lon="6.34978">
        <ele>1009</ele>
        <time>2022-06-09T18:51:27Z</time>
      </trkpt>
      <trkpt lat="43.87959" lon="6.34993">
        <ele>1005</ele>
        <time>2022-06-09T18:51:30Z</time>
      </trkpt>
      <trkpt lat="43.87971" lon="6.34999">
        <ele>1003</ele>
        <time>2022-06-09T18:51:33Z</time>
      </trkpt>
      <trkpt lat="43.87986" lon="6.35">
        <ele>1002</ele>
        <time>2022-06-09T18:51:37Z</time>
      </trkpt>
      <trkpt lat="43.87984" lon="6.35006">
        <ele>1001</ele>
        <time>2022-06-09T18:51:38Z</time>
      </trkpt>
      <trkpt lat="43.87972" lon="6.35021">
        <ele>999</ele>
        <time>2022-06-09T18:51:42Z</time>
      </trkpt>
      <trkpt lat="43.87983" lon="6.35023">
        <ele>998</ele>
        <time>2022-06-09T18:51:44Z</time>
      </trkpt>
      <trkpt lat="43.87982" lon="6.35031">
        <ele>996</ele>
        <time>2022-06-09T18:51:45Z</time>
      </trkpt>
      <trkpt lat="43.87984" lon="6.35032">
        <ele>996</ele>
        <time>2022-06-09T18:51:46Z</time>
      </trkpt>
      <trkpt lat="43.88001" lon="6.35023">
        <ele>996</ele>
        <time>2022-06-09T18:51:50Z</time>
      </trkpt>
      <trkpt lat="43.88004" lon="6.35025">
        <ele>996</ele>
        <time>2022-06-09T18:51:51Z</time>
      </trkpt>
      <trkpt lat="43.88" lon="6.35042">
        <ele>993</ele>
        <time>2022-06-09T18:51:54Z</time>
      </trkpt>
      <trkpt lat="43.88003" lon="6.35045">
        <ele>992</ele>
        <time>2022-06-09T18:51:55Z</time>
      </trkpt>
      <trkpt lat="43.88009" lon="6.3504">
        <ele>992</ele>
        <time>2022-06-09T18:51:57Z</time>
      </trkpt>
      <trkpt lat="43.88013" lon="6.3504">
        <ele>992</ele>
        <time>2022-06-09T18:51:57Z</time>
      </trkpt>
      <trkpt lat="43.88018" lon="6.35073">
        <ele>986</ele>
        <time>2022-06-09T18:52:03Z</time>
      </trkpt>
      <trkpt lat="43.8802" lon="6.35076">
        <ele>985</ele>
        <time>2022-06-09T18:52:04Z</time>
      </trkpt>
      <trkpt lat="43.88042" lon="6.35086">
        <ele>982</ele>
        <time>2022-06-09T18:52:09Z</time>
      </trkpt>
      <trkpt lat="43.88057" lon="6.35111">
        <ele>980</ele>
        <time>2022-06-09T18:52:15Z</time>
      </trkpt>
      <trkpt lat="43.88061" lon="6.35127">
        <ele>979</ele>
        <time>2022-06-09T18:52:18Z</time>
      </trkpt>
      <trkpt lat="43.88056" lon="6.35158">
        <ele>978</ele>
        <time>2022-06-09T18:52:23Z</time>
      </trkpt>
      <trkpt lat="43.88047" lon="6.35177">
        <ele>978</ele>
        <time>2022-06-09T18:52:27Z</time>
      </trkpt>
      <trkpt lat="43.88047" lon="6.35184">
        <ele>978</ele>
        <time>2022-06-09T18:52:28Z</time>
      </trkpt>
      <trkpt lat="43.88067" lon="6.35201">
        <ele>979</ele>
        <time>2022-06-09T18:52:33Z</time>
      </trkpt>
      <trkpt lat="43.88066" lon="6.35194">
        <ele>978</ele>
        <time>2022-06-09T18:52:35Z</time>
      </trkpt>
      <trkpt lat="43.8807" lon="6.35201">
        <ele>979</ele>
        <time>2022-06-09T18:52:36Z</time>
      </trkpt>
      <trkpt lat="43.88063" lon="6.35217">
        <ele>979</ele>
        <time>2022-06-09T18:52:39Z</time>
      </trkpt>
      <trkpt lat="43.88055" lon="6.35248">
        <ele>979</ele>
        <time>2022-06-09T18:52:45Z</time>
      </trkpt>
      <trkpt lat="43.88042" lon="6.35351">
        <ele>976</ele>
        <time>2022-06-09T18:53:02Z</time>
      </trkpt>
      <trkpt lat="43.88033" lon="6.3539">
        <ele>974</ele>
        <time>2022-06-09T18:53:09Z</time>
      </trkpt>
      <trkpt lat="43.88022" lon="6.35421">
        <ele>972</ele>
        <time>2022-06-09T18:53:15Z</time>
      </trkpt>
      <trkpt lat="43.87998" lon="6.35473">
        <ele>971</ele>
        <time>2022-06-09T18:53:25Z</time>
      </trkpt>
      <trkpt lat="43.87968" lon="6.35529">
        <ele>971</ele>
        <time>2022-06-09T18:53:37Z</time>
      </trkpt>
      <trkpt lat="43.87967" lon="6.35526">
        <ele>970</ele>
        <time>2022-06-09T18:53:38Z</time>
      </trkpt>
      <trkpt lat="43.8793" lon="6.35596">
        <ele>969</ele>
        <time>2022-06-09T18:53:52Z</time>
      </trkpt>
      <trkpt lat="43.87867" lon="6.35697">
        <ele>968</ele>
        <time>2022-06-09T18:54:15Z</time>
      </trkpt>
      <trkpt lat="43.87849" lon="6.3575">
        <ele>969</ele>
        <time>2022-06-09T18:54:25Z</time>
      </trkpt>
      <trkpt lat="43.87822" lon="6.35783">
        <ele>966</ele>
        <time>2022-06-09T18:54:33Z</time>
      </trkpt>
      <trkpt lat="43.87797" lon="6.3582">
        <ele>964</ele>
        <time>2022-06-09T18:54:42Z</time>
      </trkpt>
      <trkpt lat="43.87786" lon="6.35868">
        <ele>964</ele>
        <time>2022-06-09T18:54:50Z</time>
      </trkpt>
      <trkpt lat="43.87765" lon="6.3591">
        <ele>963</ele>
        <time>2022-06-09T18:54:59Z</time>
      </trkpt>
      <trkpt lat="43.87758" lon="6.35942">
        <ele>964</ele>
        <time>2022-06-09T18:55:04Z</time>
      </trkpt>
      <trkpt lat="43.87732" lon="6.35998">
        <ele>964</ele>
        <time>2022-06-09T18:55:16Z</time>
      </trkpt>
      <trkpt lat="43.87696" lon="6.36041">
        <ele>963</ele>
        <time>2022-06-09T18:55:27Z</time>
      </trkpt>
      <trkpt lat="43.87673" lon="6.36074">
        <ele>960</ele>
        <time>2022-06-09T18:55:34Z</time>
      </trkpt>
      <trkpt lat="43.8766" lon="6.36103">
        <ele>961</ele>
        <time>2022-06-09T18:55:40Z</time>
      </trkpt>
      <trkpt lat="43.87618" lon="6.36172">
        <ele>964</ele>
        <time>2022-06-09T18:55:55Z</time>
      </trkpt>
      <trkpt lat="43.87586" lon="6.36203">
        <ele>963</ele>
        <time>2022-06-09T18:56:04Z</time>
      </trkpt>
      <trkpt lat="43.87547" lon="6.36235">
        <ele>962</ele>
        <time>2022-06-09T18:56:15Z</time>
      </trkpt>
      <trkpt lat="43.87503" lon="6.36297">
        <ele>968</ele>
        <time>2022-06-09T18:56:30Z</time>
      </trkpt>
      <trkpt lat="43.8748" lon="6.36319">
        <ele>967</ele>
        <time>2022-06-09T18:56:36Z</time>
      </trkpt>
      <trkpt lat="43.87374" lon="6.36439">
        <ele>967</ele>
        <time>2022-06-09T18:57:08Z</time>
      </trkpt>
      <trkpt lat="43.87348" lon="6.36458">
        <ele>962</ele>
        <time>2022-06-09T18:57:15Z</time>
      </trkpt>
      <trkpt lat="43.87336" lon="6.36481">
        <ele>962</ele>
        <time>2022-06-09T18:57:20Z</time>
      </trkpt>
      <trkpt lat="43.87222" lon="6.36786">
        <ele>971</ele>
        <time>2022-06-09T18:58:18Z</time>
      </trkpt>
      <trkpt lat="43.87188" lon="6.36908">
        <ele>965</ele>
        <time>2022-06-09T18:58:40Z</time>
      </trkpt>
      <trkpt lat="43.87184" lon="6.3693">
        <ele>963</ele>
        <time>2022-06-09T18:58:44Z</time>
      </trkpt>
      <trkpt lat="43.87187" lon="6.36942">
        <ele>962</ele>
        <time>2022-06-09T18:58:46Z</time>
      </trkpt>
      <trkpt lat="43.87186" lon="6.3696">
        <ele>959</ele>
        <time>2022-06-09T18:58:49Z</time>
      </trkpt>
      <trkpt lat="43.87195" lon="6.3697">
        <ele>960</ele>
        <time>2022-06-09T18:58:51Z</time>
      </trkpt>
      <trkpt lat="43.87202" lon="6.36973">
        <ele>960</ele>
        <time>2022-06-09T18:58:53Z</time>
      </trkpt>
      <trkpt lat="43.87227" lon="6.36963">
        <ele>966</ele>
        <time>2022-06-09T18:58:59Z</time>
      </trkpt>
      <trkpt lat="43.87229" lon="6.36969">
        <ele>965</ele>
        <time>2022-06-09T18:59:00Z</time>
      </trkpt>
      <trkpt lat="43.87228" lon="6.36966">
        <ele>966</ele>
        <time>2022-06-09T18:59:01Z</time>
      </trkpt>
    </trkseg>
  </trk>
</gpx>